Wetterdaten: Mittwoch, 08.08.2018
Datum Zeit Temp. A. Pool Temp. Temp. 5cm Feuchte A. Luftdruck Regen Wind Richtung Richtung Sonnenschein ET UV Solar Taupunkt Windchill Windben Empfang
08.08.2018 00:00 19,8 C 26,7 C 18,9 C 83 % 1011,4 hPa 0,0 l/m 1,8 km/h (1 Bft) S 188 0 min 0,000 mm 0,0 UV-I 0 W/m 16,8 C 19,8 C 3,2 km/h (1 Bft) 100,00 %
08.08.2018 00:02 19,7 C 26,7 C 18,9 C 83 % 1011,4 hPa 0,0 l/m 1,9 km/h (1 Bft) S 188 0 min 0,000 mm 0,0 UV-I 0 W/m 16,7 C 19,7 C 3,2 km/h (1 Bft) 95,45 %
08.08.2018 00:04 19,7 C 26,7 C 18,9 C 84 % 1011,4 hPa 0,0 l/m 4,5 km/h (1 Bft) SW 231 0 min 0,000 mm 0,0 UV-I 0 W/m 16,9 C 19,7 C 6,4 km/h (2 Bft) 97,87 %
08.08.2018 00:06 19,7 C 26,7 C 18,9 C 84 % 1011,4 hPa 0,0 l/m 4,2 km/h (1 Bft) SW 230 0 min 0,000 mm 0,0 UV-I 0 W/m 16,9 C 19,7 C 4,8 km/h (1 Bft) 95,74 %
08.08.2018 00:08 19,6 C 26,7 C 18,9 C 84 % 1011,4 hPa 0,0 l/m 2,9 km/h (1 Bft) SW 230 0 min 0,000 mm 0,0 UV-I 0 W/m 16,8 C 19,6 C 4,8 km/h (1 Bft) 97,87 %
08.08.2018 00:10 19,5 C 26,7 C 18,9 C 85 % 1011,4 hPa 0,0 l/m 3,8 km/h (1 Bft) SW 229 0 min 0,000 mm 0,0 UV-I 0 W/m 16,9 C 19,5 C 4,8 km/h (1 Bft) 93,75 %
08.08.2018 00:12 19,4 C 26,7 C 18,9 C 85 % 1011,4 hPa 0,0 l/m 3,4 km/h (1 Bft) S 186 0 min 0,000 mm 0,0 UV-I 0 W/m 16,8 C 19,4 C 4,8 km/h (1 Bft) 97,87 %
08.08.2018 00:14 19,4 C 26,7 C 18,9 C 85 % 1011,3 hPa 0,0 l/m 3,1 km/h (1 Bft) S 186 0 min 0,000 mm 0,0 UV-I 0 W/m 16,8 C 19,4 C 4,8 km/h (1 Bft) 93,62 %
08.08.2018 00:16 19,4 C 26,7 C 18,9 C 85 % 1011,3 hPa 0,0 l/m 3,3 km/h (1 Bft) S 186 0 min 0,000 mm 0,0 UV-I 0 W/m 16,8 C 19,4 C 4,8 km/h (1 Bft) 97,87 %
08.08.2018 00:18 19,6 C 26,7 C 18,9 C 85 % 1011,3 hPa 0,0 l/m 2,5 km/h (1 Bft) S 186 0 min 0,000 mm 0,0 UV-I 0 W/m 17,0 C 19,6 C 3,2 km/h (1 Bft) 97,87 %
08.08.2018 00:20 19,7 C 26,7 C 18,9 C 84 % 1011,3 hPa 0,0 l/m 2,8 km/h (1 Bft) S 186 0 min 0,000 mm 0,0 UV-I 0 W/m 16,9 C 19,7 C 3,2 km/h (1 Bft) 97,87 %
08.08.2018 00:22 19,8 C 26,7 C 18,9 C 83 % 1011,3 hPa 0,0 l/m 3,1 km/h (1 Bft) S 186 0 min 0,000 mm 0,0 UV-I 0 W/m 16,8 C 19,8 C 4,8 km/h (1 Bft) 97,87 %
08.08.2018 00:24 19,8 C 26,7 C 18,9 C 83 % 1011,2 hPa 0,0 l/m 2,1 km/h (1 Bft) S 186 0 min 0,000 mm 0,0 UV-I 0 W/m 16,8 C 19,8 C 3,2 km/h (1 Bft) 97,37 %
08.08.2018 00:26 19,7 C 26,7 C 18,9 C 83 % 1011,2 hPa 0,0 l/m 1,7 km/h (1 Bft) S 186 0 min 0,000 mm 0,0 UV-I 0 W/m 16,7 C 19,7 C 3,2 km/h (1 Bft) 100,00 %
08.08.2018 00:28 19,6 C 26,7 C 18,9 C 84 % 1011,2 hPa 0,0 l/m 1,1 km/h (1 Bft) S 186 0 min 0,000 mm 0,0 UV-I 0 W/m 16,8 C 19,6 C 3,2 km/h (1 Bft) 97,87 %
08.08.2018 00:30 19,5 C 26,7 C 18,9 C 84 % 1011,2 hPa 0,0 l/m 1,3 km/h (1 Bft) S 186 0 min 0,000 mm 0,0 UV-I 0 W/m 16,7 C 19,5 C 3,2 km/h (1 Bft) 94,00 %
08.08.2018 00:32 19,4 C 26,7 C 18,9 C 84 % 1011,2 hPa 0,0 l/m 1,8 km/h (1 Bft) S 186 0 min 0,000 mm 0,0 UV-I 0 W/m 16,6 C 19,4 C 3,2 km/h (1 Bft) 97,87 %
08.08.2018 00:34 19,3 C 26,7 C 18,3 C 84 % 1011,0 hPa 0,0 l/m 2,1 km/h (1 Bft) S 186 0 min 0,000 mm 0,0 UV-I 0 W/m 16,5 C 19,3 C 3,2 km/h (1 Bft) 97,56 %
08.08.2018 00:36 19,3 C 26,7 C 18,3 C 84 % 1011,0 hPa 0,0 l/m 2,8 km/h (1 Bft) S 186 0 min 0,000 mm 0,0 UV-I 0 W/m 16,5 C 19,3 C 3,2 km/h (1 Bft) 100,00 %
08.08.2018 00:38 19,1 C 26,7 C 17,8 C 85 % 1011,0 hPa 0,0 l/m 2,9 km/h (1 Bft) S 186 0 min 0,000 mm 0,0 UV-I 0 W/m 16,5 C 19,1 C 4,8 km/h (1 Bft) 100,00 %
08.08.2018 00:40 18,8 C 26,7 C 17,8 C 85 % 1011,0 hPa 0,0 l/m 3,4 km/h (1 Bft) S 186 0 min 0,000 mm 0,0 UV-I 0 W/m 16,2 C 18,8 C 4,8 km/h (1 Bft) 100,00 %
08.08.2018 00:42 18,7 C 26,7 C 17,2 C 86 % 1011,0 hPa 0,0 l/m 3,2 km/h (1 Bft) S 186 0 min 0,000 mm 0,0 UV-I 0 W/m 16,3 C 18,7 C 4,8 km/h (1 Bft) 100,00 %
08.08.2018 00:44 18,7 C 26,7 C 17,2 C 86 % 1011,0 hPa 0,0 l/m 3,0 km/h (1 Bft) S 186 0 min 0,000 mm 0,0 UV-I 0 W/m 16,3 C 18,7 C 3,2 km/h (1 Bft) 100,00 %
08.08.2018 00:46 18,7 C 26,7 C 17,2 C 86 % 1011,1 hPa 0,0 l/m 1,9 km/h (1 Bft) S 186 0 min 0,000 mm 0,0 UV-I 0 W/m 16,3 C 18,7 C 3,2 km/h (1 Bft) 100,00 %
08.08.2018 00:48 18,8 C 26,7 C 17,2 C 86 % 1011,2 hPa 0,0 l/m 2,1 km/h (1 Bft) S 186 0 min 0,000 mm 0,0 UV-I 0 W/m 16,4 C 18,8 C 3,2 km/h (1 Bft) 100,00 %
08.08.2018 00:50 18,9 C 26,7 C 17,2 C 86 % 1011,2 hPa 0,0 l/m 2,8 km/h (1 Bft) S 186 0 min 0,000 mm 0,0 UV-I 0 W/m 16,5 C 18,9 C 3,2 km/h (1 Bft) 97,87 %
08.08.2018 00:52 18,8 C 26,7 C 17,2 C 86 % 1011,2 hPa 0,0 l/m 3,1 km/h (1 Bft) S 186 0 min 0,000 mm 0,0 UV-I 0 W/m 16,4 C 18,8 C 4,8 km/h (1 Bft) 97,37 %
08.08.2018 00:54 18,7 C 26,1 C 17,2 C 86 % 1011,1 hPa 0,0 l/m 2,2 km/h (1 Bft) S 186 0 min 0,000 mm 0,0 UV-I 0 W/m 16,3 C 18,7 C 3,2 km/h (1 Bft) 100,00 %
08.08.2018 00:56 18,7 C 26,1 C 17,2 C 87 % 1011,1 hPa 0,0 l/m 1,3 km/h (1 Bft) S 186 0 min 0,000 mm 0,0 UV-I 0 W/m 16,5 C 18,7 C 3,2 km/h (1 Bft) 95,74 %
08.08.2018 00:58 18,7 C 26,1 C 16,7 C 87 % 1011,1 hPa 0,0 l/m 2,5 km/h (1 Bft) S 186 0 min 0,000 mm 0,0 UV-I 0 W/m 16,5 C 18,7 C 3,2 km/h (1 Bft) 98,00 %
08.08.2018 01:00 18,7 C 26,1 C 17,2 C 87 % 1011,1 hPa 0,0 l/m 3,5 km/h (1 Bft) S 186 0 min 0,000 mm 0,0 UV-I 0 W/m 16,5 C 18,7 C 4,8 km/h (1 Bft) 95,74 %
08.08.2018 01:02 18,7 C 26,1 C 17,2 C 87 % 1011,1 hPa 0,0 l/m 4,5 km/h (1 Bft) SW 215 0 min 0,000 mm 0,0 UV-I 0 W/m 16,5 C 18,7 C 4,8 km/h (1 Bft) 95,74 %
08.08.2018 01:04 18,6 C 26,1 C 17,2 C 87 % 1011,1 hPa 0,0 l/m 5,2 km/h (1 Bft) SW 214 0 min 0,000 mm 0,0 UV-I 0 W/m 16,4 C 18,6 C 6,4 km/h (2 Bft) 95,74 %
08.08.2018 01:06 18,7 C 26,1 C 17,2 C 87 % 1011,0 hPa 0,0 l/m 4,7 km/h (1 Bft) S-SW 213 0 min 0,000 mm 0,0 UV-I 0 W/m 16,5 C 18,7 C 6,4 km/h (2 Bft) 92,00 %
08.08.2018 01:08 18,6 C 26,1 C 17,8 C 86 % 1011,0 hPa 0,0 l/m 3,1 km/h (1 Bft) S-SW 213 0 min 0,000 mm 0,0 UV-I 0 W/m 16,2 C 18,6 C 4,8 km/h (1 Bft) 93,62 %
08.08.2018 01:10 18,4 C 26,1 C 17,2 C 86 % 1011,0 hPa 0,0 l/m 2,8 km/h (1 Bft) S-SW 213 0 min 0,000 mm 0,0 UV-I 0 W/m 16,0 C 18,4 C 4,8 km/h (1 Bft) 95,74 %
08.08.2018 01:12 18,2 C 26,1 C 17,2 C 87 % 1011,1 hPa 0,0 l/m 3,9 km/h (1 Bft) S-SW 192 0 min 0,000 mm 0,0 UV-I 0 W/m 16,0 C 18,2 C 6,4 km/h (2 Bft) 95,74 %
08.08.2018 01:14 18,1 C 26,1 C 17,2 C 87 % 1011,0 hPa 0,0 l/m 5,0 km/h (1 Bft) S-SO 154 0 min 0,000 mm 0,0 UV-I 0 W/m 15,9 C 18,1 C 6,4 km/h (2 Bft) 94,00 %
08.08.2018 01:16 18,1 C 26,1 C 17,2 C 88 % 1011,0 hPa 0,0 l/m 6,0 km/h (2 Bft) S-SO 153 0 min 0,000 mm 0,0 UV-I 0 W/m 16,1 C 18,1 C 8,0 km/h (2 Bft) 92,11 %
08.08.2018 01:18 18,2 C 26,1 C 16,7 C 88 % 1010,9 hPa 0,0 l/m 5,2 km/h (1 Bft) S-SO 153 0 min 0,000 mm 0,0 UV-I 0 W/m 16,2 C 18,2 C 6,4 km/h (2 Bft) 95,74 %
08.08.2018 01:20 18,3 C 26,1 C 16,7 C 88 % 1010,9 hPa 0,0 l/m 5,0 km/h (1 Bft) S-SO 153 0 min 0,000 mm 0,0 UV-I 0 W/m 16,3 C 18,3 C 6,4 km/h (2 Bft) 95,74 %
08.08.2018 01:22 18,3 C 26,1 C 17,2 C 87 % 1010,9 hPa 0,0 l/m 3,6 km/h (1 Bft) S-SO 158 0 min 0,000 mm 0,0 UV-I 0 W/m 16,1 C 18,3 C 4,8 km/h (1 Bft) 95,74 %
08.08.2018 01:24 18,3 C 26,1 C 17,2 C 87 % 1010,9 hPa 0,0 l/m 2,3 km/h (1 Bft) S-SO 158 0 min 0,000 mm 0,0 UV-I 0 W/m 16,1 C 18,3 C 3,2 km/h (1 Bft) 95,83 %
08.08.2018 01:26 18,4 C 26,1 C 17,2 C 87 % 1010,9 hPa 0,0 l/m 2,2 km/h (1 Bft) S-SO 158 0 min 0,000 mm 0,0 UV-I 0 W/m 16,2 C 18,4 C 3,2 km/h (1 Bft) 93,62 %
08.08.2018 01:28 18,4 C 26,1 C 17,2 C 87 % 1010,8 hPa 0,0 l/m 2,8 km/h (1 Bft) S-SO 158 0 min 0,000 mm 0,0 UV-I 0 W/m 16,2 C 18,4 C 4,8 km/h (1 Bft) 97,87 %
08.08.2018 01:30 18,6 C 26,1 C 17,2 C 86 % 1010,8 hPa 0,0 l/m 3,5 km/h (1 Bft) S-SO 158 0 min 0,000 mm 0,0 UV-I 0 W/m 16,2 C 18,6 C 8,0 km/h (2 Bft) 98,00 %
08.08.2018 01:32 18,6 C 26,1 C 16,7 C 86 % 1010,8 hPa 0,0 l/m 4,6 km/h (1 Bft) S-SO 158 0 min 0,000 mm 0,0 UV-I 0 W/m 16,2 C 18,6 C 8,0 km/h (2 Bft) 100,00 %
08.08.2018 01:34 18,5 C 26,1 C 17,2 C 86 % 1010,8 hPa 0,0 l/m 3,4 km/h (1 Bft) S-SO 158 0 min 0,000 mm 0,0 UV-I 0 W/m 16,1 C 18,5 C 4,8 km/h (1 Bft) 100,00 %
08.08.2018 01:36 18,4 C 26,1 C 17,2 C 86 % 1010,7 hPa 0,0 l/m 2,6 km/h (1 Bft) S-SO 158 0 min 0,000 mm 0,0 UV-I 0 W/m 16,0 C 18,4 C 4,8 km/h (1 Bft) 100,00 %
08.08.2018 01:38 18,4 C 26,1 C 17,2 C 86 % 1010,8 hPa 0,0 l/m 2,5 km/h (1 Bft) S 182 0 min 0,000 mm 0,0 UV-I 0 W/m 16,0 C 18,4 C 4,8 km/h (1 Bft) 97,87 %
08.08.2018 01:40 18,6 C 26,1 C 17,2 C 86 % 1010,8 hPa 0,0 l/m 3,1 km/h (1 Bft) S-SW 193 0 min 0,000 mm 0,0 UV-I 0 W/m 16,2 C 18,6 C 4,8 km/h (1 Bft) 100,00 %
08.08.2018 01:42 18,7 C 26,1 C 17,2 C 85 % 1010,9 hPa 0,0 l/m 2,6 km/h (1 Bft) S-SW 193 0 min 0,000 mm 0,0 UV-I 0 W/m 16,1 C 18,7 C 3,2 km/h (1 Bft) 98,00 %
08.08.2018 01:44 18,7 C 26,1 C 17,2 C 85 % 1010,9 hPa 0,0 l/m 2,2 km/h (1 Bft) S-SW 193 0 min 0,000 mm 0,0 UV-I 0 W/m 16,1 C 18,7 C 3,2 km/h (1 Bft) 95,74 %
08.08.2018 01:46 18,7 C 26,1 C 17,2 C 85 % 1010,9 hPa 0,0 l/m 3,6 km/h (1 Bft) S-SW 193 0 min 0,000 mm 0,0 UV-I 0 W/m 16,1 C 18,7 C 4,8 km/h (1 Bft) 100,00 %
08.08.2018 01:48 18,7 C 26,1 C 17,2 C 85 % 1010,9 hPa 0,0 l/m 2,6 km/h (1 Bft) S-SW 193 0 min 0,000 mm 0,0 UV-I 0 W/m 16,1 C 18,7 C 4,8 km/h (1 Bft) 97,87 %
08.08.2018 01:50 18,5 C 26,1 C 17,2 C 85 % 1010,9 hPa 0,0 l/m 3,0 km/h (1 Bft) S-SW 193 0 min 0,000 mm 0,0 UV-I 0 W/m 15,9 C 18,5 C 4,8 km/h (1 Bft) 100,00 %
08.08.2018 01:52 18,4 C 26,1 C 17,2 C 85 % 1010,9 hPa 0,0 l/m 2,7 km/h (1 Bft) S-SW 193 0 min 0,000 mm 0,0 UV-I 0 W/m 15,8 C 18,4 C 4,8 km/h (1 Bft) 95,74 %
08.08.2018 01:54 18,4 C 26,1 C 17,8 C 85 % 1010,9 hPa 0,0 l/m 2,8 km/h (1 Bft) S-SW 193 0 min 0,000 mm 0,0 UV-I 0 W/m 15,8 C 18,4 C 4,8 km/h (1 Bft) 100,00 %
08.08.2018 01:56 18,4 C 26,1 C 17,8 C 85 % 1010,9 hPa 0,0 l/m 2,6 km/h (1 Bft) S-SW 193 0 min 0,000 mm 0,0 UV-I 0 W/m 15,8 C 18,4 C 4,8 km/h (1 Bft) 97,92 %
08.08.2018 01:58 18,5 C 26,1 C 17,2 C 85 % 1010,9 hPa 0,0 l/m 2,3 km/h (1 Bft) S-SW 194 0 min 0,000 mm 0,0 UV-I 0 W/m 15,9 C 18,5 C 3,2 km/h (1 Bft) 100,00 %
08.08.2018 02:00 18,5 C 26,1 C 17,2 C 85 % 1010,8 hPa 0,0 l/m 0,8 km/h (0 Bft) S-SW 194 0 min 0,000 mm 0,0 UV-I 0 W/m 15,9 C 18,5 C 3,2 km/h (1 Bft) 100,00 %
08.08.2018 02:02 18,6 C 26,1 C 17,2 C 85 % 1010,8 hPa 0,0 l/m 1,9 km/h (1 Bft) S-SW 194 0 min 0,000 mm 0,0 UV-I 0 W/m 16,0 C 18,6 C 3,2 km/h (1 Bft) 100,00 %
08.08.2018 02:04 18,5 C 26,1 C 17,2 C 85 % 1010,8 hPa 0,0 l/m 1,8 km/h (1 Bft) S-SW 194 0 min 0,000 mm 0,0 UV-I 0 W/m 15,9 C 18,5 C 3,2 km/h (1 Bft) 97,92 %
08.08.2018 02:06 18,4 C 26,1 C 17,2 C 85 % 1010,8 hPa 0,0 l/m 3,7 km/h (1 Bft) S-SW 194 0 min 0,000 mm 0,0 UV-I 0 W/m 15,8 C 18,4 C 4,8 km/h (1 Bft) 97,92 %
08.08.2018 02:08 18,3 C 26,1 C 17,2 C 85 % 1010,8 hPa 0,0 l/m 3,6 km/h (1 Bft) S-SW 194 0 min 0,000 mm 0,0 UV-I 0 W/m 15,7 C 18,3 C 4,8 km/h (1 Bft) 100,00 %
08.08.2018 02:10 18,2 C 26,1 C 17,2 C 86 % 1010,8 hPa 0,0 l/m 4,1 km/h (1 Bft) S-SW 207 0 min 0,000 mm 0,0 UV-I 0 W/m 15,8 C 18,2 C 6,4 km/h (2 Bft) 100,00 %
08.08.2018 02:12 18,1 C 26,1 C 17,2 C 86 % 1010,8 hPa 0,0 l/m 4,3 km/h (1 Bft) S-SW 208 0 min 0,000 mm 0,0 UV-I 0 W/m 15,7 C 18,1 C 6,4 km/h (2 Bft) 100,00 %
08.08.2018 02:14 18,1 C 26,1 C 17,2 C 87 % 1010,7 hPa 0,0 l/m 4,0 km/h (1 Bft) S-SW 209 0 min 0,000 mm 0,0 UV-I 0 W/m 15,9 C 18,1 C 4,8 km/h (1 Bft) 97,87 %
08.08.2018 02:16 18,0 C 26,1 C 16,7 C 87 % 1010,7 hPa 0,0 l/m 3,4 km/h (1 Bft) S-SW 209 0 min 0,000 mm 0,0 UV-I 0 W/m 15,8 C 18,0 C 4,8 km/h (1 Bft) 100,00 %
08.08.2018 02:18 18,1 C 26,1 C 16,7 C 87 % 1010,7 hPa 0,0 l/m 3,2 km/h (1 Bft) S-SW 209 0 min 0,000 mm 0,0 UV-I 0 W/m 15,9 C 18,1 C 4,8 km/h (1 Bft) 97,87 %
08.08.2018 02:20 18,1 C 26,1 C 16,7 C 87 % 1010,7 hPa 0,0 l/m 3,8 km/h (1 Bft) SW 221 0 min 0,000 mm 0,0 UV-I 0 W/m 15,9 C 18,1 C 4,8 km/h (1 Bft) 100,00 %
08.08.2018 02:22 18,1 C 26,1 C 16,7 C 87 % 1010,7 hPa 0,0 l/m 4,0 km/h (1 Bft) SW 221 0 min 0,000 mm 0,0 UV-I 0 W/m 15,9 C 18,1 C 6,4 km/h (2 Bft) 97,14 %
08.08.2018 02:24 18,1 C 26,1 C 16,7 C 87 % 1010,7 hPa 0,0 l/m 2,8 km/h (1 Bft) SW 222 0 min 0,000 mm 0,0 UV-I 0 W/m 15,9 C 18,1 C 4,8 km/h (1 Bft) 95,74 %
08.08.2018 02:26 18,1 C 26,1 C 16,7 C 87 % 1010,7 hPa 0,0 l/m 2,8 km/h (1 Bft) SW 222 0 min 0,000 mm 0,0 UV-I 0 W/m 15,9 C 18,1 C 3,2 km/h (1 Bft) 95,74 %
08.08.2018 02:28 18,1 C 26,1 C 16,7 C 86 % 1010,7 hPa 0,0 l/m 3,6 km/h (1 Bft) SW 222 0 min 0,000 mm 0,0 UV-I 0 W/m 15,7 C 18,1 C 4,8 km/h (1 Bft) 95,74 %
08.08.2018 02:30 18,1 C 26,1 C 16,7 C 86 % 1010,7 hPa 0,0 l/m 5,3 km/h (1 Bft) SW 222 0 min 0,000 mm 0,0 UV-I 0 W/m 15,7 C 18,1 C 6,4 km/h (2 Bft) 97,87 %
08.08.2018 02:32 18,1 C 26,1 C 17,2 C 86 % 1010,7 hPa 0,0 l/m 5,3 km/h (1 Bft) SW 222 0 min 0,000 mm 0,0 UV-I 0 W/m 15,7 C 18,1 C 6,4 km/h (2 Bft) 95,74 %
08.08.2018 02:34 18,2 C 26,1 C 17,2 C 86 % 1010,6 hPa 0,0 l/m 3,8 km/h (1 Bft) SW 222 0 min 0,000 mm 0,0 UV-I 0 W/m 15,8 C 18,2 C 4,8 km/h (1 Bft) 95,74 %
08.08.2018 02:36 18,2 C 26,1 C 17,2 C 86 % 1010,7 hPa 0,0 l/m 3,5 km/h (1 Bft) SW 221 0 min 0,000 mm 0,0 UV-I 0 W/m 15,8 C 18,2 C 6,4 km/h (2 Bft) 97,87 %
08.08.2018 02:38 18,2 C 26,1 C 17,2 C 86 % 1010,6 hPa 0,0 l/m 3,5 km/h (1 Bft) SW 221 0 min 0,000 mm 0,0 UV-I 0 W/m 15,8 C 18,2 C 4,8 km/h (1 Bft) 97,92 %
08.08.2018 02:40 18,0 C 26,1 C 16,7 C 86 % 1010,6 hPa 0,0 l/m 4,1 km/h (1 Bft) SW 221 0 min 0,000 mm 0,0 UV-I 0 W/m 15,6 C 18,0 C 4,8 km/h (1 Bft) 96,00 %
08.08.2018 02:42 18,0 C 26,1 C 16,7 C 86 % 1010,6 hPa 0,0 l/m 3,3 km/h (1 Bft) SW 221 0 min 0,000 mm 0,0 UV-I 0 W/m 15,6 C 18,0 C 4,8 km/h (1 Bft) 97,87 %
08.08.2018 02:44 18,0 C 26,1 C 16,7 C 86 % 1010,6 hPa 0,0 l/m 3,1 km/h (1 Bft) SW 221 0 min 0,000 mm 0,0 UV-I 0 W/m 15,6 C 18,0 C 3,2 km/h (1 Bft) 100,00 %
08.08.2018 02:46 18,1 C 26,1 C 16,7 C 86 % 1010,6 hPa 0,0 l/m 1,1 km/h (1 Bft) SW 221 0 min 0,000 mm 0,0 UV-I 0 W/m 15,7 C 18,1 C 3,2 km/h (1 Bft) 98,00 %
08.08.2018 02:48 17,9 C 26,1 C 16,7 C 86 % 1010,6 hPa 0,0 l/m 0,0 km/h (0 Bft) SW 221 0 min 0,000 mm 0,0 UV-I 0 W/m 15,5 C 17,9 C 0,0 km/h (0 Bft) 97,56 %
08.08.2018 02:50 17,9 C 26,1 C 16,7 C 86 % 1010,5 hPa 0,0 l/m 1,1 km/h (1 Bft) SW 221 0 min 0,000 mm 0,0 UV-I 0 W/m 15,5 C 17,9 C 1,6 km/h (1 Bft) 95,74 %
08.08.2018 02:52 17,8 C 26,1 C 16,1 C 86 % 1010,5 hPa 0,0 l/m 1,6 km/h (1 Bft) SW 221 0 min 0,000 mm 0,0 UV-I 0 W/m 15,4 C 17,8 C 3,2 km/h (1 Bft) 100,00 %
08.08.2018 02:54 17,8 C 26,1 C 16,1 C 86 % 1010,5 hPa 0,0 l/m 1,6 km/h (1 Bft) SW 221 0 min 0,000 mm 0,0 UV-I 0 W/m 15,4 C 17,8 C 3,2 km/h (1 Bft) 100,00 %
08.08.2018 02:56 17,7 C 26,1 C 16,1 C 86 % 1010,5 hPa 0,0 l/m 4,7 km/h (1 Bft) O 90 0 min 0,000 mm 0,0 UV-I 0 W/m 15,3 C 17,7 C 6,4 km/h (2 Bft) 100,00 %
08.08.2018 02:58 17,5 C 26,1 C 16,1 C 87 % 1010,6 hPa 0,0 l/m 4,5 km/h (1 Bft) O 90 0 min 0,000 mm 0,0 UV-I 0 W/m 15,3 C 17,5 C 6,4 km/h (2 Bft) 93,62 %
08.08.2018 03:00 17,4 C 26,1 C 16,1 C 88 % 1010,6 hPa 0,0 l/m 2,9 km/h (1 Bft) O 90 0 min 0,000 mm 0,0 UV-I 0 W/m 15,4 C 17,4 C 4,8 km/h (1 Bft) 95,74 %
08.08.2018 03:02 17,3 C 26,1 C 16,1 C 88 % 1010,6 hPa 0,0 l/m 2,7 km/h (1 Bft) O 90 0 min 0,000 mm 0,0 UV-I 0 W/m 15,3 C 17,3 C 3,2 km/h (1 Bft) 93,62 %
08.08.2018 03:04 17,3 C 26,1 C 16,1 C 88 % 1010,5 hPa 0,0 l/m 2,7 km/h (1 Bft) O 90 0 min 0,000 mm 0,0 UV-I 0 W/m 15,3 C 17,3 C 3,2 km/h (1 Bft) 91,49 %
08.08.2018 03:06 17,2 C 26,1 C 16,1 C 88 % 1010,4 hPa 0,0 l/m 3,0 km/h (1 Bft) O 90 0 min 0,000 mm 0,0 UV-I 0 W/m 15,2 C 17,2 C 3,2 km/h (1 Bft) 95,74 %
08.08.2018 03:08 17,3 C 26,1 C 16,1 C 89 % 1010,4 hPa 0,0 l/m 2,9 km/h (1 Bft) O 90 0 min 0,000 mm 0,0 UV-I 0 W/m 15,5 C 17,3 C 3,2 km/h (1 Bft) 93,62 %
08.08.2018 03:10 17,4 C 26,1 C 16,1 C 89 % 1010,4 hPa 0,0 l/m 2,7 km/h (1 Bft) O 90 0 min 0,000 mm 0,0 UV-I 0 W/m 15,6 C 17,4 C 4,8 km/h (1 Bft) 95,74 %
08.08.2018 03:12 17,6 C 26,1 C 16,1 C 88 % 1010,4 hPa 0,0 l/m 1,3 km/h (1 Bft) O 90 0 min 0,000 mm 0,0 UV-I 0 W/m 15,6 C 17,6 C 3,2 km/h (1 Bft) 95,74 %
08.08.2018 03:14 17,6 C 26,1 C 16,1 C 88 % 1010,5 hPa 0,0 l/m 0,0 km/h (0 Bft) O 90 0 min 0,000 mm 0,0 UV-I 0 W/m 15,6 C 17,6 C 0,0 km/h (0 Bft) 95,74 %
08.08.2018 03:16 17,4 C 26,1 C 16,1 C 87 % 1010,4 hPa 0,0 l/m 0,0 km/h (0 Bft) O 90 0 min 0,000 mm 0,0 UV-I 0 W/m 15,2 C 17,4 C 0,0 km/h (0 Bft) 93,75 %
08.08.2018 03:18 17,4 C 26,1 C 15,6 C 88 % 1010,4 hPa 0,0 l/m 0,0 km/h (0 Bft) O 90 0 min 0,000 mm 0,0 UV-I 0 W/m 15,4 C 17,4 C 0,0 km/h (0 Bft) 93,62 %
08.08.2018 03:20 17,5 C 26,1 C 15,6 C 88 % 1010,4 hPa 0,0 l/m 0,0 km/h (0 Bft) O 90 0 min 0,000 mm 0,0 UV-I 0 W/m 15,5 C 17,5 C 0,0 km/h (0 Bft) 95,74 %
08.08.2018 03:22 17,4 C 26,1 C 15,6 C 87 % 1010,3 hPa 0,0 l/m 0,0 km/h (0 Bft) O 90 0 min 0,000 mm 0,0 UV-I 0 W/m 15,2 C 17,4 C 0,0 km/h (0 Bft) 95,74 %
08.08.2018 03:24 17,3 C 26,1 C 15,6 C 87 % 1010,3 hPa 0,0 l/m 0,0 km/h (0 Bft) O 90 0 min 0,000 mm 0,0 UV-I 0 W/m 15,1 C 17,3 C 0,0 km/h (0 Bft) 94,00 %
08.08.2018 03:26 17,3 C 26,1 C 16,1 C 88 % 1010,3 hPa 0,0 l/m 2,1 km/h (1 Bft) O 90 0 min 0,000 mm 0,0 UV-I 0 W/m 15,3 C 17,3 C 3,2 km/h (1 Bft) 93,62 %
08.08.2018 03:28 17,2 C 26,1 C 16,1 C 88 % 1010,4 hPa 0,0 l/m 2,3 km/h (1 Bft) O 90 0 min 0,000 mm 0,0 UV-I 0 W/m 15,2 C 17,2 C 3,2 km/h (1 Bft) 92,11 %
08.08.2018 03:30 17,2 C 26,1 C 16,1 C 88 % 1010,3 hPa 0,0 l/m 2,3 km/h (1 Bft) O 90 0 min 0,000 mm 0,0 UV-I 0 W/m 15,2 C 17,2 C 3,2 km/h (1 Bft) 93,62 %
08.08.2018 03:32 17,1 C 26,1 C 16,1 C 88 % 1010,3 hPa 0,0 l/m 2,6 km/h (1 Bft) O 90 0 min 0,000 mm 0,0 UV-I 0 W/m 15,1 C 17,1 C 3,2 km/h (1 Bft) 97,87 %
08.08.2018 03:34 17,1 C 26,1 C 16,1 C 88 % 1010,3 hPa 0,0 l/m 3,5 km/h (1 Bft) O 90 0 min 0,000 mm 0,0 UV-I 0 W/m 15,1 C 17,1 C 4,8 km/h (1 Bft) 96,00 %
08.08.2018 03:36 17,1 C 26,1 C 16,1 C 88 % 1010,3 hPa 0,0 l/m 3,3 km/h (1 Bft) O 90 0 min 0,000 mm 0,0 UV-I 0 W/m 15,1 C 17,1 C 4,8 km/h (1 Bft) 97,87 %
08.08.2018 03:38 17,2 C 26,1 C 16,1 C 88 % 1010,3 hPa 0,0 l/m 1,9 km/h (1 Bft) O 90 0 min 0,000 mm 0,0 UV-I 0 W/m 15,2 C 17,2 C 3,2 km/h (1 Bft) 95,74 %
08.08.2018 03:40 17,1 C 26,1 C 16,1 C 88 % 1010,3 hPa 0,0 l/m 1,5 km/h (1 Bft) O 90 0 min 0,000 mm 0,0 UV-I 0 W/m 15,1 C 17,1 C 3,2 km/h (1 Bft) 97,87 %
08.08.2018 03:42 17,1 C 26,1 C 16,1 C 88 % 1010,4 hPa 0,0 l/m 1,2 km/h (1 Bft) O 90 0 min 0,000 mm 0,0 UV-I 0 W/m 15,1 C 17,1 C 1,6 km/h (1 Bft) 93,62 %
08.08.2018 03:44 16,9 C 26,1 C 16,1 C 87 % 1010,4 hPa 0,0 l/m 0,0 km/h (0 Bft) O 90 0 min 0,000 mm 0,0 UV-I 0 W/m 14,7 C 16,9 C 1,6 km/h (1 Bft) 91,49 %
08.08.2018 03:46 16,8 C 26,1 C 15,6 C 88 % 1010,4 hPa 0,0 l/m 0,0 km/h (0 Bft) O 90 0 min 0,000 mm 0,0 UV-I 0 W/m 14,8 C 16,8 C 0,0 km/h (0 Bft) 97,87 %
08.08.2018 03:48 16,8 C 26,1 C 15,6 C 89 % 1010,5 hPa 0,0 l/m 0,0 km/h (0 Bft) O 90 0 min 0,000 mm 0,0 UV-I 0 W/m 15,0 C 16,8 C 0,0 km/h (0 Bft) 93,62 %
08.08.2018 03:50 16,8 C 26,1 C 15,6 C 89 % 1010,5 hPa 0,0 l/m 1,7 km/h (1 Bft) O 90 0 min 0,000 mm 0,0 UV-I 0 W/m 15,0 C 16,8 C 3,2 km/h (1 Bft) 98,00 %
08.08.2018 03:52 16,8 C 26,1 C 15,6 C 89 % 1010,4 hPa 0,0 l/m 2,8 km/h (1 Bft) O 92 0 min 0,000 mm 0,0 UV-I 0 W/m 15,0 C 16,8 C 3,2 km/h (1 Bft) 95,74 %
08.08.2018 03:54 16,9 C 26,1 C 15,6 C 89 % 1010,4 hPa 0,0 l/m 0,5 km/h (0 Bft) O 92 0 min 0,000 mm 0,0 UV-I 0 W/m 15,1 C 16,9 C 3,2 km/h (1 Bft) 93,62 %
08.08.2018 03:56 17,1 C 26,1 C 15,6 C 88 % 1010,4 hPa 0,0 l/m 0,6 km/h (0 Bft) O 92 0 min 0,000 mm 0,0 UV-I 0 W/m 15,1 C 17,1 C 1,6 km/h (1 Bft) 97,92 %
08.08.2018 03:58 17,1 C 26,1 C 15,6 C 88 % 1010,4 hPa 0,0 l/m 0,0 km/h (0 Bft) O 92 0 min 0,000 mm 0,0 UV-I 0 W/m 15,1 C 17,1 C 0,0 km/h (0 Bft) 97,14 %
08.08.2018 04:00 16,9 C 26,1 C 15,6 C 88 % 1010,4 hPa 0,0 l/m 0,0 km/h (0 Bft) O 92 0 min 0,000 mm 0,0 UV-I 0 W/m 14,9 C 16,9 C 0,0 km/h (0 Bft) 98,00 %
08.08.2018 04:02 16,9 C 26,1 C 15,0 C 89 % 1010,5 hPa 0,0 l/m 0,0 km/h (0 Bft) O 92 0 min 0,000 mm 0,0 UV-I 0 W/m 15,1 C 16,9 C 0,0 km/h (0 Bft) 95,65 %
08.08.2018 04:04 16,9 C 26,1 C 15,0 C 89 % 1010,5 hPa 0,0 l/m 0,1 km/h (0 Bft) O 92 0 min 0,000 mm 0,0 UV-I 0 W/m 15,1 C 16,9 C 1,6 km/h (1 Bft) 95,74 %
08.08.2018 04:06 16,9 C 26,1 C 15,0 C 89 % 1010,4 hPa 0,0 l/m 0,0 km/h (0 Bft) O 92 0 min 0,000 mm 0,0 UV-I 0 W/m 15,1 C 16,9 C 1,6 km/h (1 Bft) 97,87 %
08.08.2018 04:08 16,7 C 26,1 C 15,0 C 88 % 1010,4 hPa 0,0 l/m 0,0 km/h (0 Bft) O 92 0 min 0,000 mm 0,0 UV-I 0 W/m 14,7 C 16,7 C 0,0 km/h (0 Bft) 95,74 %
08.08.2018 04:10 16,6 C 26,1 C 15,0 C 88 % 1010,4 hPa 0,0 l/m 0,0 km/h (0 Bft) O 92 0 min 0,000 mm 0,0 UV-I 0 W/m 14,6 C 16,6 C 0,0 km/h (0 Bft) 97,87 %
08.08.2018 04:12 16,6 C 26,1 C 15,0 C 89 % 1010,3 hPa 0,0 l/m 0,0 km/h (0 Bft) O 92 0 min 0,000 mm 0,0 UV-I 0 W/m 14,8 C 16,6 C 0,0 km/h (0 Bft) 95,74 %
08.08.2018 04:14 16,7 C 26,1 C 15,0 C 89 % 1010,3 hPa 0,0 l/m 0,0 km/h (0 Bft) O 92 0 min 0,000 mm 0,0 UV-I 0 W/m 14,9 C 16,7 C 1,6 km/h (1 Bft) 93,62 %
08.08.2018 04:16 16,7 C 26,1 C 15,0 C 89 % 1010,3 hPa 0,0 l/m 0,0 km/h (0 Bft) O 92 0 min 0,000 mm 0,0 UV-I 0 W/m 14,9 C 16,7 C 0,0 km/h (0 Bft) 95,74 %
08.08.2018 04:18 16,7 C 26,1 C 14,4 C 89 % 1010,3 hPa 0,0 l/m 0,2 km/h (0 Bft) O 92 0 min 0,000 mm 0,0 UV-I 0 W/m 14,9 C 16,7 C 1,6 km/h (1 Bft) 96,00 %
08.08.2018 04:20 16,7 C 26,1 C 14,4 C 89 % 1010,3 hPa 0,0 l/m 0,9 km/h (0 Bft) O 92 0 min 0,000 mm 0,0 UV-I 0 W/m 14,9 C 16,7 C 1,6 km/h (1 Bft) 97,87 %
08.08.2018 04:22 16,7 C 26,1 C 14,4 C 89 % 1010,3 hPa 0,0 l/m 0,0 km/h (0 Bft) O 92 0 min 0,000 mm 0,0 UV-I 0 W/m 14,9 C 16,7 C 0,0 km/h (0 Bft) 100,00 %
08.08.2018 04:24 16,8 C 26,1 C 15,0 C 89 % 1010,3 hPa 0,0 l/m 0,0 km/h (0 Bft) O 92 0 min 0,000 mm 0,0 UV-I 0 W/m 15,0 C 16,8 C 0,0 km/h (0 Bft) 98,00 %
08.08.2018 04:26 16,7 C 26,1 C 15,0 C 89 % 1010,3 hPa 0,0 l/m 0,0 km/h (0 Bft) O 92 0 min 0,000 mm 0,0 UV-I 0 W/m 14,9 C 16,7 C 0,0 km/h (0 Bft) 97,87 %
08.08.2018 04:28 16,7 C 25,6 C 15,0 C 89 % 1010,3 hPa 0,0 l/m 0,0 km/h (0 Bft) O 92 0 min 0,000 mm 0,0 UV-I 0 W/m 14,9 C 16,7 C 0,0 km/h (0 Bft) 100,00 %
08.08.2018 04:30 16,6 C 25,6 C 15,0 C 90 % 1010,3 hPa 0,0 l/m 0,0 km/h (0 Bft) O 92 0 min 0,000 mm 0,0 UV-I 0 W/m 15,0 C 16,6 C 0,0 km/h (0 Bft) 100,00 %
08.08.2018 04:32 16,6 C 25,6 C 15,0 C 89 % 1010,3 hPa 0,0 l/m 3,7 km/h (1 Bft) S-SO 159 0 min 0,000 mm 0,0 UV-I 0 W/m 14,8 C 16,6 C 6,4 km/h (2 Bft) 100,00 %
08.08.2018 04:34 16,4 C 25,6 C 15,6 C 89 % 1010,3 hPa 0,0 l/m 5,8 km/h (2 Bft) S 169 0 min 0,000 mm 0,0 UV-I 0 W/m 14,6 C 16,4 C 8,0 km/h (2 Bft) 100,00 %
08.08.2018 04:36 16,3 C 25,6 C 15,6 C 90 % 1010,3 hPa 0,0 l/m 5,1 km/h (1 Bft) S 170 0 min 0,000 mm 0,0 UV-I 0 W/m 14,7 C 16,3 C 6,4 km/h (2 Bft) 100,00 %
08.08.2018 04:38 16,3 C 25,6 C 15,6 C 90 % 1010,3 hPa 0,0 l/m 2,7 km/h (1 Bft) S 170 0 min 0,000 mm 0,0 UV-I 0 W/m 14,7 C 16,3 C 6,4 km/h (2 Bft) 100,00 %
08.08.2018 04:40 16,2 C 25,6 C 15,6 C 90 % 1010,3 hPa 0,0 l/m 2,0 km/h (1 Bft) S 170 0 min 0,000 mm 0,0 UV-I 0 W/m 14,6 C 16,2 C 3,2 km/h (1 Bft) 100,00 %
08.08.2018 04:42 16,2 C 25,6 C 15,6 C 90 % 1010,3 hPa 0,0 l/m 4,0 km/h (1 Bft) S 170 0 min 0,000 mm 0,0 UV-I 0 W/m 14,6 C 16,2 C 6,4 km/h (2 Bft) 100,00 %
08.08.2018 04:44 16,3 C 25,6 C 15,6 C 90 % 1010,2 hPa 0,0 l/m 3,1 km/h (1 Bft) S 170 0 min 0,000 mm 0,0 UV-I 0 W/m 14,7 C 16,3 C 6,4 km/h (2 Bft) 100,00 %
08.08.2018 04:46 16,2 C 25,6 C 15,6 C 90 % 1010,1 hPa 0,0 l/m 2,0 km/h (1 Bft) S 170 0 min 0,000 mm 0,0 UV-I 0 W/m 14,6 C 16,2 C 3,2 km/h (1 Bft) 100,00 %
08.08.2018 04:48 16,2 C 25,6 C 15,6 C 90 % 1010,1 hPa 0,0 l/m 1,4 km/h (1 Bft) S 170 0 min 0,000 mm 0,0 UV-I 0 W/m 14,6 C 16,2 C 1,6 km/h (1 Bft) 100,00 %
08.08.2018 04:50 16,3 C 25,6 C 15,0 C 90 % 1010,1 hPa 0,0 l/m 0,1 km/h (0 Bft) S 170 0 min 0,000 mm 0,0 UV-I 0 W/m 14,7 C 16,3 C 1,6 km/h (1 Bft) 97,87 %
08.08.2018 04:52 16,6 C 25,6 C 15,0 C 90 % 1010,1 hPa 0,0 l/m 0,0 km/h (0 Bft) S 170 0 min 0,000 mm 0,0 UV-I 0 W/m 15,0 C 16,6 C 0,0 km/h (0 Bft) 100,00 %
08.08.2018 04:54 16,6 C 25,6 C 15,0 C 89 % 1010,2 hPa 0,0 l/m 1,6 km/h (1 Bft) S 170 0 min 0,000 mm 0,0 UV-I 0 W/m 14,8 C 16,6 C 3,2 km/h (1 Bft) 100,00 %
08.08.2018 04:56 16,5 C 25,6 C 15,0 C 89 % 1010,2 hPa 0,0 l/m 3,0 km/h (1 Bft) S 171 0 min 0,000 mm 0,0 UV-I 0 W/m 14,7 C 16,5 C 3,2 km/h (1 Bft) 97,87 %
08.08.2018 04:58 16,4 C 25,6 C 15,0 C 89 % 1010,2 hPa 0,0 l/m 3,2 km/h (1 Bft) S 171 0 min 0,000 mm 0,0 UV-I 0 W/m 14,6 C 16,4 C 6,4 km/h (2 Bft) 97,87 %
08.08.2018 05:00 16,3 C 25,6 C 15,0 C 89 % 1010,2 hPa 0,0 l/m 3,2 km/h (1 Bft) S 171 0 min 0,000 mm 0,0 UV-I 0 W/m 14,5 C 16,3 C 3,2 km/h (1 Bft) 100,00 %
08.08.2018 05:02 16,4 C 25,6 C 15,6 C 89 % 1010,3 hPa 0,0 l/m 5,1 km/h (1 Bft) S 171 0 min 0,000 mm 0,0 UV-I 0 W/m 14,6 C 16,4 C 6,4 km/h (2 Bft) 95,74 %
08.08.2018 05:04 16,3 C 25,6 C 15,6 C 89 % 1010,3 hPa 0,0 l/m 3,6 km/h (1 Bft) S 171 0 min 0,000 mm 0,0 UV-I 0 W/m 14,5 C 16,3 C 6,4 km/h (2 Bft) 100,00 %
08.08.2018 05:06 16,3 C 25,6 C 15,6 C 89 % 1010,3 hPa 0,0 l/m 3,3 km/h (1 Bft) S 171 0 min 0,000 mm 0,0 UV-I 0 W/m 14,5 C 16,3 C 6,4 km/h (2 Bft) 95,74 %
08.08.2018 05:08 16,3 C 25,6 C 15,6 C 89 % 1010,3 hPa 0,0 l/m 2,9 km/h (1 Bft) S 171 0 min 0,000 mm 0,0 UV-I 0 W/m 14,5 C 16,3 C 6,4 km/h (2 Bft) 97,87 %
08.08.2018 05:10 16,3 C 25,6 C 15,6 C 89 % 1010,4 hPa 0,0 l/m 6,7 km/h (2 Bft) S 171 0 min 0,000 mm 0,0 UV-I 0 W/m 14,5 C 16,2 C 8,0 km/h (2 Bft) 97,87 %
08.08.2018 05:12 16,3 C 25,6 C 15,6 C 89 % 1010,4 hPa 0,0 l/m 6,3 km/h (2 Bft) S 175 0 min 0,000 mm 0,0 UV-I 0 W/m 14,5 C 16,3 C 8,0 km/h (2 Bft) 95,74 %
08.08.2018 05:14 16,3 C 25,6 C 15,6 C 89 % 1010,4 hPa 0,0 l/m 4,3 km/h (1 Bft) S 176 0 min 0,000 mm 0,0 UV-I 0 W/m 14,5 C 16,3 C 6,4 km/h (2 Bft) 97,87 %
08.08.2018 05:16 16,3 C 25,6 C 15,6 C 89 % 1010,5 hPa 0,0 l/m 5,3 km/h (1 Bft) S 176 0 min 0,000 mm 0,0 UV-I 0 W/m 14,5 C 16,3 C 6,4 km/h (2 Bft) 97,87 %
08.08.2018 05:18 16,4 C 25,6 C 15,6 C 89 % 1010,5 hPa 0,0 l/m 4,6 km/h (1 Bft) S 176 0 min 0,000 mm 0,0 UV-I 0 W/m 14,6 C 16,4 C 6,4 km/h (2 Bft) 92,00 %
08.08.2018 05:20 16,5 C 25,6 C 15,6 C 89 % 1010,5 hPa 0,0 l/m 3,1 km/h (1 Bft) S 176 0 min 0,000 mm 0,0 UV-I 0 W/m 14,7 C 16,5 C 4,8 km/h (1 Bft) 95,74 %
08.08.2018 05:22 16,6 C 25,6 C 15,6 C 88 % 1010,5 hPa 0,0 l/m 2,4 km/h (1 Bft) S 176 0 min 0,000 mm 0,0 UV-I 0 W/m 14,6 C 16,6 C 3,2 km/h (1 Bft) 95,74 %
08.08.2018 05:24 16,5 C 25,6 C 15,6 C 88 % 1010,5 hPa 0,0 l/m 2,3 km/h (1 Bft) S 176 0 min 0,000 mm 0,0 UV-I 0 W/m 14,5 C 16,5 C 3,2 km/h (1 Bft) 95,74 %
08.08.2018 05:26 16,4 C 25,6 C 15,6 C 88 % 1010,5 hPa 0,0 l/m 3,2 km/h (1 Bft) S 176 0 min 0,000 mm 0,0 UV-I 0 W/m 14,4 C 16,4 C 4,8 km/h (1 Bft) 94,00 %
08.08.2018 05:28 16,3 C 25,6 C 15,6 C 88 % 1010,5 hPa 0,0 l/m 2,9 km/h (1 Bft) S 176 0 min 0,000 mm 0,0 UV-I 0 W/m 14,3 C 16,3 C 4,8 km/h (1 Bft) 95,74 %
08.08.2018 05:30 16,2 C 25,6 C 15,0 C 89 % 1010,5 hPa 0,0 l/m 4,3 km/h (1 Bft) S 188 0 min 0,000 mm 0,0 UV-I 0 W/m 14,4 C 16,2 C 4,8 km/h (1 Bft) 91,49 %
08.08.2018 05:32 16,1 C 25,6 C 15,0 C 89 % 1010,5 hPa 0,0 l/m 4,0 km/h (1 Bft) S 189 0 min 0,000 mm 0,0 UV-I 0 W/m 14,3 C 16,1 C 6,4 km/h (2 Bft) 95,74 %
08.08.2018 05:34 16,1 C 25,6 C 15,0 C 89 % 1010,5 hPa 0,0 l/m 4,1 km/h (1 Bft) S 189 0 min 0,000 mm 0,0 UV-I 0 W/m 14,3 C 16,1 C 4,8 km/h (1 Bft) 95,74 %
08.08.2018 05:36 16,1 C 25,6 C 15,0 C 89 % 1010,5 hPa 0,0 l/m 2,7 km/h (1 Bft) S 189 0 min 0,000 mm 0,0 UV-I 4 W/m 14,3 C 16,1 C 4,8 km/h (1 Bft) 93,62 %
08.08.2018 05:38 16,1 C 25,6 C 15,0 C 89 % 1010,5 hPa 0,0 l/m 3,4 km/h (1 Bft) W-SW 238 0 min 0,000 mm 0,0 UV-I 5 W/m 14,3 C 16,1 C 6,4 km/h (2 Bft) 97,87 %
08.08.2018 05:40 16,2 C 25,6 C 15,0 C 90 % 1010,5 hPa 0,0 l/m 4,8 km/h (1 Bft) W-SW 238 0 min 0,000 mm 0,0 UV-I 5 W/m 14,6 C 16,2 C 6,4 km/h (2 Bft) 94,29 %
08.08.2018 05:42 16,3 C 25,6 C 15,0 C 89 % 1010,5 hPa 0,0 l/m 3,2 km/h (1 Bft) W-SW 238 0 min 0,000 mm 0,0 UV-I 5 W/m 14,5 C 16,3 C 4,8 km/h (1 Bft) 98,00 %
08.08.2018 05:44 16,3 C 25,6 C 15,0 C 89 % 1010,5 hPa 0,0 l/m 0,8 km/h (0 Bft) W-SW 238 0 min 0,000 mm 0,0 UV-I 7 W/m 14,5 C 16,3 C 3,2 km/h (1 Bft) 97,92 %
08.08.2018 05:46 16,2 C 25,6 C 15,0 C 89 % 1010,6 hPa 0,0 l/m 0,9 km/h (0 Bft) W-SW 238 0 min 0,000 mm 0,0 UV-I 7 W/m 14,4 C 16,2 C 1,6 km/h (1 Bft) 100,00 %
08.08.2018 05:48 16,2 C 25,6 C 15,0 C 89 % 1010,6 hPa 0,0 l/m 0,0 km/h (0 Bft) W-SW 238 0 min 0,000 mm 0,0 UV-I 8 W/m 14,4 C 16,2 C 0,0 km/h (0 Bft) 97,87 %
08.08.2018 05:50 16,2 C 25,6 C 15,0 C 89 % 1010,6 hPa 0,0 l/m 0,6 km/h (0 Bft) W-SW 238 0 min 0,000 mm 0,0 UV-I 9 W/m 14,4 C 16,2 C 3,2 km/h (1 Bft) 100,00 %
08.08.2018 05:52 16,2 C 25,6 C 15,0 C 89 % 1010,6 hPa 0,0 l/m 3,0 km/h (1 Bft) S-SW 211 0 min 0,000 mm 0,0 UV-I 10 W/m 14,4 C 16,2 C 4,8 km/h (1 Bft) 100,00 %
08.08.2018 05:54 16,2 C 25,6 C 15,0 C 89 % 1010,6 hPa 0,0 l/m 2,4 km/h (1 Bft) S-SW 211 0 min 0,000 mm 0,0 UV-I 11 W/m 14,4 C 16,2 C 3,2 km/h (1 Bft) 95,74 %
08.08.2018 05:56 16,2 C 25,6 C 15,0 C 89 % 1010,6 hPa 0,0 l/m 2,7 km/h (1 Bft) S-SW 211 0 min 0,000 mm 0,0 UV-I 13 W/m 14,4 C 16,2 C 4,8 km/h (1 Bft) 97,87 %
08.08.2018 05:58 16,2 C 25,6 C 15,0 C 89 % 1010,5 hPa 0,0 l/m 3,2 km/h (1 Bft) S-SW 211 0 min 0,000 mm 0,0 UV-I 15 W/m 14,4 C 16,2 C 4,8 km/h (1 Bft) 100,00 %
08.08.2018 06:00 16,1 C 25,6 C 15,0 C 89 % 1010,5 hPa 0,0 l/m 3,1 km/h (1 Bft) S-SW 211 2 min 0,000 mm 0,0 UV-I 18 W/m 14,3 C 16,1 C 4,8 km/h (1 Bft) 100,00 %
08.08.2018 06:02 16,1 C 25,6 C 15,0 C 89 % 1010,6 hPa 0,0 l/m 3,5 km/h (1 Bft) S-SW 211 2 min 0,000 mm 0,0 UV-I 19 W/m 14,3 C 16,1 C 4,8 km/h (1 Bft) 100,00 %
08.08.2018 06:04 16,2 C 25,6 C 15,6 C 89 % 1010,5 hPa 0,0 l/m 2,6 km/h (1 Bft) S-SW 211 2 min 0,000 mm 0,0 UV-I 21 W/m 14,4 C 16,2 C 4,8 km/h (1 Bft) 97,87 %
08.08.2018 06:06 16,2 C 25,6 C 15,6 C 89 % 1010,6 hPa 0,0 l/m 0,6 km/h (0 Bft) S-SW 211 2 min 0,000 mm 0,0 UV-I 24 W/m 14,4 C 16,2 C 1,6 km/h (1 Bft) 97,87 %
08.08.2018 06:08 16,2 C 25,6 C 15,6 C 89 % 1010,7 hPa 0,0 l/m 3,0 km/h (1 Bft) S-SW 211 2 min 0,000 mm 0,0 UV-I 26 W/m 14,4 C 16,2 C 4,8 km/h (1 Bft) 100,00 %
08.08.2018 06:10 16,1 C 25,6 C 15,6 C 89 % 1010,8 hPa 0,0 l/m 4,2 km/h (1 Bft) S-SW 213 2 min 0,000 mm 0,0 UV-I 29 W/m 14,3 C 16,1 C 6,4 km/h (2 Bft) 100,00 %
08.08.2018 06:12 16,0 C 25,6 C 15,6 C 89 % 1010,8 hPa 0,0 l/m 5,1 km/h (1 Bft) SW 216 2 min 0,000 mm 0,0 UV-I 32 W/m 14,2 C 16,0 C 6,4 km/h (2 Bft) 95,74 %
08.08.2018 06:14 15,9 C 25,6 C 15,6 C 89 % 1010,9 hPa 0,0 l/m 5,4 km/h (1 Bft) SW 231 2 min 0,000 mm 0,0 UV-I 34 W/m 14,1 C 15,9 C 6,4 km/h (2 Bft) 100,00 %
08.08.2018 06:16 15,8 C 25,6 C 15,6 C 90 % 1010,9 hPa 0,0 l/m 4,8 km/h (1 Bft) SW 214 2 min 0,000 mm 0,0 UV-I 39 W/m 14,2 C 15,8 C 6,4 km/h (2 Bft) 97,87 %
08.08.2018 06:18 15,8 C 25,6 C 15,6 C 90 % 1010,9 hPa 0,0 l/m 3,8 km/h (1 Bft) SW 214 2 min 0,000 mm 0,0 UV-I 42 W/m 14,2 C 15,8 C 4,8 km/h (1 Bft) 100,00 %
08.08.2018 06:20 15,9 C 25,6 C 15,6 C 90 % 1010,8 hPa 0,0 l/m 2,2 km/h (1 Bft) SW 214 2 min 0,000 mm 0,0 UV-I 45 W/m 14,3 C 15,9 C 4,8 km/h (1 Bft) 97,87 %
08.08.2018 06:22 16,0 C 25,6 C 15,6 C 90 % 1010,8 hPa 0,0 l/m 0,7 km/h (0 Bft) SW 214 2 min 0,000 mm 0,0 UV-I 48 W/m 14,4 C 16,0 C 1,6 km/h (1 Bft) 93,62 %
08.08.2018 06:24 16,1 C 25,6 C 15,6 C 89 % 1010,7 hPa 0,0 l/m 1,9 km/h (1 Bft) SW 214 2 min 0,000 mm 0,0 UV-I 52 W/m 14,3 C 16,1 C 4,8 km/h (1 Bft) 97,87 %
08.08.2018 06:26 16,1 C 25,6 C 15,6 C 89 % 1010,7 hPa 0,0 l/m 6,0 km/h (2 Bft) S-SO 163 2 min 0,000 mm 0,0 UV-I 57 W/m 14,3 C 16,1 C 8,0 km/h (2 Bft) 97,87 %
08.08.2018 06:28 16,2 C 25,6 C 15,6 C 90 % 1010,7 hPa 0,0 l/m 5,4 km/h (1 Bft) S-SO 163 2 min 0,000 mm 0,0 UV-I 60 W/m 14,6 C 16,2 C 8,0 km/h (2 Bft) 95,83 %
08.08.2018 06:30 16,4 C 25,6 C 16,1 C 89 % 1010,9 hPa 0,0 l/m 3,0 km/h (1 Bft) SW 223 2 min 0,000 mm 0,0 UV-I 62 W/m 14,6 C 16,4 C 6,4 km/h (2 Bft) 97,87 %
08.08.2018 06:32 16,5 C 25,6 C 16,1 C 89 % 1010,9 hPa 0,0 l/m 4,8 km/h (1 Bft) SW 236 2 min 0,000 mm 0,0 UV-I 58 W/m 14,7 C 16,5 C 6,4 km/h (2 Bft) 97,37 %
08.08.2018 06:34 16,4 C 25,6 C 16,1 C 88 % 1010,9 hPa 0,0 l/m 4,1 km/h (1 Bft) SW 236 2 min 0,000 mm 0,0 UV-I 71 W/m 14,4 C 16,4 C 4,8 km/h (1 Bft) 97,87 %
08.08.2018 06:36 16,3 C 25,6 C 16,1 C 88 % 1010,9 hPa 0,0 l/m 3,5 km/h (1 Bft) S-SW 199 2 min 0,000 mm 0,0 UV-I 76 W/m 14,3 C 16,3 C 4,8 km/h (1 Bft) 95,74 %
08.08.2018 06:38 16,3 C 25,6 C 16,1 C 89 % 1010,8 hPa 0,0 l/m 4,2 km/h (1 Bft) S-SW 198 2 min 0,000 mm 0,0 UV-I 80 W/m 14,5 C 16,3 C 6,4 km/h (2 Bft) 97,87 %
08.08.2018 06:40 16,3 C 25,6 C 16,1 C 89 % 1010,9 hPa 0,0 l/m 3,1 km/h (1 Bft) S-SW 198 2 min 0,000 mm 0,0 UV-I 84 W/m 14,5 C 16,3 C 4,8 km/h (1 Bft) 97,87 %
08.08.2018 06:42 16,4 C 25,6 C 16,1 C 89 % 1011,0 hPa 0,0 l/m 2,7 km/h (1 Bft) S-SW 198 2 min 0,000 mm 0,0 UV-I 88 W/m 14,6 C 16,4 C 4,8 km/h (1 Bft) 95,74 %
08.08.2018 06:44 16,6 C 25,6 C 16,1 C 89 % 1011,0 hPa 0,0 l/m 2,1 km/h (1 Bft) S-SW 198 0 min 0,000 mm 0,0 UV-I 74 W/m 14,8 C 16,6 C 3,2 km/h (1 Bft) 93,62 %
08.08.2018 06:46 16,7 C 25,6 C 16,1 C 88 % 1011,0 hPa 0,0 l/m 2,4 km/h (1 Bft) S-SW 198 2 min 0,000 mm 0,0 UV-I 78 W/m 14,7 C 16,7 C 3,2 km/h (1 Bft) 95,74 %
08.08.2018 06:48 16,9 C 25,6 C 16,7 C 88 % 1011,0 hPa 0,0 l/m 0,9 km/h (0 Bft) S-SW 198 2 min 0,000 mm 0,0 UV-I 98 W/m 14,9 C 16,9 C 1,6 km/h (1 Bft) 95,74 %
08.08.2018 06:50 17,0 C 25,6 C 16,7 C 87 % 1011,0 hPa 0,0 l/m 1,3 km/h (1 Bft) S-SW 198 2 min 0,000 mm 0,0 UV-I 104 W/m 14,8 C 17,0 C 1,6 km/h (1 Bft) 93,62 %
08.08.2018 06:52 17,1 C 25,6 C 16,7 C 87 % 1011,0 hPa 0,0 l/m 2,0 km/h (1 Bft) S-SW 198 2 min 0,000 mm 0,0 UV-I 110 W/m 14,9 C 17,1 C 3,2 km/h (1 Bft) 90,00 %
08.08.2018 06:54 17,2 C 25,6 C 16,7 C 86 % 1011,0 hPa 0,0 l/m 2,1 km/h (1 Bft) S-SW 198 2 min 0,000 mm 0,0 UV-I 113 W/m 14,8 C 17,2 C 3,2 km/h (1 Bft) 95,74 %
08.08.2018 06:56 17,3 C 25,6 C 16,7 C 86 % 1011,0 hPa 0,0 l/m 2,4 km/h (1 Bft) S-SW 198 2 min 0,000 mm 0,0 UV-I 118 W/m 14,9 C 17,3 C 3,2 km/h (1 Bft) 96,00 %
08.08.2018 06:58 17,4 C 25,6 C 16,7 C 86 % 1011,0 hPa 0,0 l/m 0,5 km/h (0 Bft) S-SW 198 2 min 0,000 mm 0,0 UV-I 123 W/m 15,0 C 17,4 C 1,6 km/h (1 Bft) 97,87 %
08.08.2018 07:00 17,6 C 25,6 C 16,7 C 85 % 1011,0 hPa 0,0 l/m 0,0 km/h (0 Bft) S-SW 198 2 min 0,051 mm 0,0 UV-I 127 W/m 15,0 C 17,6 C 0,0 km/h (0 Bft) 95,74 %
08.08.2018 07:02 17,6 C 25,6 C 17,2 C 85 % 1011,0 hPa 0,0 l/m 0,0 km/h (0 Bft) S-SW 198 2 min 0,000 mm 0,0 UV-I 130 W/m 15,0 C 17,6 C 0,0 km/h (0 Bft) 93,62 %
08.08.2018 07:04 17,7 C 25,6 C 17,2 C 85 % 1011,0 hPa 0,0 l/m 0,4 km/h (0 Bft) S-SW 198 2 min 0,000 mm 0,0 UV-I 132 W/m 15,1 C 17,7 C 1,6 km/h (1 Bft) 92,31 %
08.08.2018 07:06 17,8 C 25,6 C 17,2 C 84 % 1011,0 hPa 0,0 l/m 0,8 km/h (0 Bft) S-SW 198 2 min 0,000 mm 0,0 UV-I 138 W/m 15,1 C 17,8 C 3,2 km/h (1 Bft) 93,88 %
08.08.2018 07:08 17,9 C 25,6 C 17,2 C 84 % 1011,0 hPa 0,0 l/m 1,4 km/h (1 Bft) S-SW 198 2 min 0,000 mm 0,0 UV-I 143 W/m 15,2 C 17,9 C 3,2 km/h (1 Bft) 96,00 %
08.08.2018 07:10 18,2 C 25,6 C 17,8 C 84 % 1011,0 hPa 0,0 l/m 0,5 km/h (0 Bft) S-SW 198 2 min 0,000 mm 0,0 UV-I 148 W/m 15,4 C 18,2 C 1,6 km/h (1 Bft) 97,87 %
08.08.2018 07:12 18,3 C 25,6 C 17,8 C 83 % 1011,0 hPa 0,0 l/m 0,0 km/h (0 Bft) S-SW 198 2 min 0,000 mm 0,0 UV-I 154 W/m 15,4 C 18,3 C 0,0 km/h (0 Bft) 96,00 %
08.08.2018 07:14 18,4 C 25,6 C 17,8 C 82 % 1011,0 hPa 0,0 l/m 0,9 km/h (0 Bft) S-SW 198 2 min 0,000 mm 0,0 UV-I 157 W/m 15,3 C 18,4 C 3,2 km/h (1 Bft) 97,87 %
08.08.2018 07:16 18,6 C 25,6 C 17,8 C 82 % 1011,0 hPa 0,0 l/m 0,0 km/h (0 Bft) S-SW 198 2 min 0,000 mm 0,0 UV-I 164 W/m 15,5 C 18,6 C 0,0 km/h (0 Bft) 91,49 %
08.08.2018 07:18 18,7 C 25,6 C 18,3 C 81 % 1011,0 hPa 0,0 l/m 0,8 km/h (0 Bft) S-SW 198 2 min 0,000 mm 0,0 UV-I 171 W/m 15,4 C 18,7 C 3,2 km/h (1 Bft) 97,37 %
08.08.2018 07:20 18,7 C 25,6 C 18,3 C 80 % 1011,1 hPa 0,0 l/m 2,5 km/h (1 Bft) S-SW 198 2 min 0,000 mm 0,0 UV-I 176 W/m 15,2 C 18,7 C 3,2 km/h (1 Bft) 98,00 %
08.08.2018 07:22 18,7 C 25,6 C 18,3 C 80 % 1011,1 hPa 0,0 l/m 1,7 km/h (1 Bft) S-SW 198 2 min 0,000 mm 0,0 UV-I 179 W/m 15,2 C 18,7 C 3,2 km/h (1 Bft) 97,87 %
08.08.2018 07:24 18,6 C 25,6 C 18,3 C 80 % 1011,1 hPa 0,0 l/m 0,1 km/h (0 Bft) S-SW 198 2 min 0,000 mm 0,0 UV-I 185 W/m 15,1 C 18,6 C 1,6 km/h (1 Bft) 95,92 %
08.08.2018 07:26 18,6 C 25,6 C 18,3 C 81 % 1011,1 hPa 0,0 l/m 1,5 km/h (1 Bft) S-SW 198 2 min 0,000 mm 0,0 UV-I 191 W/m 15,3 C 18,6 C 1,6 km/h (1 Bft) 97,87 %
08.08.2018 07:28 18,6 C 25,6 C 18,3 C 81 % 1011,1 hPa 0,0 l/m 2,1 km/h (1 Bft) S-SW 198 2 min 0,000 mm 0,0 UV-I 196 W/m 15,3 C 18,6 C 3,2 km/h (1 Bft) 93,62 %
08.08.2018 07:30 18,6 C 25,6 C 18,3 C 81 % 1011,1 hPa 0,0 l/m 1,1 km/h (1 Bft) S-SW 198 2 min 0,000 mm 0,0 UV-I 201 W/m 15,3 C 18,6 C 1,6 km/h (1 Bft) 97,87 %
08.08.2018 07:32 18,7 C 25,6 C 18,9 C 81 % 1011,1 hPa 0,0 l/m 0,7 km/h (0 Bft) S-SW 198 2 min 0,000 mm 0,0 UV-I 207 W/m 15,4 C 18,7 C 1,6 km/h (1 Bft) 95,74 %
08.08.2018 07:34 18,9 C 25,6 C 18,9 C 80 % 1011,2 hPa 0,0 l/m 0,6 km/h (0 Bft) S-SW 198 2 min 0,000 mm 0,0 UV-I 210 W/m 15,4 C 18,9 C 1,6 km/h (1 Bft) 97,87 %
08.08.2018 07:36 19,1 C 25,6 C 18,9 C 78 % 1011,2 hPa 0,0 l/m 2,2 km/h (1 Bft) S-SW 198 2 min 0,000 mm 0,0 UV-I 210 W/m 15,2 C 19,1 C 3,2 km/h (1 Bft) 97,87 %
08.08.2018 07:38 19,2 C 25,6 C 18,9 C 78 % 1011,3 hPa 0,0 l/m 3,1 km/h (1 Bft) S-SW 198 2 min 0,000 mm 0,5 UV-I 218 W/m 15,3 C 19,2 C 4,8 km/h (1 Bft) 92,31 %
08.08.2018 07:40 19,2 C 25,6 C 19,4 C 78 % 1011,2 hPa 0,0 l/m 2,5 km/h (1 Bft) S-SW 198 2 min 0,000 mm 0,5 UV-I 225 W/m 15,3 C 19,2 C 4,8 km/h (1 Bft) 97,87 %
08.08.2018 07:42 19,3 C 25,6 C 19,4 C 79 % 1011,3 hPa 0,0 l/m 2,9 km/h (1 Bft) S-SW 198 2 min 0,000 mm 0,5 UV-I 230 W/m 15,6 C 19,3 C 4,8 km/h (1 Bft) 97,87 %
08.08.2018 07:44 19,4 C 25,6 C 19,4 C 78 % 1011,2 hPa 0,0 l/m 2,1 km/h (1 Bft) S-SW 198 2 min 0,000 mm 0,5 UV-I 234 W/m 15,5 C 19,4 C 3,2 km/h (1 Bft) 97,87 %
08.08.2018 07:46 19,4 C 25,6 C 20,0 C 78 % 1011,2 hPa 0,0 l/m 2,2 km/h (1 Bft) S-SW 198 2 min 0,000 mm 0,5 UV-I 239 W/m 15,5 C 19,4 C 3,2 km/h (1 Bft) 97,87 %
08.08.2018 07:48 19,4 C 25,6 C 20,0 C 78 % 1011,2 hPa 0,0 l/m 3,1 km/h (1 Bft) S-SW 198 2 min 0,000 mm 0,5 UV-I 243 W/m 15,5 C 19,4 C 4,8 km/h (1 Bft) 95,74 %
08.08.2018 07:50 19,6 C 25,6 C 20,0 C 78 % 1011,2 hPa 0,0 l/m 2,4 km/h (1 Bft) S-SW 198 2 min 0,000 mm 0,6 UV-I 250 W/m 15,7 C 19,6 C 4,8 km/h (1 Bft) 100,00 %
08.08.2018 07:52 19,8 C 25,6 C 20,0 C 77 % 1011,2 hPa 0,0 l/m 1,6 km/h (1 Bft) S-SW 198 2 min 0,000 mm 0,6 UV-I 255 W/m 15,6 C 19,8 C 4,8 km/h (1 Bft) 100,00 %
08.08.2018 07:54 19,9 C 25,6 C 20,0 C 76 % 1011,2 hPa 0,0 l/m 1,7 km/h (1 Bft) S-SW 198 2 min 0,000 mm 0,6 UV-I 259 W/m 15,5 C 19,9 C 3,2 km/h (1 Bft) 97,50 %
08.08.2018 07:56 19,9 C 25,6 C 20,6 C 77 % 1011,3 hPa 0,0 l/m 4,2 km/h (1 Bft) S-SW 206 2 min 0,000 mm 0,6 UV-I 265 W/m 15,7 C 19,9 C 6,4 km/h (2 Bft) 100,00 %
08.08.2018 07:58 20,1 C 25,6 C 20,6 C 76 % 1011,3 hPa 0,0 l/m 3,0 km/h (1 Bft) S-SW 206 2 min 0,000 mm 0,7 UV-I 271 W/m 15,7 C 20,1 C 4,8 km/h (1 Bft) 100,00 %
08.08.2018 08:00 20,2 C 25,6 C 20,6 C 76 % 1011,3 hPa 0,0 l/m 3,2 km/h (1 Bft) S-SW 206 2 min 0,127 mm 0,7 UV-I 278 W/m 15,8 C 20,2 C 6,4 km/h (2 Bft) 98,00 %
08.08.2018 08:02 20,3 C 25,6 C 20,6 C 76 % 1011,3 hPa 0,0 l/m 3,0 km/h (1 Bft) S-SW 206 2 min 0,000 mm 0,7 UV-I 283 W/m 15,9 C 20,3 C 4,8 km/h (1 Bft) 100,00 %
08.08.2018 08:04 20,4 C 25,6 C 20,6 C 76 % 1011,3 hPa 0,0 l/m 2,6 km/h (1 Bft) S-SW 206 2 min 0,000 mm 0,7 UV-I 287 W/m 16,0 C 20,4 C 4,8 km/h (1 Bft) 100,00 %
08.08.2018 08:06 20,3 C 25,6 C 20,6 C 75 % 1011,3 hPa 0,0 l/m 2,2 km/h (1 Bft) S-SW 206 2 min 0,000 mm 0,7 UV-I 295 W/m 15,7 C 20,3 C 3,2 km/h (1 Bft) 97,87 %
08.08.2018 08:08 20,4 C 25,6 C 20,6 C 75 % 1011,3 hPa 0,0 l/m 1,1 km/h (1 Bft) S-SW 206 2 min 0,000 mm 0,8 UV-I 301 W/m 15,8 C 20,4 C 3,2 km/h (1 Bft) 97,87 %
08.08.2018 08:10 20,6 C 25,6 C 20,6 C 76 % 1011,3 hPa 0,0 l/m 1,2 km/h (1 Bft) S-SW 206 2 min 0,000 mm 0,8 UV-I 306 W/m 16,2 C 20,6 C 1,6 km/h (1 Bft) 97,87 %
08.08.2018 08:12 20,8 C 25,6 C 21,1 C 75 % 1011,3 hPa 0,0 l/m 0,1 km/h (0 Bft) S-SW 206 2 min 0,000 mm 0,8 UV-I 311 W/m 16,2 C 20,8 C 1,6 km/h (1 Bft) 95,83 %
08.08.2018 08:14 21,1 C 25,6 C 21,1 C 74 % 1011,3 hPa 0,0 l/m 0,0 km/h (0 Bft) S-SW 206 2 min 0,000 mm 0,9 UV-I 317 W/m 16,3 C 21,1 C 0,0 km/h (0 Bft) 97,96 %
08.08.2018 08:16 21,1 C 25,6 C 21,1 C 73 % 1011,4 hPa 0,0 l/m 0,5 km/h (0 Bft) S-SW 206 2 min 0,000 mm 0,9 UV-I 321 W/m 16,1 C 21,1 C 3,2 km/h (1 Bft) 97,92 %
08.08.2018 08:18 21,1 C 25,6 C 21,1 C 73 % 1011,4 hPa 0,0 l/m 1,7 km/h (1 Bft) S-SW 207 2 min 0,000 mm 0,9 UV-I 324 W/m 16,1 C 21,1 C 3,2 km/h (1 Bft) 97,87 %
08.08.2018 08:20 21,1 C 25,6 C 21,1 C 74 % 1011,4 hPa 0,0 l/m 3,3 km/h (1 Bft) W-NW 284 2 min 0,000 mm 0,9 UV-I 330 W/m 16,3 C 21,1 C 4,8 km/h (1 Bft) 95,74 %
08.08.2018 08:22 21,2 C 25,6 C 21,7 C 74 % 1011,4 hPa 0,0 l/m 2,0 km/h (1 Bft) W-NW 284 2 min 0,000 mm 1,0 UV-I 339 W/m 16,4 C 21,2 C 3,2 km/h (1 Bft) 97,87 %
08.08.2018 08:24 21,3 C 25,6 C 21,7 C 73 % 1011,4 hPa 0,0 l/m 2,0 km/h (1 Bft) W-NW 288 2 min 0,000 mm 1,0 UV-I 344 W/m 16,3 C 21,3 C 3,2 km/h (1 Bft) 97,87 %
08.08.2018 08:26 21,4 C 25,6 C 21,7 C 72 % 1011,5 hPa 0,0 l/m 2,1 km/h (1 Bft) W-NW 288 2 min 0,000 mm 1,0 UV-I 349 W/m 16,1 C 21,4 C 3,2 km/h (1 Bft) 95,74 %
08.08.2018 08:28 21,4 C 25,6 C 21,7 C 72 % 1011,5 hPa 0,0 l/m 2,6 km/h (1 Bft) W-NW 288 2 min 0,000 mm 1,0 UV-I 354 W/m 16,1 C 21,4 C 3,2 km/h (1 Bft) 97,87 %
08.08.2018 08:30 21,4 C 25,6 C 22,2 C 72 % 1011,6 hPa 0,0 l/m 2,8 km/h (1 Bft) W-NW 290 2 min 0,000 mm 1,1 UV-I 358 W/m 16,1 C 21,4 C 4,8 km/h (1 Bft) 93,88 %
08.08.2018 08:32 21,4 C 25,6 C 22,2 C 72 % 1011,6 hPa 0,0 l/m 2,6 km/h (1 Bft) W-NW 290 2 min 0,000 mm 1,1 UV-I 362 W/m 16,1 C 21,4 C 3,2 km/h (1 Bft) 95,74 %
08.08.2018 08:34 21,5 C 25,6 C 22,2 C 72 % 1011,6 hPa 0,0 l/m 2,5 km/h (1 Bft) W-NW 291 2 min 0,000 mm 1,1 UV-I 364 W/m 16,2 C 21,5 C 3,2 km/h (1 Bft) 100,00 %
08.08.2018 08:36 21,7 C 25,6 C 22,2 C 72 % 1011,7 hPa 0,0 l/m 2,7 km/h (1 Bft) W-NW 291 2 min 0,000 mm 1,1 UV-I 357 W/m 16,4 C 21,7 C 4,8 km/h (1 Bft) 100,00 %
08.08.2018 08:38 21,9 C 25,6 C 22,8 C 71 % 1011,6 hPa 0,0 l/m 1,3 km/h (1 Bft) W-NW 291 2 min 0,000 mm 1,2 UV-I 364 W/m 16,4 C 21,9 C 3,2 km/h (1 Bft) 97,87 %
08.08.2018 08:40 22,0 C 25,6 C 22,8 C 70 % 1011,7 hPa 0,0 l/m 0,4 km/h (0 Bft) W-NW 291 2 min 0,000 mm 1,2 UV-I 375 W/m 16,3 C 22,0 C 3,2 km/h (1 Bft) 97,87 %
08.08.2018 08:42 22,1 C 25,6 C 23,3 C 70 % 1011,7 hPa 0,0 l/m 1,6 km/h (1 Bft) W-NW 291 2 min 0,000 mm 1,2 UV-I 379 W/m 16,4 C 22,1 C 3,2 km/h (1 Bft) 100,00 %
08.08.2018 08:44 22,1 C 25,6 C 23,3 C 69 % 1011,8 hPa 0,0 l/m 3,2 km/h (1 Bft) W-SW 253 2 min 0,000 mm 1,3 UV-I 389 W/m 16,1 C 22,1 C 4,8 km/h (1 Bft) 97,37 %
08.08.2018 08:46 22,1 C 25,6 C 23,9 C 68 % 1011,8 hPa 0,0 l/m 2,0 km/h (1 Bft) W-SW 253 2 min 0,000 mm 1,3 UV-I 397 W/m 15,9 C 22,1 C 4,8 km/h (1 Bft) 100,00 %
08.08.2018 08:48 22,2 C 25,6 C 24,4 C 68 % 1011,8 hPa 0,0 l/m 0,7 km/h (0 Bft) W-SW 253 2 min 0,000 mm 1,3 UV-I 400 W/m 16,0 C 22,2 C 3,2 km/h (1 Bft) 97,92 %
08.08.2018 08:50 22,2 C 25,6 C 26,1 C 69 % 1011,8 hPa 0,0 l/m 2,5 km/h (1 Bft) W-SW 252 2 min 0,000 mm 1,4 UV-I 406 W/m 16,2 C 22,2 C 3,2 km/h (1 Bft) 100,00 %
08.08.2018 08:52 22,3 C 25,6 C 26,7 C 68 % 1011,9 hPa 0,0 l/m 1,2 km/h (1 Bft) W-SW 254 2 min 0,000 mm 1,4 UV-I 413 W/m 16,1 C 22,3 C 3,2 km/h (1 Bft) 100,00 %
08.08.2018 08:54 22,3 C 25,6 C 28,3 C 68 % 1011,9 hPa 0,0 l/m 2,1 km/h (1 Bft) W-SW 253 2 min 0,000 mm 1,4 UV-I 421 W/m 16,1 C 22,3 C 3,2 km/h (1 Bft) 100,00 %
08.08.2018 08:56 22,4 C 25,6 C 28,9 C 67 % 1011,9 hPa 0,0 l/m 2,0 km/h (1 Bft) SO 125 2 min 0,000 mm 1,5 UV-I 428 W/m 16,0 C 22,4 C 4,8 km/h (1 Bft) 97,87 %
08.08.2018 08:58 22,5 C 25,6 C 29,4 C 67 % 1011,8 hPa 0,0 l/m 2,7 km/h (1 Bft) SO 125 2 min 0,000 mm 1,5 UV-I 434 W/m 16,1 C 22,5 C 3,2 km/h (1 Bft) 100,00 %
08.08.2018 09:00 22,6 C 25,6 C 30,0 C 66 % 1011,8 hPa 0,0 l/m 3,5 km/h (1 Bft) SO 125 2 min 0,228 mm 1,6 UV-I 439 W/m 15,9 C 22,6 C 4,8 km/h (1 Bft) 100,00 %
08.08.2018 09:02 22,7 C 25,6 C 30,6 C 66 % 1011,9 hPa 0,0 l/m 2,7 km/h (1 Bft) SO 126 2 min 0,000 mm 1,6 UV-I 444 W/m 16,0 C 22,7 C 4,8 km/h (1 Bft) 95,74 %
08.08.2018 09:04 22,7 C 25,6 C 31,7 C 66 % 1011,8 hPa 0,0 l/m 0,9 km/h (0 Bft) SO 126 2 min 0,000 mm 1,6 UV-I 451 W/m 16,0 C 22,7 C 1,6 km/h (1 Bft) 97,87 %
08.08.2018 09:06 22,9 C 25,6 C 32,2 C 67 % 1011,9 hPa 0,0 l/m 0,9 km/h (0 Bft) SO 126 2 min 0,000 mm 1,7 UV-I 456 W/m 16,4 C 22,9 C 1,6 km/h (1 Bft) 100,00 %
08.08.2018 09:08 23,1 C 25,6 C 32,2 C 66 % 1011,8 hPa 0,0 l/m 2,1 km/h (1 Bft) N-NO 13 2 min 0,000 mm 1,7 UV-I 461 W/m 16,4 C 23,1 C 6,4 km/h (2 Bft) 100,00 %
08.08.2018 09:10 23,3 C 25,6 C 32,8 C 64 % 1011,8 hPa 0,0 l/m 3,9 km/h (1 Bft) N-NO 20 2 min 0,000 mm 1,7 UV-I 464 W/m 16,1 C 23,3 C 6,4 km/h (2 Bft) 95,74 %
08.08.2018 09:12 23,3 C 25,6 C 32,2 C 64 % 1011,8 hPa 0,0 l/m 3,0 km/h (1 Bft) N-NO 20 2 min 0,000 mm 1,8 UV-I 471 W/m 16,1 C 23,3 C 4,8 km/h (1 Bft) 97,56 %
08.08.2018 09:14 23,4 C 25,6 C 32,8 C 64 % 1011,9 hPa 0,0 l/m 3,2 km/h (1 Bft) N-NO 20 2 min 0,000 mm 1,8 UV-I 476 W/m 16,2 C 23,4 C 4,8 km/h (1 Bft) 97,87 %
08.08.2018 09:16 23,7 C 25,6 C 33,3 C 65 % 1011,9 hPa 0,0 l/m 4,1 km/h (1 Bft) N-NO 31 2 min 0,000 mm 1,9 UV-I 483 W/m 16,7 C 23,7 C 6,4 km/h (2 Bft) 97,87 %
08.08.2018 09:18 23,8 C 25,6 C 32,8 C 64 % 1011,9 hPa 0,0 l/m 4,3 km/h (1 Bft) N-NO 31 2 min 0,000 mm 1,9 UV-I 489 W/m 16,6 C 23,8 C 4,8 km/h (1 Bft) 97,87 %
08.08.2018 09:20 23,9 C 25,6 C 32,8 C 62 % 1011,9 hPa 0,0 l/m 2,0 km/h (1 Bft) NO 34 2 min 0,000 mm 1,9 UV-I 494 W/m 16,2 C 23,9 C 4,8 km/h (1 Bft) 97,87 %
08.08.2018 09:22 23,7 C 25,6 C 33,3 C 62 % 1011,9 hPa 0,0 l/m 1,7 km/h (1 Bft) NO 34 2 min 0,000 mm 2,0 UV-I 496 W/m 16,0 C 23,7 C 3,2 km/h (1 Bft) 96,00 %
08.08.2018 09:24 23,7 C 25,6 C 33,9 C 64 % 1012,0 hPa 0,0 l/m 3,8 km/h (1 Bft) NO 34 2 min 0,000 mm 2,0 UV-I 500 W/m 16,5 C 23,7 C 6,4 km/h (2 Bft) 97,87 %
08.08.2018 09:26 23,9 C 25,6 C 33,9 C 63 % 1012,0 hPa 0,0 l/m 3,1 km/h (1 Bft) NO 34 2 min 0,000 mm 2,1 UV-I 503 W/m 16,4 C 23,9 C 4,8 km/h (1 Bft) 97,87 %
08.08.2018 09:28 24,0 C 25,6 C 34,4 C 61 % 1012,0 hPa 0,0 l/m 1,7 km/h (1 Bft) N-NO 32 2 min 0,000 mm 2,1 UV-I 507 W/m 16,0 C 24,0 C 4,8 km/h (1 Bft) 93,75 %
08.08.2018 09:30 24,1 C 25,6 C 34,4 C 63 % 1012,0 hPa 0,0 l/m 3,4 km/h (1 Bft) N-NO 32 2 min 0,000 mm 2,1 UV-I 514 W/m 16,6 C 24,1 C 4,8 km/h (1 Bft) 97,83 %
08.08.2018 09:32 24,1 C 25,6 C 34,4 C 62 % 1011,9 hPa 0,0 l/m 0,5 km/h (0 Bft) N-NO 32 2 min 0,000 mm 2,2 UV-I 517 W/m 16,4 C 24,1 C 3,2 km/h (1 Bft) 97,44 %
08.08.2018 09:34 24,1 C 25,6 C 35,0 C 62 % 1012,0 hPa 0,0 l/m 2,2 km/h (1 Bft) N-NO 32 2 min 0,000 mm 2,2 UV-I 519 W/m 16,4 C 24,1 C 6,4 km/h (2 Bft) 97,87 %
08.08.2018 09:36 24,4 C 25,6 C 34,4 C 63 % 1012,0 hPa 0,0 l/m 5,4 km/h (1 Bft) NO 45 2 min 0,000 mm 2,2 UV-I 524 W/m 16,9 C 24,4 C 6,4 km/h (2 Bft) 97,87 %
08.08.2018 09:38 24,7 C 25,6 C 35,0 C 62 % 1012,0 hPa 0,0 l/m 3,2 km/h (1 Bft) NO 45 2 min 0,000 mm 2,3 UV-I 532 W/m 16,9 C 24,7 C 4,8 km/h (1 Bft) 96,00 %
08.08.2018 09:40 24,6 C 25,6 C 35,0 C 60 % 1012,0 hPa 0,0 l/m 2,8 km/h (1 Bft) NO 49 2 min 0,000 mm 2,3 UV-I 538 W/m 16,3 C 24,6 C 4,8 km/h (1 Bft) 97,87 %
08.08.2018 09:42 24,5 C 25,6 C 36,1 C 61 % 1012,0 hPa 0,0 l/m 3,8 km/h (1 Bft) O 96 2 min 0,000 mm 2,4 UV-I 544 W/m 16,5 C 24,5 C 4,8 km/h (1 Bft) 97,87 %
08.08.2018 09:44 24,5 C 25,6 C 36,1 C 60 % 1012,0 hPa 0,0 l/m 1,9 km/h (1 Bft) O 96 2 min 0,000 mm 2,4 UV-I 550 W/m 16,2 C 24,5 C 4,8 km/h (1 Bft) 95,74 %
08.08.2018 09:46 24,3 C 25,6 C 36,7 C 61 % 1012,0 hPa 0,0 l/m 1,0 km/h (0 Bft) O 96 2 min 0,000 mm 2,5 UV-I 556 W/m 16,3 C 24,3 C 1,6 km/h (1 Bft) 95,74 %
08.08.2018 09:48 24,6 C 25,6 C 36,7 C 60 % 1012,0 hPa 0,0 l/m 1,4 km/h (1 Bft) O 96 2 min 0,000 mm 2,5 UV-I 560 W/m 16,3 C 24,6 C 3,2 km/h (1 Bft) 97,37 %
08.08.2018 09:50 24,5 C 25,6 C 36,7 C 61 % 1012,1 hPa 0,0 l/m 1,4 km/h (1 Bft) O 96 2 min 0,000 mm 2,6 UV-I 563 W/m 16,5 C 24,5 C 3,2 km/h (1 Bft) 96,23 %
08.08.2018 09:52 24,4 C 25,6 C 36,7 C 61 % 1012,1 hPa 0,0 l/m 2,5 km/h (1 Bft) SW 232 2 min 0,000 mm 2,6 UV-I 564 W/m 16,4 C 24,4 C 3,2 km/h (1 Bft) 97,87 %
08.08.2018 09:54 24,5 C 25,6 C 36,7 C 61 % 1012,1 hPa 0,0 l/m 0,7 km/h (0 Bft) SW 232 2 min 0,000 mm 2,6 UV-I 568 W/m 16,5 C 24,5 C 1,6 km/h (1 Bft) 95,74 %
08.08.2018 09:56 24,7 C 25,6 C 37,2 C 63 % 1012,1 hPa 0,0 l/m 0,8 km/h (0 Bft) SW 232 2 min 0,000 mm 2,3 UV-I 572 W/m 17,2 C 24,7 C 3,2 km/h (1 Bft) 98,00 %
08.08.2018 09:58 24,9 C 25,6 C 36,7 C 60 % 1012,1 hPa 0,0 l/m 2,4 km/h (1 Bft) N-NW 327 2 min 0,000 mm 2,7 UV-I 576 W/m 16,6 C 24,9 C 6,4 km/h (2 Bft) 97,87 %
08.08.2018 10:00 25,0 C 25,6 C 36,1 C 59 % 1012,1 hPa 0,0 l/m 4,4 km/h (1 Bft) N-NW 331 2 min 0,331 mm 2,8 UV-I 580 W/m 16,4 C 25,0 C 6,4 km/h (2 Bft) 95,74 %
08.08.2018 10:02 25,1 C 25,6 C 36,1 C 58 % 1012,1 hPa 0,0 l/m 2,7 km/h (1 Bft) N-NW 330 2 min 0,000 mm 2,8 UV-I 586 W/m 16,2 C 25,1 C 4,8 km/h (1 Bft) 91,49 %
08.08.2018 10:04 25,2 C 25,6 C 36,7 C 61 % 1012,1 hPa 0,0 l/m 1,6 km/h (1 Bft) N-NW 332 2 min 0,000 mm 2,9 UV-I 594 W/m 17,1 C 25,2 C 3,2 km/h (1 Bft) 95,74 %
08.08.2018 10:06 25,3 C 25,6 C 36,7 C 59 % 1012,1 hPa 0,0 l/m 2,4 km/h (1 Bft) W-NW 292 2 min 0,000 mm 2,9 UV-I 600 W/m 16,7 C 25,3 C 4,8 km/h (1 Bft) 97,92 %
08.08.2018 10:08 25,4 C 25,6 C 36,7 C 58 % 1012,2 hPa 0,0 l/m 3,0 km/h (1 Bft) SW 219 2 min 0,000 mm 3,0 UV-I 606 W/m 16,5 C 25,4 C 6,4 km/h (2 Bft) 97,14 %
08.08.2018 10:10 25,3 C 25,6 C 37,2 C 58 % 1012,2 hPa 0,0 l/m 1,8 km/h (1 Bft) SW 219 2 min 0,000 mm 3,0 UV-I 610 W/m 16,4 C 25,3 C 4,8 km/h (1 Bft) 98,00 %
08.08.2018 10:12 25,2 C 25,6 C 37,2 C 59 % 1012,2 hPa 0,0 l/m 3,5 km/h (1 Bft) W-SW 257 2 min 0,000 mm 3,0 UV-I 613 W/m 16,6 C 25,2 C 6,4 km/h (2 Bft) 98,00 %
08.08.2018 10:14 25,2 C 25,6 C 37,2 C 58 % 1012,2 hPa 0,0 l/m 2,7 km/h (1 Bft) W-SW 257 2 min 0,000 mm 3,1 UV-I 621 W/m 16,3 C 25,2 C 4,8 km/h (1 Bft) 100,00 %
08.08.2018 10:16 25,4 C 25,6 C 37,8 C 60 % 1012,2 hPa 0,0 l/m 3,5 km/h (1 Bft) SO 129 2 min 0,000 mm 3,1 UV-I 625 W/m 17,1 C 25,4 C 6,4 km/h (2 Bft) 100,00 %
08.08.2018 10:18 25,6 C 25,6 C 38,3 C 59 % 1012,3 hPa 0,0 l/m 3,7 km/h (1 Bft) SW 225 2 min 0,000 mm 3,2 UV-I 628 W/m 17,0 C 25,6 C 9,7 km/h (2 Bft) 100,00 %
08.08.2018 10:20 25,8 C 25,6 C 38,3 C 59 % 1012,3 hPa 0,0 l/m 4,3 km/h (1 Bft) SW 226 2 min 0,000 mm 3,2 UV-I 634 W/m 17,2 C 25,8 C 9,7 km/h (2 Bft) 97,87 %
08.08.2018 10:22 25,8 C 25,6 C 38,9 C 59 % 1012,3 hPa 0,0 l/m 1,8 km/h (1 Bft) W-SW 243 2 min 0,000 mm 3,3 UV-I 638 W/m 17,2 C 25,8 C 6,4 km/h (2 Bft) 100,00 %
08.08.2018 10:24 25,9 C 25,6 C 38,3 C 55 % 1012,3 hPa 0,0 l/m 5,2 km/h (1 Bft) W-SW 242 2 min 0,000 mm 3,3 UV-I 630 W/m 16,2 C 25,9 C 6,4 km/h (2 Bft) 93,62 %
08.08.2018 10:26 26,1 C 25,6 C 38,9 C 57 % 1012,3 hPa 0,0 l/m 4,1 km/h (1 Bft) W-SW 243 2 min 0,000 mm 3,3 UV-I 640 W/m 16,9 C 26,1 C 6,4 km/h (2 Bft) 97,87 %
08.08.2018 10:28 26,3 C 25,6 C 39,4 C 57 % 1012,3 hPa 0,0 l/m 4,2 km/h (1 Bft) SW 227 2 min 0,000 mm 3,4 UV-I 637 W/m 17,1 C 26,3 C 8,0 km/h (2 Bft) 97,87 %
08.08.2018 10:30 26,3 C 25,6 C 39,4 C 55 % 1012,3 hPa 0,0 l/m 3,1 km/h (1 Bft) W-SW 257 2 min 0,000 mm 3,4 UV-I 647 W/m 16,5 C 26,3 C 4,8 km/h (1 Bft) 97,87 %
08.08.2018 10:32 26,4 C 25,6 C 38,9 C 54 % 1012,3 hPa 0,0 l/m 4,9 km/h (1 Bft) W 259 2 min 0,000 mm 3,5 UV-I 640 W/m 16,3 C 26,4 C 6,4 km/h (2 Bft) 97,37 %
08.08.2018 10:34 26,4 C 25,6 C 39,4 C 53 % 1012,3 hPa 0,0 l/m 3,9 km/h (1 Bft) S-SW 209 2 min 0,000 mm 3,5 UV-I 658 W/m 16,0 C 26,4 C 8,0 km/h (2 Bft) 95,74 %
08.08.2018 10:36 26,4 C 25,6 C 39,4 C 53 % 1012,3 hPa 0,0 l/m 5,0 km/h (1 Bft) W 264 2 min 0,000 mm 3,5 UV-I 703 W/m 16,0 C 26,4 C 9,7 km/h (2 Bft) 93,62 %
08.08.2018 10:38 26,3 C 25,6 C 38,3 C 54 % 1012,3 hPa 0,0 l/m 4,4 km/h (1 Bft) W-SW 244 2 min 0,000 mm 2,7 UV-I 498 W/m 16,2 C 26,3 C 11,3 km/h (2 Bft) 95,74 %
08.08.2018 10:40 26,4 C 25,6 C 37,8 C 55 % 1012,4 hPa 0,0 l/m 7,6 km/h (2 Bft) SW 227 2 min 0,000 mm 3,5 UV-I 522 W/m 16,6 C 26,2 C 11,3 km/h (2 Bft) 98,00 %
08.08.2018 10:42 26,5 C 25,6 C 38,3 C 53 % 1012,4 hPa 0,0 l/m 5,1 km/h (1 Bft) S-SW 194 2 min 0,000 mm 3,7 UV-I 545 W/m 16,1 C 26,5 C 8,0 km/h (2 Bft) 97,87 %
08.08.2018 10:44 26,4 C 25,6 C 38,9 C 54 % 1012,4 hPa 0,0 l/m 5,8 km/h (2 Bft) W-SW 246 2 min 0,000 mm 3,7 UV-I 510 W/m 16,3 C 26,4 C 9,7 km/h (2 Bft) 95,83 %
08.08.2018 10:46 26,4 C 26,1 C 38,9 C 52 % 1012,4 hPa 0,0 l/m 4,0 km/h (1 Bft) W 259 2 min 0,000 mm 3,8 UV-I 677 W/m 15,7 C 26,4 C 8,0 km/h (2 Bft) 95,74 %
08.08.2018 10:48 26,4 C 26,1 C 38,9 C 54 % 1012,4 hPa 0,0 l/m 2,6 km/h (1 Bft) W-SW 257 2 min 0,000 mm 3,8 UV-I 692 W/m 16,3 C 26,4 C 9,7 km/h (2 Bft) 93,62 %
08.08.2018 10:50 26,6 C 25,6 C 39,4 C 54 % 1012,4 hPa 0,0 l/m 0,8 km/h (0 Bft) S 186 2 min 0,000 mm 3,8 UV-I 700 W/m 16,5 C 26,6 C 4,8 km/h (1 Bft) 93,62 %
08.08.2018 10:52 26,6 C 25,6 C 38,3 C 53 % 1012,3 hPa 0,0 l/m 6,4 km/h (2 Bft) W-SW 248 2 min 0,000 mm 2,9 UV-I 598 W/m 16,2 C 26,6 C 9,7 km/h (2 Bft) 98,00 %
08.08.2018 10:54 26,5 C 25,6 C 37,2 C 54 % 1012,4 hPa 0,0 l/m 5,4 km/h (1 Bft) W-SW 240 2 min 0,000 mm 3,7 UV-I 530 W/m 16,4 C 26,5 C 8,0 km/h (2 Bft) 97,87 %
08.08.2018 10:56 26,5 C 26,1 C 37,2 C 54 % 1012,4 hPa 0,0 l/m 2,6 km/h (1 Bft) W-SW 242 2 min 0,000 mm 3,6 UV-I 701 W/m 16,4 C 26,5 C 6,4 km/h (2 Bft) 97,14 %
08.08.2018 10:58 26,6 C 26,1 C 38,3 C 53 % 1012,4 hPa 0,0 l/m 2,5 km/h (1 Bft) W-SW 242 2 min 0,000 mm 4,0 UV-I 716 W/m 16,2 C 26,6 C 4,8 km/h (1 Bft) 96,00 %
08.08.2018 11:00 26,8 C 26,1 C 39,4 C 55 % 1012,3 hPa 0,0 l/m 2,4 km/h (1 Bft) W-SW 242 2 min 0,431 mm 4,1 UV-I 715 W/m 17,0 C 26,8 C 4,8 km/h (1 Bft) 97,87 %
08.08.2018 11:02 27,1 C 26,1 C 40,6 C 54 % 1012,4 hPa 0,0 l/m 4,8 km/h (1 Bft) SW 214 2 min 0,000 mm 4,1 UV-I 718 W/m 17,0 C 27,1 C 8,0 km/h (2 Bft) 93,62 %
08.08.2018 11:04 27,2 C 26,1 C 40,6 C 52 % 1012,3 hPa 0,0 l/m 4,6 km/h (1 Bft) SW 222 2 min 0,000 mm 4,2 UV-I 720 W/m 16,5 C 27,2 C 8,0 km/h (2 Bft) 93,62 %
08.08.2018 11:06 27,2 C 26,1 C 40,6 C 52 % 1012,3 hPa 0,0 l/m 5,2 km/h (1 Bft) S-SW 198 2 min 0,000 mm 4,2 UV-I 721 W/m 16,5 C 27,2 C 8,0 km/h (2 Bft) 97,87 %
08.08.2018 11:08 27,3 C 26,1 C 41,7 C 54 % 1012,3 hPa 0,0 l/m 3,8 km/h (1 Bft) SW 227 2 min 0,000 mm 4,3 UV-I 725 W/m 17,2 C 27,3 C 6,4 km/h (2 Bft) 95,74 %
08.08.2018 11:10 27,6 C 26,1 C 42,2 C 52 % 1012,4 hPa 0,0 l/m 5,5 km/h (1 Bft) SO 146 2 min 0,000 mm 4,1 UV-I 725 W/m 16,8 C 27,6 C 8,0 km/h (2 Bft) 95,74 %
08.08.2018 11:12 27,6 C 26,1 C 42,8 C 53 % 1012,4 hPa 0,0 l/m 4,3 km/h (1 Bft) SO 145 2 min 0,000 mm 4,3 UV-I 730 W/m 17,1 C 27,6 C 8,0 km/h (2 Bft) 93,62 %
08.08.2018 11:14 27,7 C 26,1 C 42,2 C 52 % 1012,4 hPa 0,0 l/m 3,2 km/h (1 Bft) SW 229 2 min 0,000 mm 4,3 UV-I 731 W/m 16,9 C 27,7 C 6,4 km/h (2 Bft) 93,62 %
08.08.2018 11:16 27,7 C 26,1 C 41,7 C 51 % 1012,3 hPa 0,0 l/m 5,5 km/h (1 Bft) S 183 2 min 0,000 mm 4,4 UV-I 736 W/m 16,6 C 27,7 C 11,3 km/h (2 Bft) 96,00 %
08.08.2018 11:18 27,7 C 26,1 C 41,7 C 51 % 1012,4 hPa 0,0 l/m 6,8 km/h (2 Bft) S 178 2 min 0,000 mm 4,4 UV-I 740 W/m 16,6 C 27,6 C 8,0 km/h (2 Bft) 96,00 %
08.08.2018 11:20 27,6 C 26,1 C 41,7 C 51 % 1012,3 hPa 0,0 l/m 5,7 km/h (1 Bft) SW 225 2 min 0,000 mm 4,5 UV-I 744 W/m 16,5 C 27,6 C 11,3 km/h (2 Bft) 94,87 %
08.08.2018 11:22 27,8 C 26,1 C 42,2 C 51 % 1012,3 hPa 0,0 l/m 6,6 km/h (2 Bft) W-SW 240 2 min 0,000 mm 4,5 UV-I 747 W/m 16,7 C 27,8 C 11,3 km/h (2 Bft) 93,62 %
08.08.2018 11:24 28,1 C 26,1 C 41,7 C 51 % 1012,3 hPa 0,0 l/m 8,8 km/h (2 Bft) W-SW 253 2 min 0,000 mm 4,5 UV-I 747 W/m 17,0 C 27,7 C 12,9 km/h (3 Bft) 96,00 %
08.08.2018 11:26 28,3 C 26,1 C 41,7 C 50 % 1012,3 hPa 0,0 l/m 6,1 km/h (2 Bft) S-SW 206 2 min 0,000 mm 4,6 UV-I 746 W/m 16,9 C 28,3 C 9,7 km/h (2 Bft) 93,62 %
08.08.2018 11:28 28,5 C 26,1 C 41,1 C 50 % 1012,3 hPa 0,0 l/m 8,9 km/h (2 Bft) SW 221 2 min 0,000 mm 4,6 UV-I 745 W/m 17,0 C 28,2 C 14,5 km/h (3 Bft) 94,00 %
08.08.2018 11:30 28,7 C 26,1 C 41,7 C 49 % 1012,3 hPa 0,0 l/m 7,3 km/h (2 Bft) SW 234 2 min 0,000 mm 4,6 UV-I 749 W/m 16,9 C 28,6 C 12,9 km/h (3 Bft) 93,62 %
08.08.2018 11:32 28,6 C 26,1 C 41,1 C 49 % 1012,3 hPa 0,0 l/m 6,0 km/h (2 Bft) W 259 2 min 0,000 mm 4,6 UV-I 749 W/m 16,8 C 28,6 C 8,0 km/h (2 Bft) 94,74 %
08.08.2018 11:34 28,5 C 26,1 C 41,1 C 49 % 1012,3 hPa 0,0 l/m 4,1 km/h (1 Bft) SW 225 2 min 0,000 mm 4,7 UV-I 752 W/m 16,7 C 28,5 C 6,4 km/h (2 Bft) 91,49 %
08.08.2018 11:36 28,5 C 26,1 C 41,7 C 50 % 1012,3 hPa 0,0 l/m 6,1 km/h (2 Bft) W-SW 242 2 min 0,000 mm 4,7 UV-I 754 W/m 17,0 C 28,5 C 11,3 km/h (2 Bft) 95,74 %
08.08.2018 11:38 28,6 C 26,1 C 41,7 C 50 % 1012,3 hPa 0,0 l/m 7,6 km/h (2 Bft) W 264 2 min 0,000 mm 4,8 UV-I 759 W/m 17,1 C 28,4 C 14,5 km/h (3 Bft) 93,62 %
08.08.2018 11:40 28,7 C 26,1 C 41,7 C 49 % 1012,3 hPa 0,0 l/m 5,1 km/h (1 Bft) W 263 2 min 0,000 mm 4,8 UV-I 759 W/m 16,9 C 28,7 C 8,0 km/h (2 Bft) 95,74 %
08.08.2018 11:42 28,7 C 26,1 C 41,7 C 49 % 1012,3 hPa 0,0 l/m 5,6 km/h (1 Bft) W-SW 251 2 min 0,000 mm 4,8 UV-I 760 W/m 16,9 C 28,7 C 11,3 km/h (2 Bft) 98,00 %
08.08.2018 11:44 28,7 C 26,1 C 42,2 C 49 % 1012,3 hPa 0,0 l/m 5,5 km/h (1 Bft) SW 236 2 min 0,000 mm 4,9 UV-I 763 W/m 16,9 C 28,7 C 9,7 km/h (2 Bft) 96,00 %
08.08.2018 11:46 28,9 C 26,1 C 41,7 C 49 % 1012,3 hPa 0,0 l/m 4,7 km/h (1 Bft) W-SW 248 2 min 0,000 mm 4,9 UV-I 767 W/m 17,1 C 28,9 C 11,3 km/h (2 Bft) 95,74 %
08.08.2018 11:48 29,1 C 26,1 C 42,8 C 49 % 1012,3 hPa 0,0 l/m 6,0 km/h (2 Bft) W-SW 238 2 min 0,000 mm 4,3 UV-I 766 W/m 17,3 C 29,1 C 11,3 km/h (2 Bft) 94,00 %
08.08.2018 11:50 29,3 C 26,1 C 42,2 C 48 % 1012,3 hPa 0,0 l/m 8,4 km/h (2 Bft) SW 235 2 min 0,000 mm 5,0 UV-I 773 W/m 17,1 C 29,1 C 12,9 km/h (3 Bft) 97,87 %
08.08.2018 11:52 29,4 C 26,1 C 42,8 C 48 % 1012,3 hPa 0,0 l/m 5,2 km/h (1 Bft) W 259 2 min 0,000 mm 5,0 UV-I 774 W/m 17,2 C 29,4 C 9,7 km/h (2 Bft) 97,87 %
08.08.2018 11:54 29,5 C 26,1 C 42,2 C 47 % 1012,2 hPa 0,0 l/m 4,8 km/h (1 Bft) SW 220 2 min 0,000 mm 5,0 UV-I 777 W/m 17,0 C 29,5 C 12,9 km/h (3 Bft) 97,37 %
08.08.2018 11:56 29,4 C 26,1 C 41,1 C 47 % 1012,3 hPa 0,0 l/m 7,1 km/h (2 Bft) W 269 2 min 0,000 mm 5,1 UV-I 780 W/m 16,9 C 29,3 C 12,9 km/h (3 Bft) 97,87 %
08.08.2018 11:58 29,4 C 26,1 C 41,1 C 48 % 1012,2 hPa 0,0 l/m 5,6 km/h (1 Bft) N 5 2 min 0,000 mm 5,1 UV-I 780 W/m 17,2 C 29,4 C 8,0 km/h (2 Bft) 97,92 %
08.08.2018 12:00 29,5 C 26,1 C 40,6 C 46 % 1012,3 hPa 0,0 l/m 6,2 km/h (2 Bft) W 275 2 min 0,534 mm 5,1 UV-I 780 W/m 16,6 C 29,5 C 11,3 km/h (2 Bft) 97,87 %
08.08.2018 12:02 29,6 C 26,1 C 41,1 C 47 % 1012,2 hPa 0,0 l/m 8,7 km/h (2 Bft) W-NW 298 2 min 0,000 mm 5,1 UV-I 780 W/m 17,1 C 29,4 C 16,1 km/h (3 Bft) 95,74 %
08.08.2018 12:04 29,7 C 26,1 C 40,6 C 47 % 1012,2 hPa 0,0 l/m 8,5 km/h (2 Bft) W 263 2 min 0,000 mm 5,1 UV-I 784 W/m 17,2 C 29,5 C 17,7 km/h (3 Bft) 100,00 %
08.08.2018 12:06 29,7 C 26,1 C 40,6 C 47 % 1012,2 hPa 0,0 l/m 11,3 km/h (2 Bft) SW 234 2 min 0,000 mm 5,2 UV-I 785 W/m 17,2 C 29,3 C 22,5 km/h (4 Bft) 97,87 %
08.08.2018 12:08 29,9 C 26,1 C 41,7 C 46 % 1012,3 hPa 0,0 l/m 8,1 km/h (2 Bft) W-NW 290 2 min 0,000 mm 5,2 UV-I 785 W/m 17,0 C 29,7 C 14,5 km/h (3 Bft) 100,00 %
08.08.2018 12:10 29,9 C 26,1 C 42,2 C 46 % 1012,2 hPa 0,0 l/m 7,1 km/h (2 Bft) W-SW 244 2 min 0,000 mm 5,2 UV-I 788 W/m 17,0 C 29,8 C 16,1 km/h (3 Bft) 100,00 %
08.08.2018 12:12 29,9 C 26,1 C 42,8 C 46 % 1012,2 hPa 0,0 l/m 8,0 km/h (2 Bft) SW 234 2 min 0,000 mm 5,2 UV-I 786 W/m 17,0 C 29,7 C 14,5 km/h (3 Bft) 100,00 %
08.08.2018 12:14 29,9 C 26,1 C 41,7 C 46 % 1012,2 hPa 0,0 l/m 8,2 km/h (2 Bft) W-SW 252 2 min 0,000 mm 5,3 UV-I 784 W/m 17,0 C 29,7 C 12,9 km/h (3 Bft) 100,00 %
08.08.2018 12:16 30,1 C 26,1 C 41,7 C 46 % 1012,2 hPa 0,0 l/m 9,1 km/h (2 Bft) W-SW 255 2 min 0,000 mm 5,3 UV-I 781 W/m 17,2 C 29,9 C 14,5 km/h (3 Bft) 100,00 %
08.08.2018 12:18 30,2 C 26,1 C 42,2 C 46 % 1012,2 hPa 0,0 l/m 10,8 km/h (2 Bft) S-SW 197 2 min 0,000 mm 5,2 UV-I 776 W/m 17,3 C 29,9 C 14,5 km/h (3 Bft) 100,00 %
08.08.2018 12:20 30,1 C 26,1 C 42,2 C 45 % 1012,2 hPa 0,0 l/m 7,5 km/h (2 Bft) S 174 2 min 0,000 mm 5,3 UV-I 773 W/m 16,8 C 30,0 C 14,5 km/h (3 Bft) 98,00 %
08.08.2018 12:22 30,0 C 26,1 C 42,2 C 47 % 1012,2 hPa 0,0 l/m 8,4 km/h (2 Bft) W-SW 241 2 min 0,000 mm 5,3 UV-I 774 W/m 17,4 C 29,8 C 17,7 km/h (3 Bft) 100,00 %
08.08.2018 12:24 30,2 C 26,1 C 42,8 C 47 % 1012,2 hPa 0,0 l/m 11,4 km/h (2 Bft) W-SW 243 2 min 0,000 mm 5,3 UV-I 773 W/m 17,6 C 29,8 C 19,3 km/h (3 Bft) 100,00 %
08.08.2018 12:26 30,3 C 26,1 C 40,6 C 45 % 1012,2 hPa 0,0 l/m 11,8 km/h (2 Bft) W-SW 250 2 min 0,000 mm 5,3 UV-I 774 W/m 17,0 C 29,9 C 19,3 km/h (3 Bft) 100,00 %
08.08.2018 12:28 30,2 C 26,1 C 40,6 C 46 % 1012,2 hPa 0,0 l/m 11,0 km/h (2 Bft) W-NW 283 2 min 0,000 mm 5,3 UV-I 782 W/m 17,3 C 29,8 C 16,1 km/h (3 Bft) 100,00 %
08.08.2018 12:30 30,0 C 26,1 C 41,1 C 46 % 1012,2 hPa 0,0 l/m 3,6 km/h (1 Bft) W 279 2 min 0,000 mm 5,3 UV-I 781 W/m 17,1 C 30,0 C 6,4 km/h (2 Bft) 98,00 %
08.08.2018 12:32 30,0 C 26,1 C 42,2 C 47 % 1012,2 hPa 0,0 l/m 5,7 km/h (1 Bft) W-SW 250 2 min 0,000 mm 5,4 UV-I 786 W/m 17,4 C 30,0 C 9,7 km/h (2 Bft) 100,00 %
08.08.2018 12:34 30,3 C 26,1 C 42,2 C 47 % 1012,2 hPa 0,0 l/m 9,1 km/h (2 Bft) W 277 2 min 0,000 mm 5,4 UV-I 784 W/m 17,7 C 30,1 C 17,7 km/h (3 Bft) 98,08 %
08.08.2018 12:36 30,4 C 26,1 C 42,8 C 46 % 1012,2 hPa 0,0 l/m 4,7 km/h (1 Bft) W-SW 257 2 min 0,000 mm 5,3 UV-I 783 W/m 17,5 C 30,4 C 11,3 km/h (2 Bft) 100,00 %
08.08.2018 12:38 30,8 C 26,1 C 43,9 C 46 % 1012,2 hPa 0,0 l/m 4,3 km/h (1 Bft) W-SW 239 2 min 0,000 mm 5,4 UV-I 789 W/m 17,8 C 30,8 C 9,7 km/h (2 Bft) 100,00 %
08.08.2018 12:40 31,0 C 26,1 C 43,3 C 44 % 1012,2 hPa 0,0 l/m 10,3 km/h (2 Bft) W 271 2 min 0,000 mm 5,4 UV-I 794 W/m 17,3 C 30,8 C 16,1 km/h (3 Bft) 100,00 %
08.08.2018 12:42 30,9 C 26,1 C 43,3 C 44 % 1012,2 hPa 0,0 l/m 9,0 km/h (2 Bft) W-SW 254 2 min 0,000 mm 5,5 UV-I 802 W/m 17,2 C 30,7 C 14,5 km/h (3 Bft) 100,00 %
08.08.2018 12:44 30,9 C 26,1 C 42,8 C 45 % 1012,1 hPa 0,0 l/m 12,4 km/h (3 Bft) S-SW 212 2 min 0,000 mm 5,4 UV-I 797 W/m 17,6 C 30,6 C 19,3 km/h (3 Bft) 100,00 %
08.08.2018 12:46 31,1 C 26,1 C 43,3 C 45 % 1012,2 hPa 0,0 l/m 6,4 km/h (2 Bft) W 259 2 min 0,000 mm 5,4 UV-I 793 W/m 17,7 C 31,1 C 11,3 km/h (2 Bft) 100,00 %
08.08.2018 12:48 31,3 C 26,1 C 43,9 C 44 % 1012,2 hPa 0,0 l/m 11,7 km/h (2 Bft) W 259 2 min 0,000 mm 5,5 UV-I 795 W/m 17,6 C 31,1 C 19,3 km/h (3 Bft) 97,87 %
08.08.2018 12:50 31,4 C 26,1 C 43,3 C 45 % 1012,2 hPa 0,0 l/m 13,7 km/h (3 Bft) W-SW 257 2 min 0,000 mm 5,5 UV-I 800 W/m 18,0 C 31,1 C 20,9 km/h (4 Bft) 100,00 %
08.08.2018 12:52 31,4 C 26,7 C 42,8 C 43 % 1012,1 hPa 0,0 l/m 13,7 km/h (3 Bft) W-SW 249 2 min 0,000 mm 5,5 UV-I 801 W/m 17,3 C 31,1 C 20,9 km/h (4 Bft) 100,00 %
08.08.2018 12:54 31,3 C 26,7 C 42,8 C 43 % 1012,1 hPa 0,0 l/m 8,2 km/h (2 Bft) W 259 2 min 0,000 mm 5,5 UV-I 800 W/m 17,2 C 31,2 C 16,1 km/h (3 Bft) 97,87 %
08.08.2018 12:56 31,2 C 26,7 C 42,8 C 43 % 1012,1 hPa 0,0 l/m 10,2 km/h (2 Bft) N-NW 327 2 min 0,000 mm 5,5 UV-I 799 W/m 17,1 C 31,0 C 17,7 km/h (3 Bft) 97,87 %
08.08.2018 12:58 31,2 C 26,7 C 42,8 C 44 % 1012,1 hPa 0,0 l/m 11,7 km/h (2 Bft) W 259 2 min 0,000 mm 5,5 UV-I 796 W/m 17,5 C 30,9 C 24,1 km/h (4 Bft) 100,00 %
08.08.2018 13:00 31,3 C 26,7 C 41,7 C 42 % 1012,1 hPa 0,0 l/m 14,1 km/h (3 Bft) W 269 2 min 0,609 mm 5,5 UV-I 799 W/m 16,8 C 31,0 C 19,3 km/h (3 Bft) 100,00 %
08.08.2018 13:02 31,4 C 26,7 C 42,8 C 45 % 1012,1 hPa 0,0 l/m 4,1 km/h (1 Bft) N 5 2 min 0,000 mm 5,5 UV-I 803 W/m 18,0 C 31,4 C 9,7 km/h (2 Bft) 100,00 %
08.08.2018 13:04 31,6 C 26,7 C 43,3 C 43 % 1012,0 hPa 0,0 l/m 5,8 km/h (2 Bft) NW 319 2 min 0,000 mm 5,5 UV-I 800 W/m 17,5 C 31,6 C 9,7 km/h (2 Bft) 100,00 %
08.08.2018 13:06 31,7 C 26,7 C 43,9 C 42 % 1012,0 hPa 0,0 l/m 7,9 km/h (2 Bft) W 267 2 min 0,000 mm 5,4 UV-I 794 W/m 17,2 C 31,6 C 16,1 km/h (3 Bft) 100,00 %
08.08.2018 13:08 31,7 C 26,7 C 43,3 C 38 % 1012,0 hPa 0,0 l/m 13,4 km/h (3 Bft) SW 229 2 min 0,000 mm 5,4 UV-I 792 W/m 15,6 C 31,5 C 17,7 km/h (3 Bft) 97,87 %
08.08.2018 13:10 31,8 C 26,7 C 42,8 C 38 % 1012,1 hPa 0,0 l/m 12,1 km/h (2 Bft) W 261 2 min 0,000 mm 5,4 UV-I 793 W/m 15,7 C 31,6 C 24,1 km/h (4 Bft) 96,00 %
08.08.2018 13:12 31,9 C 26,7 C 42,8 C 38 % 1012,1 hPa 0,0 l/m 9,5 km/h (2 Bft) W 279 2 min 0,000 mm 5,5 UV-I 802 W/m 15,8 C 31,8 C 17,7 km/h (3 Bft) 95,74 %
08.08.2018 13:14 32,1 C 26,7 C 43,9 C 37 % 1012,2 hPa 0,0 l/m 4,6 km/h (1 Bft) SW 235 2 min 0,000 mm 5,6 UV-I 806 W/m 15,5 C 32,1 C 9,7 km/h (2 Bft) 95,24 %
08.08.2018 13:16 32,2 C 26,7 C 43,9 C 37 % 1012,1 hPa 0,0 l/m 10,9 km/h (2 Bft) W-NW 303 2 min 0,000 mm 5,6 UV-I 775 W/m 15,6 C 32,1 C 20,9 km/h (4 Bft) 93,62 %
08.08.2018 13:18 32,1 C 26,7 C 43,3 C 38 % 1012,1 hPa 0,0 l/m 11,6 km/h (2 Bft) W-SW 239 2 min 0,000 mm 5,5 UV-I 799 W/m 16,0 C 32,0 C 17,7 km/h (3 Bft) 95,74 %
08.08.2018 13:20 32,1 C 26,7 C 42,8 C 39 % 1012,2 hPa 0,0 l/m 8,8 km/h (2 Bft) NW 311 2 min 0,000 mm 5,5 UV-I 801 W/m 16,4 C 32,0 C 14,5 km/h (3 Bft) 96,00 %
08.08.2018 13:22 32,1 C 26,7 C 43,3 C 38 % 1012,3 hPa 0,0 l/m 7,3 km/h (2 Bft) W-SW 255 2 min 0,000 mm 5,5 UV-I 802 W/m 16,0 C 32,1 C 16,1 km/h (3 Bft) 93,62 %
08.08.2018 13:24 32,2 C 26,7 C 43,3 C 38 % 1012,2 hPa 0,0 l/m 10,0 km/h (2 Bft) W-SW 242 2 min 0,000 mm 5,5 UV-I 803 W/m 16,0 C 32,1 C 17,7 km/h (3 Bft) 91,49 %
08.08.2018 13:26 32,3 C 26,7 C 42,2 C 37 % 1012,3 hPa 0,0 l/m 17,3 km/h (3 Bft) W 260 2 min 0,000 mm 5,5 UV-I 806 W/m 15,7 C 32,1 C 27,4 km/h (4 Bft) 93,62 %
08.08.2018 13:28 32,3 C 26,7 C 42,8 C 38 % 1012,3 hPa 0,0 l/m 14,0 km/h (3 Bft) W-SW 246 2 min 0,000 mm 5,6 UV-I 806 W/m 16,1 C 32,2 C 27,4 km/h (4 Bft) 93,62 %
08.08.2018 13:30 32,2 C 26,7 C 41,7 C 38 % 1012,3 hPa 0,0 l/m 19,3 km/h (3 Bft) W-SW 258 2 min 0,000 mm 5,5 UV-I 804 W/m 16,0 C 32,0 C 30,6 km/h (5 Bft) 95,74 %
08.08.2018 13:32 32,1 C 26,7 C 42,2 C 39 % 1012,2 hPa 0,0 l/m 11,8 km/h (2 Bft) S-SW 209 2 min 0,000 mm 5,5 UV-I 806 W/m 16,4 C 32,0 C 16,1 km/h (3 Bft) 93,62 %
08.08.2018 13:34 32,2 C 26,7 C 42,8 C 39 % 1012,2 hPa 0,0 l/m 10,4 km/h (2 Bft) W-NW 283 2 min 0,000 mm 5,5 UV-I 805 W/m 16,5 C 32,1 C 16,1 km/h (3 Bft) 93,62 %
08.08.2018 13:36 32,3 C 26,7 C 43,3 C 39 % 1012,3 hPa 0,0 l/m 13,4 km/h (3 Bft) SW 226 2 min 0,000 mm 5,5 UV-I 802 W/m 16,5 C 32,2 C 20,9 km/h (4 Bft) 91,49 %
08.08.2018 13:38 32,3 C 26,7 C 42,8 C 38 % 1012,2 hPa 0,0 l/m 16,5 km/h (3 Bft) W-SW 255 2 min 0,000 mm 5,4 UV-I 794 W/m 16,1 C 32,1 C 20,9 km/h (4 Bft) 93,62 %
08.08.2018 13:40 32,3 C 26,7 C 42,2 C 38 % 1012,2 hPa 0,0 l/m 14,5 km/h (3 Bft) W 267 2 min 0,000 mm 5,4 UV-I 796 W/m 16,1 C 32,2 C 20,9 km/h (4 Bft) 91,49 %
08.08.2018 13:42 32,2 C 26,7 C 42,2 C 38 % 1012,2 hPa 0,0 l/m 9,4 km/h (2 Bft) W 260 2 min 0,000 mm 5,4 UV-I 796 W/m 16,0 C 32,1 C 14,5 km/h (3 Bft) 94,74 %
08.08.2018 13:44 32,2 C 26,7 C 43,3 C 39 % 1012,1 hPa 0,0 l/m 5,4 km/h (1 Bft) NW 306 2 min 0,000 mm 5,4 UV-I 792 W/m 16,5 C 32,2 C 11,3 km/h (2 Bft) 93,62 %
08.08.2018 13:46 32,3 C 26,7 C 43,3 C 38 % 1012,0 hPa 0,0 l/m 7,7 km/h (2 Bft) W 280 2 min 0,000 mm 5,4 UV-I 790 W/m 16,1 C 32,3 C 14,5 km/h (3 Bft) 97,87 %
08.08.2018 13:48 32,4 C 26,7 C 43,3 C 38 % 1012,1 hPa 0,0 l/m 7,2 km/h (2 Bft) W-SW 257 2 min 0,000 mm 5,3 UV-I 785 W/m 16,2 C 32,4 C 17,7 km/h (3 Bft) 98,00 %
08.08.2018 13:50 32,5 C 26,7 C 43,3 C 37 % 1012,1 hPa 0,0 l/m 13,1 km/h (3 Bft) W-SW 248 2 min 0,000 mm 5,4 UV-I 795 W/m 15,9 C 32,4 C 19,3 km/h (3 Bft) 97,87 %
08.08.2018 13:52 32,6 C 26,7 C 42,8 C 37 % 1012,1 hPa 0,0 l/m 13,1 km/h (3 Bft) W-SW 242 2 min 0,000 mm 5,4 UV-I 798 W/m 16,0 C 32,5 C 19,3 km/h (3 Bft) 93,75 %
08.08.2018 13:54 32,6 C 26,7 C 43,3 C 38 % 1012,1 hPa 0,0 l/m 8,3 km/h (2 Bft) NW 309 2 min 0,000 mm 5,3 UV-I 790 W/m 16,4 C 32,6 C 16,1 km/h (3 Bft) 97,87 %
08.08.2018 13:56 32,5 C 26,7 C 42,8 C 37 % 1012,1 hPa 0,0 l/m 6,1 km/h (2 Bft) W 278 2 min 0,000 mm 5,3 UV-I 791 W/m 15,9 C 32,5 C 14,5 km/h (3 Bft) 98,00 %
08.08.2018 13:58 32,5 C 26,7 C 42,8 C 38 % 1012,2 hPa 0,0 l/m 10,5 km/h (2 Bft) W-NW 297 2 min 0,000 mm 5,2 UV-I 788 W/m 16,3 C 32,4 C 17,7 km/h (3 Bft) 95,74 %
08.08.2018 14:00 32,4 C 26,7 C 42,8 C 37 % 1012,1 hPa 0,0 l/m 6,5 km/h (2 Bft) W-SW 253 2 min 0,000 mm 5,2 UV-I 782 W/m 15,8 C 32,4 C 14,5 km/h (3 Bft) 98,00 %
08.08.2018 14:02 32,5 C 26,7 C 42,8 C 38 % 1012,1 hPa 0,0 l/m 5,1 km/h (1 Bft) W 281 2 min 0,661 mm 5,2 UV-I 783 W/m 16,3 C 32,5 C 11,3 km/h (2 Bft) 97,73 %
08.08.2018 14:04 32,6 C 26,7 C 43,3 C 37 % 1012,1 hPa 0,0 l/m 15,4 km/h (3 Bft) W 259 2 min 0,000 mm 5,2 UV-I 789 W/m 16,0 C 32,5 C 25,7 km/h (4 Bft) 97,87 %
08.08.2018 14:06 32,7 C 26,7 C 43,3 C 38 % 1012,1 hPa 0,0 l/m 10,5 km/h (2 Bft) W-NW 286 2 min 0,000 mm 5,2 UV-I 783 W/m 16,5 C 32,7 C 16,1 km/h (3 Bft) 97,87 %
08.08.2018 14:08 32,6 C 26,7 C 42,8 C 36 % 1012,1 hPa 0,0 l/m 12,5 km/h (3 Bft) N-NW 337 2 min 0,000 mm 5,2 UV-I 788 W/m 15,6 C 32,5 C 22,5 km/h (4 Bft) 95,74 %
08.08.2018 14:10 32,4 C 26,7 C 43,3 C 37 % 1012,1 hPa 0,0 l/m 8,0 km/h (2 Bft) W 279 2 min 0,000 mm 5,1 UV-I 781 W/m 15,8 C 32,4 C 14,5 km/h (3 Bft) 97,87 %
08.08.2018 14:12 32,3 C 26,7 C 43,9 C 37 % 1012,1 hPa 0,0 l/m 10,8 km/h (2 Bft) W-SW 244 2 min 0,000 mm 5,1 UV-I 777 W/m 15,7 C 32,2 C 17,7 km/h (3 Bft) 95,74 %
08.08.2018 14:14 32,4 C 26,7 C 43,9 C 38 % 1012,1 hPa 0,0 l/m 11,3 km/h (2 Bft) W-NW 295 2 min 0,000 mm 5,1 UV-I 773 W/m 16,2 C 32,3 C 22,5 km/h (4 Bft) 97,14 %
08.08.2018 14:16 32,4 C 26,7 C 44,4 C 38 % 1012,1 hPa 0,0 l/m 5,2 km/h (1 Bft) NW 322 2 min 0,000 mm 5,0 UV-I 773 W/m 16,2 C 32,4 C 9,7 km/h (2 Bft) 98,00 %
08.08.2018 14:18 32,4 C 26,7 C 43,9 C 38 % 1012,0 hPa 0,0 l/m 9,4 km/h (2 Bft) W-NW 298 2 min 0,000 mm 4,9 UV-I 767 W/m 16,2 C 32,3 C 14,5 km/h (3 Bft) 95,74 %
08.08.2018 14:20 32,4 C 26,7 C 43,9 C 38 % 1011,9 hPa 0,0 l/m 8,8 km/h (2 Bft) N-NO 17 2 min 0,000 mm 4,9 UV-I 761 W/m 16,2 C 32,4 C 14,5 km/h (3 Bft) 97,87 %
08.08.2018 14:22 32,7 C 26,7 C 43,9 C 38 % 1011,9 hPa 0,0 l/m 5,9 km/h (2 Bft) NW 322 2 min 0,000 mm 4,9 UV-I 780 W/m 16,5 C 32,7 C 12,9 km/h (3 Bft) 98,00 %
08.08.2018 14:24 32,9 C 26,7 C 44,4 C 37 % 1011,9 hPa 0,0 l/m 6,1 km/h (2 Bft) W-NW 286 2 min 0,000 mm 4,8 UV-I 789 W/m 16,2 C 32,9 C 12,9 km/h (3 Bft) 100,00 %
08.08.2018 14:26 32,9 C 26,7 C 43,9 C 37 % 1011,9 hPa 0,0 l/m 10,7 km/h (2 Bft) NW 307 2 min 0,000 mm 4,8 UV-I 787 W/m 16,2 C 32,9 C 20,9 km/h (4 Bft) 100,00 %
08.08.2018 14:28 32,8 C 26,7 C 43,9 C 38 % 1011,8 hPa 0,0 l/m 10,7 km/h (2 Bft) W-SW 255 2 min 0,000 mm 4,9 UV-I 778 W/m 16,6 C 32,8 C 19,3 km/h (3 Bft) 100,00 %
08.08.2018 14:30 32,8 C 26,7 C 43,9 C 38 % 1011,9 hPa 0,0 l/m 10,4 km/h (2 Bft) W-SW 238 2 min 0,000 mm 4,9 UV-I 777 W/m 16,6 C 32,8 C 17,7 km/h (3 Bft) 100,00 %
08.08.2018 14:32 32,8 C 26,7 C 43,3 C 38 % 1011,9 hPa 0,0 l/m 15,9 km/h (3 Bft) W 264 2 min 0,000 mm 4,9 UV-I 770 W/m 16,6 C 32,8 C 20,9 km/h (4 Bft) 97,92 %
08.08.2018 14:34 32,8 C 26,7 C 43,3 C 38 % 1011,9 hPa 0,0 l/m 8,4 km/h (2 Bft) W-SW 244 2 min 0,000 mm 4,7 UV-I 749 W/m 16,6 C 32,8 C 14,5 km/h (3 Bft) 100,00 %
08.08.2018 14:36 32,9 C 26,7 C 43,9 C 39 % 1011,8 hPa 0,0 l/m 8,5 km/h (2 Bft) N-NW 337 2 min 0,000 mm 4,8 UV-I 755 W/m 17,1 C 32,9 C 17,7 km/h (3 Bft) 97,87 %
08.08.2018 14:38 33,1 C 27,2 C 43,3 C 38 % 1011,8 hPa 0,0 l/m 11,5 km/h (2 Bft) W-SW 255 2 min 0,000 mm 4,6 UV-I 743 W/m 16,8 C 33,1 C 17,7 km/h (3 Bft) 100,00 %
08.08.2018 14:40 33,1 C 27,2 C 42,8 C 37 % 1011,8 hPa 0,0 l/m 18,5 km/h (3 Bft) W-SW 256 2 min 0,000 mm 4,7 UV-I 757 W/m 16,4 C 33,1 C 24,1 km/h (4 Bft) 100,00 %
08.08.2018 14:42 32,9 C 27,2 C 42,8 C 37 % 1011,8 hPa 0,0 l/m 15,3 km/h (3 Bft) W 259 2 min 0,000 mm 4,7 UV-I 761 W/m 16,2 C 32,9 C 29,0 km/h (5 Bft) 100,00 %
08.08.2018 14:44 32,9 C 27,2 C 42,2 C 37 % 1011,7 hPa 0,0 l/m 16,3 km/h (3 Bft) W 277 2 min 0,000 mm 4,6 UV-I 749 W/m 16,2 C 32,9 C 33,8 km/h (5 Bft) 100,00 %
08.08.2018 14:46 33,1 C 27,2 C 42,8 C 37 % 1011,7 hPa 0,0 l/m 21,2 km/h (4 Bft) W 259 2 min 0,000 mm 4,6 UV-I 748 W/m 16,4 C 33,1 C 29,0 km/h (5 Bft) 97,87 %
08.08.2018 14:48 33,1 C 27,2 C 42,8 C 36 % 1011,6 hPa 0,0 l/m 17,4 km/h (3 Bft) W-NW 294 2 min 0,000 mm 4,6 UV-I 749 W/m 16,0 C 33,1 C 27,4 km/h (4 Bft) 96,00 %
08.08.2018 14:50 33,0 C 27,2 C 42,8 C 37 % 1011,7 hPa 0,0 l/m 13,4 km/h (3 Bft) W-SW 245 2 min 0,000 mm 4,5 UV-I 740 W/m 16,3 C 33,0 C 19,3 km/h (3 Bft) 97,87 %
08.08.2018 14:52 33,0 C 27,2 C 43,3 C 37 % 1011,6 hPa 0,0 l/m 9,5 km/h (2 Bft) W-SW 252 2 min 0,000 mm 4,3 UV-I 718 W/m 16,3 C 33,0 C 14,5 km/h (3 Bft) 97,87 %
08.08.2018 14:54 33,2 C 27,2 C 43,9 C 39 % 1011,6 hPa 0,0 l/m 8,0 km/h (2 Bft) W-SW 247 2 min 0,000 mm 4,2 UV-I 704 W/m 17,3 C 33,2 C 14,5 km/h (3 Bft) 100,00 %
08.08.2018 14:56 33,2 C 27,2 C 43,3 C 37 % 1011,6 hPa 0,0 l/m 14,6 km/h (3 Bft) W 269 2 min 0,000 mm 4,1 UV-I 707 W/m 16,5 C 33,2 C 20,9 km/h (4 Bft) 97,14 %
08.08.2018 14:58 33,1 C 27,2 C 43,3 C 37 % 1011,6 hPa 0,0 l/m 9,8 km/h (2 Bft) N-NW 344 2 min 0,000 mm 4,2 UV-I 730 W/m 16,4 C 33,1 C 16,1 km/h (3 Bft) 100,00 %
08.08.2018 15:00 33,1 C 27,2 C 43,9 C 37 % 1011,6 hPa 0,0 l/m 7,6 km/h (2 Bft) NO 44 2 min 0,660 mm 4,2 UV-I 727 W/m 16,4 C 33,1 C 12,9 km/h (3 Bft) 100,00 %
08.08.2018 15:02 33,1 C 27,2 C 43,3 C 37 % 1011,5 hPa 0,0 l/m 8,6 km/h (2 Bft) W 265 2 min 0,000 mm 4,3 UV-I 735 W/m 16,4 C 33,1 C 16,1 km/h (3 Bft) 100,00 %
08.08.2018 15:04 33,2 C 27,2 C 42,8 C 37 % 1011,5 hPa 0,0 l/m 13,4 km/h (3 Bft) W 263 2 min 0,000 mm 4,3 UV-I 735 W/m 16,5 C 33,2 C 20,9 km/h (4 Bft) 95,74 %
08.08.2018 15:06 33,2 C 27,2 C 43,3 C 37 % 1011,5 hPa 0,0 l/m 10,1 km/h (2 Bft) W 277 2 min 0,000 mm 4,2 UV-I 726 W/m 16,5 C 33,2 C 16,1 km/h (3 Bft) 95,74 %
08.08.2018 15:08 33,2 C 27,2 C 43,3 C 37 % 1011,4 hPa 0,0 l/m 9,0 km/h (2 Bft) W 278 2 min 0,000 mm 4,2 UV-I 726 W/m 16,5 C 33,2 C 16,1 km/h (3 Bft) 97,92 %
08.08.2018 15:10 33,2 C 27,2 C 43,3 C 36 % 1011,5 hPa 0,0 l/m 9,5 km/h (2 Bft) W-NW 299 2 min 0,000 mm 4,1 UV-I 717 W/m 16,1 C 33,2 C 20,9 km/h (4 Bft) 95,74 %
08.08.2018 15:12 33,3 C 27,2 C 43,9 C 37 % 1011,4 hPa 0,0 l/m 8,6 km/h (2 Bft) N-NO 19 2 min 0,000 mm 4,1 UV-I 715 W/m 16,6 C 33,3 C 19,3 km/h (3 Bft) 96,00 %
08.08.2018 15:14 33,4 C 27,2 C 43,3 C 36 % 1011,4 hPa 0,0 l/m 8,8 km/h (2 Bft) N 355 2 min 0,000 mm 4,0 UV-I 704 W/m 16,3 C 33,4 C 16,1 km/h (3 Bft) 95,74 %
08.08.2018 15:16 33,3 C 27,2 C 43,3 C 37 % 1011,4 hPa 0,0 l/m 6,0 km/h (2 Bft) W-SW 240 2 min 0,000 mm 4,0 UV-I 701 W/m 16,6 C 33,3 C 9,7 km/h (2 Bft) 93,62 %
08.08.2018 15:18 33,3 C 27,2 C 43,3 C 36 % 1011,4 hPa 0,0 l/m 14,9 km/h (3 Bft) S-SW 207 2 min 0,000 mm 4,0 UV-I 691 W/m 16,2 C 33,3 C 25,7 km/h (4 Bft) 96,00 %
08.08.2018 15:20 33,3 C 27,2 C 42,8 C 36 % 1011,4 hPa 0,0 l/m 13,3 km/h (3 Bft) W 271 2 min 0,000 mm 4,0 UV-I 697 W/m 16,2 C 33,3 C 19,3 km/h (3 Bft) 95,74 %
08.08.2018 15:22 33,3 C 27,2 C 42,8 C 36 % 1011,4 hPa 0,0 l/m 8,9 km/h (2 Bft) W 260 2 min 0,000 mm 4,0 UV-I 694 W/m 16,2 C 33,3 C 16,1 km/h (3 Bft) 91,49 %
08.08.2018 15:24 33,3 C 27,2 C 42,8 C 37 % 1011,3 hPa 0,0 l/m 9,1 km/h (2 Bft) W 265 2 min 0,000 mm 3,8 UV-I 669 W/m 16,6 C 33,3 C 19,3 km/h (3 Bft) 94,74 %
08.08.2018 15:26 33,2 C 27,2 C 43,3 C 36 % 1011,3 hPa 0,0 l/m 6,0 km/h (2 Bft) W-NW 298 2 min 0,000 mm 3,8 UV-I 668 W/m 16,1 C 33,2 C 12,9 km/h (3 Bft) 93,62 %
08.08.2018 15:28 33,1 C 27,2 C 42,8 C 37 % 1011,4 hPa 0,0 l/m 15,5 km/h (3 Bft) W-SW 246 2 min 0,000 mm 3,7 UV-I 668 W/m 16,4 C 33,1 C 22,5 km/h (4 Bft) 95,74 %
08.08.2018 15:30 32,9 C 27,2 C 42,8 C 37 % 1011,3 hPa 0,0 l/m 10,2 km/h (2 Bft) W 263 2 min 0,000 mm 3,7 UV-I 660 W/m 16,2 C 32,9 C 17,7 km/h (3 Bft) 93,62 %
08.08.2018 15:32 32,9 C 27,2 C 42,8 C 38 % 1011,3 hPa 0,0 l/m 9,9 km/h (2 Bft) W-NW 298 2 min 0,000 mm 3,5 UV-I 661 W/m 16,7 C 32,9 C 14,5 km/h (3 Bft) 94,00 %
08.08.2018 15:34 32,7 C 27,2 C 41,1 C 38 % 1011,3 hPa 0,0 l/m 7,1 km/h (2 Bft) W 277 0 min 0,000 mm 2,9 UV-I 305 W/m 16,5 C 32,7 C 12,9 km/h (3 Bft) 91,49 %
08.08.2018 15:36 32,8 C 27,2 C 42,2 C 38 % 1011,3 hPa 0,0 l/m 6,2 km/h (2 Bft) W-NW 291 2 min 0,000 mm 3,4 UV-I 614 W/m 16,6 C 32,8 C 12,9 km/h (3 Bft) 97,87 %
08.08.2018 15:38 32,9 C 27,2 C 41,7 C 37 % 1011,3 hPa 0,0 l/m 10,8 km/h (2 Bft) W 269 2 min 0,000 mm 3,5 UV-I 653 W/m 16,2 C 32,9 C 17,7 km/h (3 Bft) 98,00 %
08.08.2018 15:40 32,9 C 27,2 C 41,7 C 38 % 1011,3 hPa 0,0 l/m 9,1 km/h (2 Bft) NW 310 2 min 0,000 mm 3,5 UV-I 655 W/m 16,7 C 32,9 C 16,1 km/h (3 Bft) 97,87 %
08.08.2018 15:42 33,1 C 27,2 C 42,2 C 36 % 1011,2 hPa 0,0 l/m 7,8 km/h (2 Bft) SW 230 2 min 0,000 mm 3,5 UV-I 645 W/m 16,0 C 33,1 C 14,5 km/h (3 Bft) 95,74 %
08.08.2018 15:44 33,0 C 27,2 C 42,8 C 37 % 1011,1 hPa 0,0 l/m 6,0 km/h (2 Bft) N-NO 19 2 min 0,000 mm 3,4 UV-I 642 W/m 16,3 C 33,0 C 12,9 km/h (3 Bft) 97,87 %
08.08.2018 15:46 33,2 C 27,2 C 43,3 C 37 % 1011,1 hPa 0,0 l/m 5,3 km/h (1 Bft) W-SW 250 2 min 0,000 mm 3,4 UV-I 640 W/m 16,5 C 33,2 C 11,3 km/h (2 Bft) 95,74 %
08.08.2018 15:48 33,4 C 27,2 C 43,3 C 36 % 1011,0 hPa 0,0 l/m 7,9 km/h (2 Bft) W-SW 258 2 min 0,000 mm 3,3 UV-I 632 W/m 16,3 C 33,4 C 17,7 km/h (3 Bft) 97,92 %
08.08.2018 15:50 33,4 C 27,2 C 42,8 C 36 % 1011,1 hPa 0,0 l/m 12,3 km/h (3 Bft) W 267 2 min 0,000 mm 3,3 UV-I 630 W/m 16,3 C 33,4 C 17,7 km/h (3 Bft) 100,00 %
08.08.2018 15:52 33,3 C 27,2 C 42,8 C 36 % 1011,1 hPa 0,0 l/m 8,0 km/h (2 Bft) W 280 2 min 0,000 mm 3,3 UV-I 626 W/m 16,2 C 33,3 C 12,9 km/h (3 Bft) 97,87 %
08.08.2018 15:54 33,3 C 27,2 C 41,7 C 35 % 1011,0 hPa 0,0 l/m 9,5 km/h (2 Bft) W-NW 285 2 min 0,000 mm 3,2 UV-I 624 W/m 15,7 C 33,3 C 19,3 km/h (3 Bft) 100,00 %
08.08.2018 15:56 33,2 C 27,2 C 41,7 C 35 % 1011,1 hPa 0,0 l/m 12,9 km/h (3 Bft) SW 236 2 min 0,000 mm 3,2 UV-I 623 W/m 15,6 C 33,2 C 29,0 km/h (5 Bft) 97,87 %
08.08.2018 15:58 33,2 C 27,2 C 41,7 C 35 % 1011,1 hPa 0,0 l/m 15,8 km/h (3 Bft) W 271 2 min 0,000 mm 3,2 UV-I 619 W/m 15,6 C 33,2 C 24,1 km/h (4 Bft) 97,87 %
08.08.2018 16:00 33,1 C 27,2 C 41,1 C 35 % 1011,1 hPa 0,0 l/m 12,3 km/h (3 Bft) W 269 2 min 0,559 mm 3,1 UV-I 614 W/m 15,6 C 33,1 C 19,3 km/h (3 Bft) 97,87 %
08.08.2018 16:02 33,1 C 27,2 C 42,2 C 35 % 1011,0 hPa 0,0 l/m 10,5 km/h (2 Bft) SW 231 2 min 0,000 mm 3,1 UV-I 610 W/m 15,6 C 33,1 C 14,5 km/h (3 Bft) 100,00 %
08.08.2018 16:04 33,3 C 27,2 C 42,8 C 34 % 1011,1 hPa 0,0 l/m 13,8 km/h (3 Bft) W-NW 285 2 min 0,000 mm 3,1 UV-I 609 W/m 15,3 C 33,3 C 22,5 km/h (4 Bft) 97,87 %
08.08.2018 16:06 33,2 C 27,2 C 42,2 C 34 % 1011,1 hPa 0,0 l/m 15,0 km/h (3 Bft) W-SW 246 2 min 0,000 mm 3,0 UV-I 595 W/m 15,2 C 33,2 C 19,3 km/h (3 Bft) 95,74 %
08.08.2018 16:08 33,1 C 27,2 C 41,7 C 34 % 1011,0 hPa 0,0 l/m 10,0 km/h (2 Bft) W-NW 300 2 min 0,000 mm 2,9 UV-I 588 W/m 15,1 C 33,1 C 16,1 km/h (3 Bft) 97,87 %
08.08.2018 16:10 33,3 C 27,2 C 42,2 C 34 % 1011,0 hPa 0,0 l/m 10,3 km/h (2 Bft) W-SW 252 2 min 0,000 mm 2,9 UV-I 586 W/m 15,3 C 33,3 C 14,5 km/h (3 Bft) 100,00 %
08.08.2018 16:12 33,2 C 27,2 C 42,8 C 35 % 1011,0 hPa 0,0 l/m 10,2 km/h (2 Bft) S-SW 205 2 min 0,000 mm 2,9 UV-I 591 W/m 15,6 C 33,2 C 14,5 km/h (3 Bft) 100,00 %
08.08.2018 16:14 33,1 C 27,2 C 42,8 C 35 % 1010,9 hPa 0,0 l/m 7,6 km/h (2 Bft) S-SW 204 2 min 0,000 mm 2,8 UV-I 583 W/m 15,6 C 33,1 C 11,3 km/h (2 Bft) 100,00 %
08.08.2018 16:16 33,1 C 27,2 C 42,8 C 35 % 1010,9 hPa 0,0 l/m 10,0 km/h (2 Bft) SW 232 2 min 0,000 mm 2,7 UV-I 569 W/m 15,6 C 33,1 C 16,1 km/h (3 Bft) 97,87 %
08.08.2018 16:18 33,2 C 27,2 C 43,3 C 35 % 1010,9 hPa 0,0 l/m 8,8 km/h (2 Bft) W-SW 241 2 min 0,000 mm 2,7 UV-I 570 W/m 15,6 C 33,2 C 14,5 km/h (3 Bft) 97,87 %
08.08.2018 16:20 33,1 C 27,2 C 43,9 C 35 % 1010,9 hPa 0,0 l/m 2,5 km/h (1 Bft) W-SW 243 2 min 0,000 mm 2,7 UV-I 564 W/m 15,6 C 33,1 C 4,8 km/h (1 Bft) 95,74 %
08.08.2018 16:22 33,1 C 27,2 C 43,9 C 36 % 1010,9 hPa 0,0 l/m 2,5 km/h (1 Bft) W-NW 286 2 min 0,000 mm 2,6 UV-I 562 W/m 16,0 C 33,1 C 4,8 km/h (1 Bft) 94,00 %
08.08.2018 16:24 33,3 C 27,2 C 44,4 C 35 % 1010,8 hPa 0,0 l/m 4,6 km/h (1 Bft) W 262 2 min 0,000 mm 2,6 UV-I 565 W/m 15,7 C 33,3 C 11,3 km/h (2 Bft) 94,00 %
08.08.2018 16:26 33,3 C 27,2 C 43,9 C 34 % 1010,8 hPa 0,0 l/m 9,7 km/h (2 Bft) W 281 2 min 0,000 mm 2,6 UV-I 563 W/m 15,3 C 33,3 C 14,5 km/h (3 Bft) 97,22 %
08.08.2018 16:28 33,3 C 27,2 C 42,8 C 35 % 1010,8 hPa 0,0 l/m 11,2 km/h (2 Bft) W-NW 287 2 min 0,000 mm 2,5 UV-I 541 W/m 15,7 C 33,3 C 16,1 km/h (3 Bft) 96,00 %
08.08.2018 16:30 33,2 C 27,2 C 42,2 C 35 % 1010,8 hPa 0,0 l/m 11,3 km/h (2 Bft) W 271 2 min 0,000 mm 2,4 UV-I 545 W/m 15,6 C 33,2 C 16,1 km/h (3 Bft) 97,87 %
08.08.2018 16:32 33,2 C 27,2 C 41,7 C 36 % 1010,8 hPa 0,0 l/m 15,6 km/h (3 Bft) W 260 2 min 0,000 mm 2,4 UV-I 552 W/m 16,1 C 33,2 C 20,9 km/h (4 Bft) 96,23 %
08.08.2018 16:34 33,1 C 27,2 C 41,1 C 35 % 1010,7 hPa 0,0 l/m 15,2 km/h (3 Bft) W 261 2 min 0,000 mm 2,3 UV-I 496 W/m 15,6 C 33,1 C 20,9 km/h (4 Bft) 97,87 %
08.08.2018 16:36 32,9 C 27,2 C 41,1 C 35 % 1010,6 hPa 0,0 l/m 8,4 km/h (2 Bft) W-NW 286 2 min 0,000 mm 2,3 UV-I 513 W/m 15,4 C 32,9 C 14,5 km/h (3 Bft) 97,87 %
08.08.2018 16:38 32,8 C 27,2 C 41,7 C 36 % 1010,7 hPa 0,0 l/m 7,5 km/h (2 Bft) W 265 2 min 0,000 mm 2,2 UV-I 508 W/m 15,7 C 32,8 C 14,5 km/h (3 Bft) 93,62 %
08.08.2018 16:40 32,7 C 27,2 C 41,1 C 36 % 1010,7 hPa 0,0 l/m 6,2 km/h (2 Bft) W-NW 290 2 min 0,000 mm 2,2 UV-I 477 W/m 15,6 C 32,7 C 11,3 km/h (2 Bft) 96,00 %
08.08.2018 16:42 32,8 C 27,2 C 41,1 C 36 % 1010,7 hPa 0,0 l/m 12,8 km/h (3 Bft) W 259 2 min 0,000 mm 2,2 UV-I 521 W/m 15,7 C 32,8 C 20,9 km/h (4 Bft) 97,87 %
08.08.2018 16:44 32,9 C 27,2 C 41,7 C 35 % 1010,8 hPa 0,0 l/m 12,5 km/h (3 Bft) W 268 2 min 0,000 mm 2,2 UV-I 541 W/m 15,4 C 32,9 C 19,3 km/h (3 Bft) 93,62 %
08.08.2018 16:46 32,9 C 27,2 C 41,1 C 35 % 1010,8 hPa 0,0 l/m 7,2 km/h (2 Bft) W-SW 257 2 min 0,000 mm 2,0 UV-I 472 W/m 15,4 C 32,9 C 12,9 km/h (3 Bft) 95,74 %
08.08.2018 16:48 32,8 C 27,2 C 41,7 C 36 % 1010,8 hPa 0,0 l/m 7,8 km/h (2 Bft) W-SW 243 2 min 0,000 mm 2,0 UV-I 496 W/m 15,7 C 32,8 C 17,7 km/h (3 Bft) 100,00 %
08.08.2018 16:50 32,8 C 27,2 C 39,4 C 36 % 1010,8 hPa 0,0 l/m 12,6 km/h (3 Bft) W-SW 238 2 min 0,000 mm 1,8 UV-I 387 W/m 15,7 C 32,8 C 17,7 km/h (3 Bft) 97,87 %
08.08.2018 16:52 32,7 C 27,2 C 39,4 C 36 % 1010,8 hPa 0,0 l/m 6,5 km/h (2 Bft) W-SW 254 2 min 0,000 mm 1,7 UV-I 320 W/m 15,6 C 32,7 C 11,3 km/h (2 Bft) 93,62 %
08.08.2018 16:54 32,7 C 27,2 C 39,4 C 37 % 1010,9 hPa 0,0 l/m 6,0 km/h (2 Bft) SW 236 2 min 0,000 mm 1,8 UV-I 429 W/m 16,1 C 32,7 C 11,3 km/h (2 Bft) 93,62 %
08.08.2018 16:56 32,8 C 27,2 C 40,0 C 37 % 1010,9 hPa 0,0 l/m 5,6 km/h (1 Bft) W 266 2 min 0,000 mm 1,8 UV-I 439 W/m 16,2 C 32,8 C 9,7 km/h (2 Bft) 96,00 %
08.08.2018 16:58 32,9 C 27,2 C 40,6 C 37 % 1010,9 hPa 0,0 l/m 7,6 km/h (2 Bft) W-SW 248 2 min 0,000 mm 1,8 UV-I 445 W/m 16,2 C 32,9 C 12,9 km/h (3 Bft) 95,74 %
08.08.2018 17:00 32,9 C 27,2 C 41,1 C 37 % 1010,8 hPa 0,0 l/m 7,1 km/h (2 Bft) W-SW 251 2 min 0,483 mm 1,8 UV-I 480 W/m 16,2 C 32,9 C 11,3 km/h (2 Bft) 91,67 %
08.08.2018 17:02 32,8 C 27,2 C 41,7 C 37 % 1010,8 hPa 0,0 l/m 5,1 km/h (1 Bft) W-SW 244 2 min 0,000 mm 1,8 UV-I 479 W/m 16,2 C 32,8 C 6,4 km/h (2 Bft) 95,74 %
08.08.2018 17:04 32,8 C 27,2 C 40,6 C 37 % 1010,8 hPa 0,0 l/m 4,1 km/h (1 Bft) NW 325 2 min 0,000 mm 1,6 UV-I 435 W/m 16,2 C 32,8 C 8,0 km/h (2 Bft) 96,00 %
08.08.2018 17:06 32,9 C 27,2 C 40,0 C 38 % 1010,8 hPa 0,0 l/m 6,3 km/h (2 Bft) W-SW 254 0 min 0,000 mm 1,5 UV-I 289 W/m 16,7 C 32,9 C 12,9 km/h (3 Bft) 97,87 %
08.08.2018 17:08 32,8 C 27,2 C 40,0 C 36 % 1010,8 hPa 0,0 l/m 6,0 km/h (2 Bft) W-SW 253 2 min 0,000 mm 1,5 UV-I 380 W/m 15,7 C 32,8 C 11,3 km/h (2 Bft) 97,87 %
08.08.2018 17:10 32,6 C 27,2 C 38,3 C 37 % 1010,8 hPa 0,0 l/m 10,0 km/h (2 Bft) W-SW 238 0 min 0,000 mm 1,3 UV-I 248 W/m 16,0 C 32,6 C 16,1 km/h (3 Bft) 96,00 %
08.08.2018 17:12 32,6 C 27,2 C 37,8 C 37 % 1010,8 hPa 0,0 l/m 8,3 km/h (2 Bft) S-SW 202 0 min 0,000 mm 1,2 UV-I 217 W/m 16,0 C 32,6 C 11,3 km/h (2 Bft) 95,74 %
08.08.2018 17:14 32,3 C 27,2 C 37,2 C 37 % 1010,8 hPa 0,0 l/m 10,0 km/h (2 Bft) SW 234 0 min 0,000 mm 1,2 UV-I 233 W/m 15,7 C 32,2 C 12,9 km/h (3 Bft) 91,43 %
08.08.2018 17:16 32,2 C 27,2 C 36,1 C 37 % 1010,8 hPa 0,0 l/m 9,5 km/h (2 Bft) W-SW 247 0 min 0,000 mm 1,1 UV-I 191 W/m 15,6 C 32,1 C 12,9 km/h (3 Bft) 96,00 %
08.08.2018 17:18 32,2 C 27,2 C 35,6 C 37 % 1010,8 hPa 0,0 l/m 10,8 km/h (2 Bft) W 277 0 min 0,000 mm 1,1 UV-I 206 W/m 15,6 C 32,1 C 14,5 km/h (3 Bft) 92,00 %
08.08.2018 17:20 32,1 C 27,2 C 35,0 C 38 % 1010,8 hPa 0,0 l/m 14,3 km/h (3 Bft) W 269 0 min 0,000 mm 1,1 UV-I 239 W/m 16,0 C 31,9 C 20,9 km/h (4 Bft) 93,62 %
08.08.2018 17:22 32,1 C 27,2 C 35,6 C 38 % 1010,8 hPa 0,0 l/m 12,5 km/h (3 Bft) W-SW 252 2 min 0,000 mm 1,2 UV-I 294 W/m 16,0 C 32,0 C 16,1 km/h (3 Bft) 97,87 %
08.08.2018 17:24 32,1 C 27,2 C 35,6 C 38 % 1010,8 hPa 0,0 l/m 8,7 km/h (2 Bft) W 265 2 min 0,000 mm 1,2 UV-I 273 W/m 16,0 C 32,0 C 16,1 km/h (3 Bft) 97,87 %
08.08.2018 17:26 32,1 C 27,2 C 36,1 C 38 % 1010,9 hPa 0,0 l/m 8,1 km/h (2 Bft) W 269 2 min 0,000 mm 1,2 UV-I 318 W/m 16,0 C 32,1 C 12,9 km/h (3 Bft) 97,87 %
08.08.2018 17:28 32,0 C 27,2 C 36,7 C 37 % 1010,8 hPa 0,0 l/m 4,7 km/h (1 Bft) W-NW 299 2 min 0,000 mm 1,2 UV-I 267 W/m 15,5 C 32,0 C 9,7 km/h (2 Bft) 97,87 %
08.08.2018 17:30 32,1 C 27,2 C 37,2 C 38 % 1010,8 hPa 0,0 l/m 3,6 km/h (1 Bft) W 275 2 min 0,000 mm 1,1 UV-I 274 W/m 16,0 C 32,1 C 4,8 km/h (1 Bft) 95,74 %
08.08.2018 17:32 32,1 C 27,2 C 36,7 C 37 % 1010,8 hPa 0,0 l/m 5,6 km/h (1 Bft) W 275 0 min 0,000 mm 1,0 UV-I 237 W/m 15,5 C 32,1 C 11,3 km/h (2 Bft) 95,74 %
08.08.2018 17:34 32,0 C 27,2 C 36,1 C 37 % 1010,8 hPa 0,0 l/m 5,1 km/h (1 Bft) W-SW 248 0 min 0,000 mm 1,0 UV-I 233 W/m 15,5 C 32,0 C 6,4 km/h (2 Bft) 91,49 %
08.08.2018 17:36 32,0 C 27,2 C 36,1 C 38 % 1010,7 hPa 0,0 l/m 3,8 km/h (1 Bft) N-NW 334 0 min 0,000 mm 0,9 UV-I 214 W/m 15,9 C 32,0 C 8,0 km/h (2 Bft) 97,87 %
08.08.2018 17:38 31,9 C 27,2 C 35,6 C 38 % 1010,7 hPa 0,0 l/m 2,0 km/h (1 Bft) S-SW 213 0 min 0,000 mm 0,9 UV-I 187 W/m 15,8 C 31,9 C 6,4 km/h (2 Bft) 97,87 %
08.08.2018 17:40 31,8 C 27,2 C 35,0 C 38 % 1010,8 hPa 0,0 l/m 3,8 km/h (1 Bft) W 276 0 min 0,000 mm 0,9 UV-I 189 W/m 15,7 C 31,8 C 8,0 km/h (2 Bft) 97,87 %
08.08.2018 17:42 31,8 C 27,2 C 35,0 C 38 % 1010,8 hPa 0,0 l/m 4,5 km/h (1 Bft) W 279 0 min 0,000 mm 0,9 UV-I 192 W/m 15,7 C 31,8 C 9,7 km/h (2 Bft) 94,87 %
08.08.2018 17:44 31,8 C 27,2 C 35,0 C 38 % 1010,8 hPa 0,0 l/m 5,9 km/h (2 Bft) W-NW 290 0 min 0,000 mm 0,8 UV-I 197 W/m 15,7 C 31,8 C 9,7 km/h (2 Bft) 95,74 %
08.08.2018 17:46 31,8 C 27,2 C 35,0 C 39 % 1010,8 hPa 0,0 l/m 7,9 km/h (2 Bft) W 259 0 min 0,000 mm 0,8 UV-I 226 W/m 16,1 C 31,7 C 12,9 km/h (3 Bft) 96,00 %
08.08.2018 17:48 31,8 C 27,2 C 35,0 C 38 % 1010,8 hPa 0,0 l/m 6,5 km/h (2 Bft) W-SW 237 2 min 0,000 mm 0,8 UV-I 236 W/m 15,7 C 31,8 C 9,7 km/h (2 Bft) 100,00 %
08.08.2018 17:50 31,8 C 27,2 C 35,0 C 38 % 1010,8 hPa 0,0 l/m 6,1 km/h (2 Bft) W-SW 246 0 min 0,000 mm 0,8 UV-I 205 W/m 15,7 C 31,8 C 12,9 km/h (3 Bft) 100,00 %
08.08.2018 17:52 31,8 C 27,2 C 34,4 C 39 % 1010,9 hPa 0,0 l/m 7,0 km/h (2 Bft) W-SW 258 0 min 0,000 mm 0,8 UV-I 191 W/m 16,1 C 31,8 C 11,3 km/h (2 Bft) 100,00 %
08.08.2018 17:54 31,8 C 27,2 C 34,4 C 39 % 1010,8 hPa 0,0 l/m 7,3 km/h (2 Bft) W 267 0 min 0,000 mm 0,8 UV-I 182 W/m 16,1 C 31,8 C 9,7 km/h (2 Bft) 97,87 %
08.08.2018 17:56 31,7 C 27,2 C 33,9 C 39 % 1010,8 hPa 0,0 l/m 6,3 km/h (2 Bft) W 271 0 min 0,000 mm 0,7 UV-I 181 W/m 16,0 C 31,7 C 11,3 km/h (2 Bft) 100,00 %
08.08.2018 17:58 31,6 C 27,2 C 33,9 C 39 % 1010,8 hPa 0,0 l/m 3,6 km/h (1 Bft) W 271 0 min 0,000 mm 0,7 UV-I 181 W/m 15,9 C 31,6 C 6,4 km/h (2 Bft) 100,00 %
08.08.2018 18:00 31,6 C 27,2 C 33,9 C 38 % 1010,8 hPa 0,0 l/m 5,8 km/h (2 Bft) W 269 0 min 0,000 mm 0,7 UV-I 184 W/m 15,5 C 31,6 C 11,3 km/h (2 Bft) 100,00 %
08.08.2018 18:02 31,6 C 27,2 C 33,3 C 39 % 1010,8 hPa 0,0 l/m 4,9 km/h (1 Bft) SW 217 0 min 0,254 mm 0,7 UV-I 185 W/m 15,9 C 31,6 C 8,0 km/h (2 Bft) 96,08 %
08.08.2018 18:04 31,6 C 27,2 C 33,9 C 39 % 1010,8 hPa 0,0 l/m 5,2 km/h (1 Bft) W 259 0 min 0,000 mm 0,7 UV-I 186 W/m 15,9 C 31,6 C 8,0 km/h (2 Bft) 100,00 %
08.08.2018 18:06 31,6 C 27,2 C 33,9 C 39 % 1010,9 hPa 0,0 l/m 3,9 km/h (1 Bft) W-SW 246 0 min 0,000 mm 0,7 UV-I 188 W/m 15,9 C 31,6 C 4,8 km/h (1 Bft) 100,00 %
08.08.2018 18:08 31,6 C 27,2 C 33,9 C 38 % 1010,9 hPa 0,0 l/m 2,9 km/h (1 Bft) W-SW 244 0 min 0,000 mm 0,7 UV-I 187 W/m 15,5 C 31,6 C 6,4 km/h (2 Bft) 100,00 %
08.08.2018 18:10 31,7 C 27,2 C 33,9 C 39 % 1011,0 hPa 0,0 l/m 4,6 km/h (1 Bft) S-SW 209 0 min 0,000 mm 0,6 UV-I 184 W/m 16,0 C 31,7 C 8,0 km/h (2 Bft) 100,00 %
08.08.2018 18:12 31,6 C 27,2 C 33,9 C 40 % 1011,0 hPa 0,0 l/m 5,1 km/h (1 Bft) S 191 0 min 0,000 mm 0,6 UV-I 181 W/m 16,3 C 31,6 C 8,0 km/h (2 Bft) 100,00 %
08.08.2018 18:14 31,5 C 27,2 C 33,9 C 40 % 1011,0 hPa 0,0 l/m 4,5 km/h (1 Bft) S-SW 210 0 min 0,000 mm 0,6 UV-I 178 W/m 16,2 C 31,5 C 8,0 km/h (2 Bft) 100,00 %
08.08.2018 18:16 31,4 C 27,2 C 33,9 C 40 % 1011,0 hPa 0,0 l/m 4,3 km/h (1 Bft) S 184 0 min 0,000 mm 0,6 UV-I 179 W/m 16,1 C 31,4 C 6,4 km/h (2 Bft) 100,00 %
08.08.2018 18:18 31,4 C 27,2 C 33,9 C 40 % 1011,0 hPa 0,0 l/m 3,5 km/h (1 Bft) S-SW 207 0 min 0,000 mm 0,5 UV-I 182 W/m 16,1 C 31,4 C 6,4 km/h (2 Bft) 100,00 %
08.08.2018 18:20 31,4 C 27,2 C 33,9 C 41 % 1011,0 hPa 0,0 l/m 5,0 km/h (1 Bft) S-SW 194 0 min 0,000 mm 0,5 UV-I 182 W/m 16,5 C 31,4 C 9,7 km/h (2 Bft) 100,00 %
08.08.2018 18:22 31,4 C 27,2 C 33,9 C 40 % 1011,1 hPa 0,0 l/m 5,9 km/h (2 Bft) S-SW 202 0 min 0,000 mm 0,5 UV-I 182 W/m 16,1 C 31,4 C 8,0 km/h (2 Bft) 97,87 %
08.08.2018 18:24 31,4 C 27,2 C 33,9 C 40 % 1011,1 hPa 0,0 l/m 4,0 km/h (1 Bft) S-SW 202 2 min 0,000 mm 0,5 UV-I 187 W/m 16,1 C 31,4 C 6,4 km/h (2 Bft) 97,87 %
08.08.2018 18:26 31,4 C 27,2 C 34,4 C 40 % 1011,1 hPa 0,0 l/m 2,8 km/h (1 Bft) S-SW 202 2 min 0,000 mm 0,5 UV-I 226 W/m 16,1 C 31,4 C 4,8 km/h (1 Bft) 100,00 %
08.08.2018 18:28 31,5 C 27,2 C 35,6 C 40 % 1011,1 hPa 0,0 l/m 3,5 km/h (1 Bft) S-SW 202 2 min 0,000 mm 0,5 UV-I 262 W/m 16,2 C 31,5 C 6,4 km/h (2 Bft) 100,00 %
08.08.2018 18:30 31,6 C 27,2 C 36,1 C 40 % 1011,1 hPa 0,0 l/m 2,4 km/h (1 Bft) S-SW 202 2 min 0,000 mm 0,5 UV-I 230 W/m 16,3 C 31,6 C 4,8 km/h (1 Bft) 97,87 %
08.08.2018 18:32 31,7 C 27,2 C 36,1 C 39 % 1011,1 hPa 0,0 l/m 4,7 km/h (1 Bft) S 182 2 min 0,000 mm 0,5 UV-I 217 W/m 16,0 C 31,7 C 6,4 km/h (2 Bft) 100,00 %
08.08.2018 18:34 31,7 C 27,2 C 35,6 C 39 % 1011,1 hPa 0,0 l/m 4,5 km/h (1 Bft) S-SW 192 2 min 0,000 mm 0,5 UV-I 210 W/m 16,0 C 31,7 C 6,4 km/h (2 Bft) 97,87 %
08.08.2018 18:36 31,7 C 27,2 C 35,6 C 40 % 1011,1 hPa 0,0 l/m 4,3 km/h (1 Bft) S-SW 211 2 min 0,000 mm 0,5 UV-I 211 W/m 16,4 C 31,7 C 8,0 km/h (2 Bft) 97,87 %
08.08.2018 18:38 31,7 C 27,2 C 36,1 C 40 % 1011,0 hPa 0,0 l/m 4,9 km/h (1 Bft) S-SW 210 2 min 0,000 mm 0,5 UV-I 214 W/m 16,4 C 31,7 C 8,0 km/h (2 Bft) 97,87 %
08.08.2018 18:40 31,7 C 27,2 C 35,6 C 40 % 1011,0 hPa 0,0 l/m 5,0 km/h (1 Bft) S-SW 204 2 min 0,000 mm 0,5 UV-I 213 W/m 16,4 C 31,7 C 8,0 km/h (2 Bft) 97,87 %
08.08.2018 18:42 31,7 C 27,2 C 35,6 C 40 % 1011,0 hPa 0,0 l/m 3,5 km/h (1 Bft) S-SW 212 2 min 0,000 mm 0,5 UV-I 212 W/m 16,4 C 31,7 C 4,8 km/h (1 Bft) 98,00 %
08.08.2018 18:44 31,7 C 27,2 C 36,1 C 41 % 1011,0 hPa 0,0 l/m 4,9 km/h (1 Bft) S-SW 196 2 min 0,000 mm 0,3 UV-I 197 W/m 16,8 C 31,7 C 8,0 km/h (2 Bft) 95,74 %
08.08.2018 18:46 31,7 C 27,2 C 35,6 C 40 % 1011,0 hPa 0,0 l/m 3,5 km/h (1 Bft) SW 223 2 min 0,000 mm 0,0 UV-I 178 W/m 16,4 C 31,7 C 6,4 km/h (2 Bft) 94,74 %
08.08.2018 18:48 31,6 C 27,2 C 35,0 C 41 % 1011,1 hPa 0,0 l/m 4,6 km/h (1 Bft) SW 221 2 min 0,000 mm 0,0 UV-I 163 W/m 16,7 C 31,6 C 6,4 km/h (2 Bft) 96,00 %
08.08.2018 18:50 31,6 C 27,2 C 35,0 C 41 % 1011,1 hPa 0,0 l/m 3,0 km/h (1 Bft) SW 220 2 min 0,000 mm 0,0 UV-I 154 W/m 16,7 C 31,6 C 4,8 km/h (1 Bft) 94,00 %
08.08.2018 18:52 31,6 C 27,2 C 34,4 C 41 % 1011,1 hPa 0,0 l/m 5,5 km/h (1 Bft) S 181 2 min 0,000 mm 0,0 UV-I 144 W/m 16,7 C 31,6 C 9,7 km/h (2 Bft) 93,62 %
08.08.2018 18:54 31,6 C 27,2 C 33,9 C 39 % 1011,1 hPa 0,0 l/m 6,0 km/h (2 Bft) S 183 0 min 0,000 mm 0,0 UV-I 121 W/m 15,9 C 31,6 C 9,7 km/h (2 Bft) 100,00 %
08.08.2018 18:56 31,5 C 27,2 C 33,3 C 40 % 1011,1 hPa 0,0 l/m 5,0 km/h (1 Bft) S 187 0 min 0,000 mm 0,0 UV-I 110 W/m 16,2 C 31,5 C 8,0 km/h (2 Bft) 97,14 %
08.08.2018 18:58 31,4 C 27,2 C 32,8 C 40 % 1011,1 hPa 0,0 l/m 4,8 km/h (1 Bft) S-SW 205 0 min 0,000 mm 0,0 UV-I 110 W/m 16,1 C 31,4 C 8,0 km/h (2 Bft) 96,77 %
08.08.2018 19:00 31,3 C 27,2 C 32,8 C 40 % 1011,2 hPa 0,0 l/m 4,1 km/h (1 Bft) S 190 0 min 0,177 mm 0,0 UV-I 113 W/m 16,1 C 31,3 C 6,4 km/h (2 Bft) 97,87 %
08.08.2018 19:02 31,3 C 27,2 C 32,8 C 40 % 1011,3 hPa 0,0 l/m 7,0 km/h (2 Bft) S 180 0 min 0,000 mm 0,0 UV-I 116 W/m 16,1 C 31,3 C 9,7 km/h (2 Bft) 100,00 %
08.08.2018 19:04 31,3 C 27,2 C 32,8 C 41 % 1011,3 hPa 0,0 l/m 7,6 km/h (2 Bft) S-SW 205 0 min 0,000 mm 0,0 UV-I 113 W/m 16,4 C 31,2 C 11,3 km/h (2 Bft) 96,00 %
08.08.2018 19:06 31,3 C 27,2 C 32,8 C 41 % 1011,4 hPa 0,0 l/m 6,9 km/h (2 Bft) S-SW 198 0 min 0,000 mm 0,0 UV-I 109 W/m 16,4 C 31,3 C 11,3 km/h (2 Bft) 97,56 %
08.08.2018 19:08 31,2 C 27,2 C 32,2 C 41 % 1011,4 hPa 0,0 l/m 4,7 km/h (1 Bft) SW 221 0 min 0,000 mm 0,0 UV-I 111 W/m 16,4 C 31,2 C 8,0 km/h (2 Bft) 97,87 %
08.08.2018 19:10 31,2 C 27,2 C 32,2 C 40 % 1011,4 hPa 0,0 l/m 11,7 km/h (2 Bft) S 177 0 min 0,000 mm 0,0 UV-I 110 W/m 16,0 C 30,9 C 24,1 km/h (4 Bft) 95,74 %
08.08.2018 19:12 31,0 C 27,2 C 31,7 C 41 % 1011,4 hPa 0,0 l/m 14,8 km/h (3 Bft) SW 214 2 min 0,000 mm 0,0 UV-I 116 W/m 16,2 C 30,6 C 24,1 km/h (4 Bft) 97,87 %
08.08.2018 19:14 30,7 C 27,2 C 31,7 C 41 % 1011,4 hPa 0,0 l/m 14,0 km/h (3 Bft) S 173 2 min 0,000 mm 0,0 UV-I 124 W/m 15,9 C 30,3 C 20,9 km/h (4 Bft) 98,00 %
08.08.2018 19:16 30,5 C 27,2 C 31,1 C 39 % 1011,4 hPa 0,0 l/m 15,3 km/h (3 Bft) S-SO 157 2 min 0,000 mm 0,0 UV-I 129 W/m 15,0 C 30,0 C 25,7 km/h (4 Bft) 95,74 %
08.08.2018 19:18 30,3 C 27,2 C 31,1 C 40 % 1011,4 hPa 0,0 l/m 13,7 km/h (3 Bft) SO 132 2 min 0,000 mm 0,0 UV-I 129 W/m 15,2 C 29,8 C 25,7 km/h (4 Bft) 95,74 %
08.08.2018 19:20 30,2 C 27,2 C 31,1 C 40 % 1011,4 hPa 0,0 l/m 15,0 km/h (3 Bft) S 169 2 min 0,000 mm 0,0 UV-I 119 W/m 15,1 C 29,6 C 24,1 km/h (4 Bft) 95,74 %
08.08.2018 19:22 30,0 C 27,2 C 30,6 C 39 % 1011,4 hPa 0,0 l/m 17,8 km/h (3 Bft) S-SO 165 2 min 0,000 mm 0,0 UV-I 106 W/m 14,5 C 29,2 C 27,4 km/h (4 Bft) 97,87 %
08.08.2018 19:24 29,8 C 27,2 C 30,6 C 40 % 1011,5 hPa 0,0 l/m 14,2 km/h (3 Bft) S 190 2 min 0,000 mm 0,0 UV-I 92 W/m 14,7 C 29,2 C 20,9 km/h (4 Bft) 92,00 %
08.08.2018 19:26 29,6 C 27,2 C 30,0 C 40 % 1011,5 hPa 0,0 l/m 17,7 km/h (3 Bft) S 171 0 min 0,000 mm 0,0 UV-I 80 W/m 14,5 C 28,7 C 30,6 km/h (5 Bft) 97,22 %
08.08.2018 19:28 29,4 C 27,2 C 30,0 C 41 % 1011,5 hPa 0,0 l/m 15,0 km/h (3 Bft) S 182 0 min 0,000 mm 0,0 UV-I 73 W/m 14,7 C 28,6 C 24,1 km/h (4 Bft) 98,00 %
08.08.2018 19:30 29,3 C 27,2 C 29,4 C 41 % 1011,5 hPa 0,0 l/m 16,3 km/h (3 Bft) S-SO 167 0 min 0,000 mm 0,0 UV-I 69 W/m 14,7 C 28,4 C 25,7 km/h (4 Bft) 98,00 %
08.08.2018 19:32 29,2 C 27,2 C 29,4 C 42 % 1011,5 hPa 0,0 l/m 12,8 km/h (3 Bft) S 180 0 min 0,000 mm 0,0 UV-I 67 W/m 14,9 C 28,6 C 17,7 km/h (3 Bft) 96,00 %
08.08.2018 19:34 29,1 C 27,2 C 29,4 C 43 % 1011,5 hPa 0,0 l/m 12,0 km/h (2 Bft) S 169 0 min 0,000 mm 0,0 UV-I 63 W/m 15,2 C 28,5 C 17,7 km/h (3 Bft) 95,74 %
08.08.2018 19:36 28,8 C 27,2 C 28,9 C 43 % 1011,5 hPa 0,0 l/m 17,0 km/h (3 Bft) S-SO 153 0 min 0,000 mm 0,0 UV-I 55 W/m 15,0 C 27,8 C 22,5 km/h (4 Bft) 95,74 %
08.08.2018 19:38 28,7 C 27,2 C 28,9 C 44 % 1011,4 hPa 0,0 l/m 13,3 km/h (3 Bft) S-SO 157 0 min 0,000 mm 0,0 UV-I 50 W/m 15,2 C 27,9 C 20,9 km/h (4 Bft) 100,00 %
08.08.2018 19:40 28,6 C 27,2 C 28,9 C 44 % 1011,5 hPa 0,0 l/m 11,0 km/h (2 Bft) S-SW 209 0 min 0,000 mm 0,0 UV-I 44 W/m 15,1 C 28,0 C 16,1 km/h (3 Bft) 94,00 %
08.08.2018 19:42 28,5 C 27,2 C 28,9 C 44 % 1011,5 hPa 0,0 l/m 11,4 km/h (2 Bft) S 172 0 min 0,000 mm 0,0 UV-I 38 W/m 15,0 C 27,9 C 22,5 km/h (4 Bft) 95,74 %
08.08.2018 19:44 28,4 C 27,2 C 28,3 C 45 % 1011,4 hPa 0,0 l/m 14,8 km/h (3 Bft) S 175 0 min 0,000 mm 0,0 UV-I 34 W/m 15,3 C 27,4 C 22,5 km/h (4 Bft) 95,74 %
08.08.2018 19:46 28,3 C 27,2 C 28,3 C 45 % 1011,4 hPa 0,0 l/m 13,9 km/h (3 Bft) S 189 0 min 0,000 mm 0,0 UV-I 30 W/m 15,2 C 27,4 C 22,5 km/h (4 Bft) 98,00 %
08.08.2018 19:48 28,2 C 27,2 C 28,3 C 46 % 1011,4 hPa 0,0 l/m 13,3 km/h (3 Bft) S 190 0 min 0,000 mm 0,0 UV-I 25 W/m 15,5 C 27,3 C 24,1 km/h (4 Bft) 96,00 %
08.08.2018 19:50 28,1 C 27,2 C 27,8 C 46 % 1011,4 hPa 0,0 l/m 13,2 km/h (3 Bft) S-SW 196 0 min 0,000 mm 0,0 UV-I 23 W/m 15,4 C 27,2 C 20,9 km/h (4 Bft) 97,37 %
08.08.2018 19:52 28,1 C 27,2 C 27,8 C 46 % 1011,4 hPa 0,0 l/m 11,7 km/h (2 Bft) SW 222 0 min 0,000 mm 0,0 UV-I 20 W/m 15,4 C 27,4 C 17,7 km/h (3 Bft) 97,87 %
08.08.2018 19:54 27,9 C 27,2 C 27,8 C 46 % 1011,4 hPa 0,0 l/m 11,7 km/h (2 Bft) S-SO 163 0 min 0,000 mm 0,0 UV-I 18 W/m 15,2 C 27,2 C 20,9 km/h (4 Bft) 95,74 %
08.08.2018 19:56 27,9 C 27,2 C 27,8 C 47 % 1011,5 hPa 0,0 l/m 11,3 km/h (2 Bft) SW 234 0 min 0,000 mm 0,0 UV-I 17 W/m 15,5 C 27,2 C 19,3 km/h (3 Bft) 97,87 %
08.08.2018 19:59 27,8 C 27,2 C 27,2 C 47 % 1011,5 hPa 0,0 l/m 10,9 km/h (2 Bft) W-SW 239 0 min 0,000 mm 0,0 UV-I 15 W/m 15,4 C 27,1 C 16,1 km/h (3 Bft) 97,18 %
08.08.2018 20:00 27,7 C 27,2 C 27,2 C 47 % 1011,5 hPa 0,0 l/m 9,0 km/h (2 Bft) SW 221 0 min 0,000 mm 0,0 UV-I 14 W/m 15,3 C 27,3 C 14,5 km/h (3 Bft) 96,15 %
08.08.2018 20:02 27,7 C 27,2 C 27,2 C 47 % 1011,5 hPa 0,0 l/m 9,4 km/h (2 Bft) S-SW 206 0 min 0,178 mm 0,0 UV-I 12 W/m 15,3 C 27,2 C 16,1 km/h (3 Bft) 95,74 %
08.08.2018 20:04 27,6 C 27,2 C 27,2 C 47 % 1011,5 hPa 0,0 l/m 10,9 km/h (2 Bft) S-SW 211 0 min 0,000 mm 0,0 UV-I 12 W/m 15,3 C 26,9 C 17,7 km/h (3 Bft) 95,74 %
08.08.2018 20:06 27,4 C 27,2 C 27,2 C 46 % 1011,4 hPa 0,0 l/m 12,1 km/h (2 Bft) SW 227 0 min 0,000 mm 0,0 UV-I 11 W/m 14,7 C 26,5 C 20,9 km/h (4 Bft) 95,74 %
08.08.2018 20:08 27,3 C 27,2 C 26,7 C 46 % 1011,5 hPa 0,0 l/m 14,4 km/h (3 Bft) S-SO 166 0 min 0,000 mm 0,0 UV-I 11 W/m 14,6 C 26,2 C 22,5 km/h (4 Bft) 93,75 %
08.08.2018 20:10 27,2 C 27,2 C 26,7 C 47 % 1011,4 hPa 0,0 l/m 16,2 km/h (3 Bft) S-SW 205 0 min 0,000 mm 0,0 UV-I 10 W/m 14,9 C 25,8 C 24,1 km/h (4 Bft) 97,96 %
08.08.2018 20:12 27,0 C 27,2 C 26,7 C 48 % 1011,5 hPa 0,0 l/m 14,1 km/h (3 Bft) S-SW 206 0 min 0,000 mm 0,0 UV-I 9 W/m 15,0 C 25,8 C 20,9 km/h (4 Bft) 94,87 %
08.08.2018 20:14 26,8 C 27,2 C 26,7 C 48 % 1011,5 hPa 0,0 l/m 12,5 km/h (3 Bft) SW 223 0 min 0,000 mm 0,0 UV-I 9 W/m 14,9 C 25,8 C 19,3 km/h (3 Bft) 96,00 %
08.08.2018 20:16 26,6 C 27,2 C 26,1 C 49 % 1011,6 hPa 0,0 l/m 16,7 km/h (3 Bft) S-SW 201 0 min 0,000 mm 0,0 UV-I 9 W/m 15,0 C 25,1 C 27,4 km/h (4 Bft) 94,00 %
08.08.2018 20:18 26,3 C 27,2 C 26,1 C 50 % 1011,5 hPa 0,0 l/m 15,2 km/h (3 Bft) S 185 2 min 0,000 mm 0,0 UV-I 9 W/m 15,0 C 24,9 C 25,7 km/h (4 Bft) 93,62 %
08.08.2018 20:20 26,1 C 27,2 C 25,6 C 52 % 1011,6 hPa 0,0 l/m 14,3 km/h (3 Bft) S-SW 200 0 min 0,000 mm 0,0 UV-I 9 W/m 15,5 C 24,7 C 22,5 km/h (4 Bft) 93,62 %
08.08.2018 20:22 25,9 C 27,2 C 25,6 C 52 % 1011,6 hPa 0,0 l/m 18,8 km/h (3 Bft) S-SO 165 0 min 0,000 mm 0,0 UV-I 9 W/m 15,3 C 24,0 C 25,7 km/h (4 Bft) 87,23 %
08.08.2018 20:24 25,7 C 27,2 C 25,6 C 53 % 1011,6 hPa 0,0 l/m 13,1 km/h (3 Bft) S-SW 192 0 min 0,000 mm 0,0 UV-I 9 W/m 15,4 C 24,4 C 27,4 km/h (4 Bft) 91,49 %
08.08.2018 20:26 25,6 C 27,2 C 23,9 C 55 % 1011,6 hPa 0,0 l/m 18,2 km/h (3 Bft) S 188 0 min 0,000 mm 0,0 UV-I 9 W/m 15,9 C 23,6 C 30,6 km/h (5 Bft) 95,74 %
08.08.2018 20:28 25,4 C 27,2 C 23,3 C 56 % 1011,7 hPa 0,0 l/m 12,6 km/h (3 Bft) S 177 0 min 0,000 mm 0,0 UV-I 9 W/m 16,0 C 24,2 C 17,7 km/h (3 Bft) 95,74 %
08.08.2018 20:30 25,2 C 27,2 C 22,8 C 57 % 1011,7 hPa 0,0 l/m 14,0 km/h (3 Bft) S 186 0 min 0,000 mm 0,0 UV-I 9 W/m 16,1 C 23,7 C 20,9 km/h (4 Bft) 96,00 %
08.08.2018 20:32 24,9 C 27,2 C 22,2 C 58 % 1011,8 hPa 0,0 l/m 12,6 km/h (3 Bft) SW 215 0 min 0,000 mm 0,0 UV-I 6 W/m 16,1 C 23,6 C 22,5 km/h (4 Bft) 95,74 %
08.08.2018 20:34 24,7 C 27,2 C 22,2 C 59 % 1011,7 hPa 0,0 l/m 11,0 km/h (2 Bft) SW 222 0 min 0,000 mm 0,0 UV-I 5 W/m 16,1 C 23,6 C 19,3 km/h (3 Bft) 95,74 %
08.08.2018 20:36 24,4 C 27,2 C 22,2 C 61 % 1011,7 hPa 0,0 l/m 9,1 km/h (2 Bft) S-SO 166 0 min 0,000 mm 0,0 UV-I 5 W/m 16,4 C 23,7 C 14,5 km/h (3 Bft) 95,74 %
08.08.2018 20:38 24,2 C 27,2 C 22,2 C 62 % 1011,6 hPa 0,0 l/m 10,6 km/h (2 Bft) S 175 0 min 0,000 mm 0,0 UV-I 1 W/m 16,4 C 23,1 C 22,5 km/h (4 Bft) 95,74 %
08.08.2018 20:40 24,0 C 27,2 C 22,8 C 62 % 1011,7 hPa 0,0 l/m 13,8 km/h (3 Bft) SW 220 0 min 0,000 mm 0,0 UV-I 0 W/m 16,3 C 22,3 C 22,5 km/h (4 Bft) 97,22 %
08.08.2018 20:42 23,8 C 27,2 C 22,8 C 64 % 1011,7 hPa 0,0 l/m 9,5 km/h (2 Bft) SW 218 0 min 0,000 mm 0,0 UV-I 0 W/m 16,6 C 23,0 C 14,5 km/h (3 Bft) 95,74 %
08.08.2018 20:44 23,7 C 27,2 C 22,8 C 65 % 1011,7 hPa 0,0 l/m 8,3 km/h (2 Bft) S-SW 211 0 min 0,000 mm 0,0 UV-I 0 W/m 16,7 C 23,2 C 12,9 km/h (3 Bft) 100,00 %
08.08.2018 20:46 23,5 C 27,2 C 22,8 C 66 % 1011,7 hPa 0,0 l/m 12,0 km/h (2 Bft) S-SW 198 0 min 0,000 mm 0,0 UV-I 0 W/m 16,8 C 22,1 C 22,5 km/h (4 Bft) 97,87 %
08.08.2018 20:49 23,3 C 27,2 C 22,8 C 67 % 1011,8 hPa 0,0 l/m 12,9 km/h (3 Bft) W-SW 239 0 min 0,000 mm 0,0 UV-I 0 W/m 16,8 C 21,6 C 22,5 km/h (4 Bft) 100,00 %
08.08.2018 20:50 23,2 C 27,2 C 22,8 C 68 % 1011,8 hPa 0,0 l/m 4,8 km/h (1 Bft) S-SW 205 0 min 0,000 mm 0,0 UV-I 0 W/m 17,0 C 23,2 C 6,4 km/h (2 Bft) 100,00 %
08.08.2018 20:52 23,2 C 27,2 C 22,8 C 68 % 1011,8 hPa 0,0 l/m 9,6 km/h (2 Bft) S-SW 212 0 min 0,000 mm 0,0 UV-I 0 W/m 17,0 C 22,3 C 17,7 km/h (3 Bft) 100,00 %
08.08.2018 20:54 23,1 C 27,2 C 22,8 C 68 % 1011,8 hPa 0,0 l/m 10,6 km/h (2 Bft) S-SW 200 0 min 0,000 mm 0,0 UV-I 0 W/m 16,9 C 21,9 C 17,7 km/h (3 Bft) 100,00 %
08.08.2018 20:56 22,9 C 27,2 C 22,8 C 69 % 1012,0 hPa 0,0 l/m 8,7 km/h (2 Bft) SW 235 0 min 0,000 mm 0,0 UV-I 0 W/m 16,9 C 22,2 C 12,9 km/h (3 Bft) 95,74 %
08.08.2018 20:58 22,9 C 27,2 C 22,8 C 70 % 1012,0 hPa 0,0 l/m 9,7 km/h (2 Bft) W-SW 246 0 min 0,000 mm 0,0 UV-I 0 W/m 17,1 C 21,9 C 14,5 km/h (3 Bft) 98,11 %
08.08.2018 21:00 22,8 C 27,2 C 22,8 C 70 % 1012,2 hPa 0,0 l/m 14,6 km/h (3 Bft) SW 234 0 min 0,102 mm 0,0 UV-I 0 W/m 17,0 C 20,7 C 22,5 km/h (4 Bft) 95,74 %
08.08.2018 21:02 22,7 C 27,2 C 22,8 C 70 % 1012,2 hPa 0,0 l/m 16,2 km/h (3 Bft) SW 227 0 min 0,000 mm 0,0 UV-I 0 W/m 16,9 C 20,3 C 25,7 km/h (4 Bft) 100,00 %
08.08.2018 21:04 22,7 C 27,2 C 22,2 C 70 % 1012,3 hPa 0,0 l/m 14,1 km/h (3 Bft) S-SW 207 0 min 0,000 mm 0,0 UV-I 0 W/m 16,9 C 20,7 C 22,5 km/h (4 Bft) 95,74 %
08.08.2018 21:06 22,6 C 27,2 C 22,2 C 70 % 1012,2 hPa 0,0 l/m 11,9 km/h (2 Bft) SW 220 0 min 0,000 mm 0,0 UV-I 0 W/m 16,8 C 21,0 C 16,1 km/h (3 Bft) 98,00 %
08.08.2018 21:08 22,6 C 27,2 C 22,2 C 71 % 1012,2 hPa 0,0 l/m 10,6 km/h (2 Bft) W-SW 258 0 min 0,000 mm 0,0 UV-I 0 W/m 17,1 C 21,4 C 16,1 km/h (3 Bft) 95,74 %
08.08.2018 21:10 22,6 C 27,2 C 22,2 C 71 % 1012,3 hPa 0,0 l/m 11,0 km/h (2 Bft) W 261 0 min 0,000 mm 0,0 UV-I 0 W/m 17,1 C 21,3 C 17,7 km/h (3 Bft) 97,87 %
08.08.2018 21:12 22,5 C 27,2 C 22,2 C 71 % 1012,4 hPa 0,0 l/m 9,5 km/h (2 Bft) W-NW 288 0 min 0,000 mm 0,0 UV-I 0 W/m 17,0 C 21,5 C 16,1 km/h (3 Bft) 98,00 %
08.08.2018 21:14 22,6 C 27,2 C 22,2 C 69 % 1012,4 hPa 0,0 l/m 13,0 km/h (3 Bft) W-SW 242 0 min 0,000 mm 0,0 UV-I 0 W/m 16,6 C 20,8 C 19,3 km/h (3 Bft) 94,74 %
08.08.2018 21:16 22,7 C 27,2 C 22,2 C 69 % 1012,4 hPa 0,0 l/m 11,7 km/h (2 Bft) S-SW 212 0 min 0,000 mm 0,0 UV-I 0 W/m 16,7 C 21,2 C 17,7 km/h (3 Bft) 96,00 %
08.08.2018 21:18 22,8 C 27,2 C 22,8 C 69 % 1012,4 hPa 0,0 l/m 8,3 km/h (2 Bft) W 261 0 min 0,000 mm 0,0 UV-I 0 W/m 16,8 C 22,2 C 12,9 km/h (3 Bft) 93,62 %
08.08.2018 21:20 22,8 C 27,2 C 22,8 C 68 % 1012,4 hPa 0,0 l/m 11,9 km/h (2 Bft) W-SW 248 0 min 0,000 mm 0,0 UV-I 0 W/m 16,6 C 21,3 C 19,3 km/h (3 Bft) 97,87 %
08.08.2018 21:22 22,9 C 27,2 C 22,8 C 68 % 1012,3 hPa 0,0 l/m 9,5 km/h (2 Bft) SW 231 0 min 0,000 mm 0,0 UV-I 0 W/m 16,7 C 22,0 C 17,7 km/h (3 Bft) 95,83 %
08.08.2018 21:24 22,9 C 27,2 C 22,8 C 68 % 1012,4 hPa 0,0 l/m 10,8 km/h (2 Bft) SW 225 0 min 0,000 mm 0,0 UV-I 0 W/m 16,7 C 21,6 C 17,7 km/h (3 Bft) 95,74 %
08.08.2018 21:26 23,0 C 27,2 C 22,8 C 67 % 1012,4 hPa 0,0 l/m 12,3 km/h (3 Bft) SW 223 0 min 0,000 mm 0,0 UV-I 0 W/m 16,5 C 21,4 C 17,7 km/h (3 Bft) 97,87 %
08.08.2018 21:29 22,9 C 27,2 C 22,8 C 68 % 1012,5 hPa 0,0 l/m 12,5 km/h (3 Bft) SW 223 0 min 0,000 mm 0,0 UV-I 0 W/m 16,7 C 21,3 C 19,3 km/h (3 Bft) 98,68 %
08.08.2018 21:30 22,9 C 27,2 C 22,8 C 68 % 1012,5 hPa 0,0 l/m 12,1 km/h (2 Bft) W 259 0 min 0,000 mm 0,0 UV-I 0 W/m 16,7 C 21,3 C 17,7 km/h (3 Bft) 100,00 %
08.08.2018 21:32 22,8 C 27,2 C 22,8 C 69 % 1012,6 hPa 0,0 l/m 15,4 km/h (3 Bft) SW 221 0 min 0,000 mm 0,0 UV-I 0 W/m 16,8 C 20,6 C 22,5 km/h (4 Bft) 97,87 %
08.08.2018 21:34 22,8 C 27,2 C 22,8 C 69 % 1012,6 hPa 0,0 l/m 13,3 km/h (3 Bft) S-SW 208 0 min 0,000 mm 0,0 UV-I 0 W/m 16,8 C 21,0 C 19,3 km/h (3 Bft) 100,00 %
08.08.2018 21:36 22,7 C 27,2 C 22,2 C 71 % 1012,6 hPa 0,0 l/m 12,1 km/h (2 Bft) S-SW 212 0 min 0,000 mm 0,0 UV-I 0 W/m 17,2 C 21,1 C 17,7 km/h (3 Bft) 100,00 %
08.08.2018 21:38 22,5 C 27,2 C 22,2 C 72 % 1012,6 hPa 0,0 l/m 10,6 km/h (2 Bft) S-SW 203 0 min 0,000 mm 0,0 UV-I 0 W/m 17,2 C 21,2 C 17,7 km/h (3 Bft) 97,87 %
08.08.2018 21:40 22,4 C 27,2 C 22,2 C 72 % 1012,6 hPa 0,0 l/m 10,1 km/h (2 Bft) SW 231 0 min 0,000 mm 0,0 UV-I 0 W/m 17,1 C 21,3 C 19,3 km/h (3 Bft) 100,00 %
08.08.2018 21:42 22,3 C 27,2 C 22,2 C 72 % 1012,6 hPa 0,0 l/m 9,8 km/h (2 Bft) W-SW 252 0 min 0,000 mm 0,0 UV-I 0 W/m 17,0 C 21,2 C 16,1 km/h (3 Bft) 100,00 %
08.08.2018 21:44 22,3 C 27,2 C 22,2 C 73 % 1012,7 hPa 0,0 l/m 7,7 km/h (2 Bft) SW 229 0 min 0,000 mm 0,0 UV-I 0 W/m 17,2 C 21,9 C 12,9 km/h (3 Bft) 97,87 %
08.08.2018 21:46 22,2 C 27,2 C 22,2 C 73 % 1012,8 hPa 0,0 l/m 10,5 km/h (2 Bft) SW 221 0 min 0,000 mm 0,0 UV-I 0 W/m 17,1 C 20,9 C 16,1 km/h (3 Bft) 97,87 %
08.08.2018 21:48 22,2 C 27,2 C 22,2 C 73 % 1012,8 hPa 0,0 l/m 8,8 km/h (2 Bft) SW 220 0 min 0,000 mm 0,0 UV-I 0 W/m 17,1 C 21,4 C 14,5 km/h (3 Bft) 97,87 %
08.08.2018 21:50 22,2 C 27,2 C 22,2 C 73 % 1012,9 hPa 0,0 l/m 9,2 km/h (2 Bft) W-SW 248 0 min 0,000 mm 0,0 UV-I 0 W/m 17,1 C 21,3 C 12,9 km/h (3 Bft) 95,74 %
08.08.2018 21:52 22,2 C 27,2 C 22,2 C 73 % 1012,9 hPa 0,0 l/m 7,0 km/h (2 Bft) W-SW 246 0 min 0,000 mm 0,0 UV-I 0 W/m 17,1 C 22,0 C 11,3 km/h (2 Bft) 97,87 %
08.08.2018 21:54 22,2 C 27,2 C 22,2 C 73 % 1012,9 hPa 0,0 l/m 7,5 km/h (2 Bft) W-SW 250 0 min 0,000 mm 0,0 UV-I 0 W/m 17,1 C 21,8 C 12,9 km/h (3 Bft) 93,62 %
08.08.2018 21:56 22,2 C 27,2 C 22,2 C 72 % 1012,9 hPa 0,0 l/m 6,8 km/h (2 Bft) SW 227 0 min 0,000 mm 0,0 UV-I 0 W/m 16,9 C 22,1 C 11,3 km/h (2 Bft) 95,74 %
08.08.2018 21:58 22,3 C 27,2 C 22,2 C 72 % 1012,8 hPa 0,0 l/m 10,0 km/h (2 Bft) S 187 0 min 0,000 mm 0,0 UV-I 0 W/m 17,0 C 21,2 C 16,1 km/h (3 Bft) 95,74 %
08.08.2018 22:00 22,3 C 27,2 C 22,2 C 72 % 1012,8 hPa 0,0 l/m 7,3 km/h (2 Bft) S-SW 207 0 min 0,000 mm 0,0 UV-I 0 W/m 17,0 C 22,0 C 11,3 km/h (2 Bft) 97,87 %
08.08.2018 22:02 22,3 C 27,2 C 22,2 C 72 % 1012,9 hPa 0,0 l/m 7,2 km/h (2 Bft) S-SW 203 0 min 0,051 mm 0,0 UV-I 0 W/m 17,0 C 22,0 C 11,3 km/h (2 Bft) 97,87 %
08.08.2018 22:04 22,4 C 27,2 C 22,2 C 72 % 1012,9 hPa 0,0 l/m 9,3 km/h (2 Bft) SW 229 0 min 0,000 mm 0,0 UV-I 0 W/m 17,1 C 21,5 C 12,9 km/h (3 Bft) 93,75 %
08.08.2018 22:06 22,4 C 27,2 C 22,2 C 72 % 1013,0 hPa 0,0 l/m 7,6 km/h (2 Bft) SW 220 0 min 0,000 mm 0,0 UV-I 0 W/m 17,1 C 22,0 C 11,3 km/h (2 Bft) 97,87 %
08.08.2018 22:08 22,4 C 27,2 C 22,2 C 71 % 1013,0 hPa 0,0 l/m 8,0 km/h (2 Bft) W-SW 254 0 min 0,000 mm 0,0 UV-I 0 W/m 16,9 C 21,9 C 14,5 km/h (3 Bft) 100,00 %
08.08.2018 22:10 22,4 C 27,2 C 22,2 C 71 % 1013,0 hPa 0,0 l/m 9,7 km/h (2 Bft) S-SW 211 0 min 0,000 mm 0,0 UV-I 0 W/m 16,9 C 21,4 C 16,1 km/h (3 Bft) 97,87 %
08.08.2018 22:12 22,5 C 27,2 C 22,2 C 71 % 1012,9 hPa 0,0 l/m 9,7 km/h (2 Bft) SW 215 0 min 0,000 mm 0,0 UV-I 0 W/m 17,0 C 21,5 C 16,1 km/h (3 Bft) 97,87 %
08.08.2018 22:14 22,6 C 27,2 C 22,2 C 70 % 1012,9 hPa 0,0 l/m 11,9 km/h (2 Bft) S-SW 198 0 min 0,000 mm 0,0 UV-I 0 W/m 16,8 C 21,0 C 16,1 km/h (3 Bft) 95,74 %
08.08.2018 22:16 22,6 C 26,7 C 22,8 C 70 % 1013,0 hPa 0,0 l/m 9,5 km/h (2 Bft) W-SW 246 0 min 0,000 mm 0,0 UV-I 0 W/m 16,8 C 21,6 C 14,5 km/h (3 Bft) 100,00 %
08.08.2018 22:18 22,6 C 26,7 C 22,2 C 70 % 1013,1 hPa 0,0 l/m 10,2 km/h (2 Bft) W-SW 244 0 min 0,000 mm 0,0 UV-I 0 W/m 16,8 C 21,5 C 14,5 km/h (3 Bft) 98,00 %
08.08.2018 22:20 22,6 C 26,7 C 22,2 C 70 % 1013,1 hPa 0,0 l/m 7,8 km/h (2 Bft) SW 233 0 min 0,000 mm 0,0 UV-I 0 W/m 16,8 C 22,1 C 14,5 km/h (3 Bft) 100,00 %
08.08.2018 22:22 22,5 C 26,7 C 22,2 C 71 % 1013,1 hPa 0,0 l/m 8,6 km/h (2 Bft) S-SW 205 0 min 0,000 mm 0,0 UV-I 0 W/m 17,0 C 21,8 C 12,9 km/h (3 Bft) 100,00 %
08.08.2018 22:24 22,4 C 26,7 C 22,2 C 71 % 1013,2 hPa 0,0 l/m 6,8 km/h (2 Bft) W-SW 250 0 min 0,000 mm 0,0 UV-I 0 W/m 16,9 C 22,3 C 11,3 km/h (2 Bft) 100,00 %
08.08.2018 22:26 22,4 C 26,7 C 22,2 C 71 % 1013,3 hPa 0,0 l/m 4,6 km/h (1 Bft) NW 317 0 min 0,000 mm 0,0 UV-I 0 W/m 16,9 C 22,4 C 9,7 km/h (2 Bft) 100,00 %
08.08.2018 22:28 22,4 C 26,7 C 22,2 C 72 % 1013,3 hPa 0,0 l/m 7,3 km/h (2 Bft) W 273 0 min 0,000 mm 0,0 UV-I 0 W/m 17,1 C 22,1 C 11,3 km/h (2 Bft) 100,00 %
08.08.2018 22:30 22,4 C 26,7 C 22,2 C 72 % 1013,4 hPa 0,0 l/m 7,9 km/h (2 Bft) W 263 0 min 0,000 mm 0,0 UV-I 0 W/m 17,1 C 21,9 C 12,9 km/h (3 Bft) 100,00 %
08.08.2018 22:32 22,3 C 26,7 C 22,2 C 72 % 1013,5 hPa 0,0 l/m 4,9 km/h (1 Bft) W 269 0 min 0,000 mm 0,0 UV-I 0 W/m 17,0 C 22,3 C 9,7 km/h (2 Bft) 100,00 %
08.08.2018 22:34 22,3 C 26,7 C 22,2 C 72 % 1013,6 hPa 0,0 l/m 4,2 km/h (1 Bft) W 265 0 min 0,000 mm 0,0 UV-I 0 W/m 17,0 C 22,3 C 9,7 km/h (2 Bft) 97,87 %
08.08.2018 22:36 22,3 C 26,7 C 22,2 C 72 % 1013,6 hPa 0,0 l/m 5,2 km/h (1 Bft) SW 219 0 min 0,000 mm 0,0 UV-I 0 W/m 17,0 C 22,3 C 8,0 km/h (2 Bft) 100,00 %
08.08.2018 22:38 22,3 C 26,7 C 22,2 C 72 % 1013,7 hPa 0,0 l/m 8,1 km/h (2 Bft) S-SW 207 0 min 0,000 mm 0,0 UV-I 0 W/m 17,0 C 21,7 C 14,5 km/h (3 Bft) 100,00 %
08.08.2018 22:40 22,3 C 26,7 C 22,2 C 72 % 1013,7 hPa 0,0 l/m 8,5 km/h (2 Bft) SW 217 0 min 0,000 mm 0,0 UV-I 0 W/m 17,0 C 21,6 C 12,9 km/h (3 Bft) 100,00 %
08.08.2018 22:42 22,3 C 26,7 C 22,2 C 72 % 1013,9 hPa 0,0 l/m 9,8 km/h (2 Bft) S-SW 211 0 min 0,000 mm 0,0 UV-I 0 W/m 17,0 C 21,2 C 14,5 km/h (3 Bft) 100,00 %
08.08.2018 22:44 22,3 C 26,7 C 22,2 C 72 % 1013,8 hPa 0,0 l/m 7,5 km/h (2 Bft) W-SW 244 0 min 0,000 mm 0,0 UV-I 0 W/m 17,0 C 21,9 C 12,9 km/h (3 Bft) 100,00 %
08.08.2018 22:46 22,3 C 26,7 C 22,2 C 72 % 1013,9 hPa 0,0 l/m 6,9 km/h (2 Bft) SW 227 0 min 0,000 mm 0,0 UV-I 0 W/m 17,0 C 22,1 C 11,3 km/h (2 Bft) 97,87 %
08.08.2018 22:48 22,2 C 26,7 C 22,2 C 72 % 1013,9 hPa 0,0 l/m 6,1 km/h (2 Bft) S-SW 210 0 min 0,000 mm 0,0 UV-I 0 W/m 16,9 C 22,2 C 8,0 km/h (2 Bft) 100,00 %
08.08.2018 22:50 22,2 C 26,7 C 22,2 C 73 % 1013,9 hPa 0,0 l/m 4,9 km/h (1 Bft) S-SW 194 0 min 0,000 mm 0,0 UV-I 0 W/m 17,1 C 22,2 C 8,0 km/h (2 Bft) 100,00 %
08.08.2018 22:52 22,2 C 26,7 C 22,2 C 73 % 1013,9 hPa 0,0 l/m 6,0 km/h (2 Bft) S-SW 212 0 min 0,000 mm 0,0 UV-I 0 W/m 17,1 C 22,2 C 9,7 km/h (2 Bft) 97,87 %
08.08.2018 22:54 22,1 C 26,7 C 22,2 C 73 % 1014,0 hPa 0,0 l/m 5,8 km/h (2 Bft) SW 223 0 min 0,000 mm 0,0 UV-I 0 W/m 17,0 C 22,1 C 8,0 km/h (2 Bft) 93,62 %
08.08.2018 22:56 22,1 C 26,7 C 22,2 C 73 % 1014,0 hPa 0,0 l/m 4,2 km/h (1 Bft) S-SW 198 0 min 0,000 mm 0,0 UV-I 0 W/m 17,0 C 22,1 C 6,4 km/h (2 Bft) 98,00 %
08.08.2018 22:58 22,1 C 26,7 C 22,2 C 74 % 1014,1 hPa 0,0 l/m 7,4 km/h (2 Bft) S-SW 194 0 min 0,000 mm 0,0 UV-I 0 W/m 17,2 C 21,8 C 12,9 km/h (3 Bft) 97,87 %
08.08.2018 23:00 22,1 C 26,7 C 22,2 C 73 % 1014,1 hPa 0,0 l/m 6,7 km/h (2 Bft) S 188 0 min 0,000 mm 0,0 UV-I 0 W/m 17,0 C 22,0 C 11,3 km/h (2 Bft) 95,74 %
08.08.2018 23:02 22,2 C 26,7 C 22,2 C 73 % 1014,1 hPa 0,0 l/m 6,8 km/h (2 Bft) S 183 0 min 0,050 mm 0,0 UV-I 0 W/m 17,1 C 22,1 C 9,7 km/h (2 Bft) 97,37 %
08.08.2018 23:04 22,2 C 26,7 C 22,2 C 73 % 1014,1 hPa 0,0 l/m 9,1 km/h (2 Bft) S-SW 198 0 min 0,000 mm 0,0 UV-I 0 W/m 17,1 C 21,3 C 14,5 km/h (3 Bft) 95,74 %
08.08.2018 23:06 22,2 C 26,7 C 22,2 C 73 % 1014,1 hPa 0,0 l/m 11,1 km/h (2 Bft) S-SW 207 0 min 0,000 mm 0,0 UV-I 0 W/m 17,1 C 20,8 C 19,3 km/h (3 Bft) 94,00 %
08.08.2018 23:09 22,3 C 26,7 C 22,2 C 72 % 1014,1 hPa 0,0 l/m 11,2 km/h (2 Bft) S-SW 198 0 min 0,000 mm 0,0 UV-I 0 W/m 17,0 C 20,9 C 19,3 km/h (3 Bft) 98,59 %
08.08.2018 23:10 22,3 C 26,7 C 22,2 C 72 % 1014,1 hPa 0,0 l/m 13,7 km/h (3 Bft) S-SW 200 0 min 0,000 mm 0,0 UV-I 0 W/m 17,0 C 20,3 C 20,9 km/h (4 Bft) 100,00 %
08.08.2018 23:12 22,4 C 26,7 C 22,2 C 72 % 1014,1 hPa 0,0 l/m 14,9 km/h (3 Bft) W-SW 246 0 min 0,000 mm 0,0 UV-I 0 W/m 17,1 C 20,2 C 27,4 km/h (4 Bft) 95,83 %
08.08.2018 23:14 22,6 C 26,7 C 22,2 C 72 % 1014,1 hPa 0,0 l/m 16,2 km/h (3 Bft) W-SW 243 0 min 0,000 mm 0,0 UV-I 0 W/m 17,3 C 20,2 C 24,1 km/h (4 Bft) 98,00 %
08.08.2018 23:16 22,7 C 26,7 C 22,8 C 71 % 1014,2 hPa 0,0 l/m 20,0 km/h (4 Bft) W-SW 257 0 min 0,000 mm 0,0 UV-I 0 W/m 17,2 C 19,7 C 27,4 km/h (4 Bft) 95,74 %
08.08.2018 23:19 22,9 C 26,7 C 22,8 C 71 % 1014,2 hPa 0,0 l/m 17,2 km/h (3 Bft) W-SW 250 0 min 0,000 mm 0,0 UV-I 0 W/m 17,4 C 20,4 C 27,4 km/h (4 Bft) 91,43 %
08.08.2018 23:20 23,1 C 26,7 C 22,8 C 71 % 1014,2 hPa 0,0 l/m 16,4 km/h (3 Bft) SW 228 0 min 0,000 mm 0,0 UV-I 0 W/m 17,5 C 20,8 C 25,7 km/h (4 Bft) 92,59 %
08.08.2018 23:22 23,2 C 26,7 C 22,8 C 70 % 1014,2 hPa 0,0 l/m 18,4 km/h (3 Bft) W-SW 238 0 min 0,000 mm 0,0 UV-I 0 W/m 17,4 C 20,6 C 32,2 km/h (5 Bft) 95,74 %
08.08.2018 23:24 23,3 C 26,7 C 22,8 C 70 % 1014,2 hPa 0,0 l/m 21,1 km/h (4 Bft) W 263 0 min 0,000 mm 0,0 UV-I 0 W/m 17,5 C 20,3 C 30,6 km/h (5 Bft) 97,37 %
08.08.2018 23:26 23,3 C 26,7 C 22,8 C 70 % 1014,3 hPa 0,0 l/m 19,1 km/h (3 Bft) W-SW 250 0 min 0,000 mm 0,0 UV-I 0 W/m 17,5 C 20,6 C 30,6 km/h (5 Bft) 95,74 %
08.08.2018 23:28 23,3 C 26,7 C 23,3 C 70 % 1014,3 hPa 0,0 l/m 12,6 km/h (3 Bft) W-SW 255 0 min 0,000 mm 0,0 UV-I 0 W/m 17,5 C 21,7 C 24,1 km/h (4 Bft) 97,87 %
08.08.2018 23:30 23,3 C 26,7 C 23,3 C 70 % 1014,4 hPa 0,0 l/m 15,9 km/h (3 Bft) W-SW 250 0 min 0,000 mm 0,0 UV-I 0 W/m 17,5 C 21,1 C 22,5 km/h (4 Bft) 97,87 %
08.08.2018 23:32 23,3 C 26,7 C 23,3 C 70 % 1014,4 hPa 0,0 l/m 17,6 km/h (3 Bft) SW 218 0 min 0,000 mm 0,0 UV-I 0 W/m 17,5 C 20,8 C 29,0 km/h (5 Bft) 91,49 %
08.08.2018 23:34 23,3 C 26,7 C 23,3 C 70 % 1014,4 hPa 0,0 l/m 15,3 km/h (3 Bft) S 179 0 min 0,000 mm 0,0 UV-I 0 W/m 17,5 C 21,2 C 22,5 km/h (4 Bft) 93,62 %
08.08.2018 23:36 23,3 C 26,7 C 22,8 C 70 % 1014,4 hPa 0,0 l/m 15,7 km/h (3 Bft) W-SW 252 0 min 0,000 mm 0,0 UV-I 0 W/m 17,5 C 21,1 C 27,4 km/h (4 Bft) 94,00 %
08.08.2018 23:38 23,3 C 26,7 C 22,8 C 71 % 1014,4 hPa 0,0 l/m 23,2 km/h (4 Bft) W-SW 254 0 min 0,000 mm 0,0 UV-I 0 W/m 17,7 C 20,1 C 32,2 km/h (5 Bft) 96,00 %
08.08.2018 23:40 23,2 C 26,7 C 22,8 C 71 % 1014,4 hPa 0,0 l/m 16,8 km/h (3 Bft) SW 217 0 min 0,000 mm 0,0 UV-I 0 W/m 17,6 C 20,8 C 29,0 km/h (5 Bft) 95,74 %
08.08.2018 23:42 23,1 C 26,7 C 22,8 C 72 % 1014,4 hPa 0,0 l/m 23,9 km/h (4 Bft) W-SW 238 0 min 0,000 mm 0,0 UV-I 0 W/m 17,8 C 19,7 C 32,2 km/h (5 Bft) 97,87 %
08.08.2018 23:44 23,0 C 26,7 C 22,8 C 72 % 1014,4 hPa 0,0 l/m 18,4 km/h (3 Bft) S-SW 213 0 min 0,000 mm 0,0 UV-I 0 W/m 17,7 C 20,3 C 24,1 km/h (4 Bft) 97,87 %
08.08.2018 23:46 22,9 C 26,7 C 22,8 C 72 % 1014,4 hPa 0,0 l/m 21,9 km/h (4 Bft) SW 215 0 min 0,000 mm 0,0 UV-I 0 W/m 17,6 C 19,7 C 41,8 km/h (6 Bft) 97,37 %
08.08.2018 23:48 22,8 C 26,7 C 22,8 C 72 % 1014,4 hPa 0,0 l/m 23,9 km/h (4 Bft) S-SW 210 0 min 0,000 mm 0,0 UV-I 0 W/m 17,5 C 19,3 C 32,2 km/h (5 Bft) 97,87 %
08.08.2018 23:50 22,8 C 26,7 C 22,8 C 71 % 1014,4 hPa 0,0 l/m 22,7 km/h (4 Bft) SW 216 0 min 0,000 mm 0,0 UV-I 0 W/m 17,3 C 19,5 C 32,2 km/h (5 Bft) 98,00 %
08.08.2018 23:52 22,8 C 26,7 C 22,8 C 72 % 1014,4 hPa 0,0 l/m 26,1 km/h (4 Bft) W 281 0 min 0,000 mm 0,0 UV-I 0 W/m 17,5 C 19,1 C 38,6 km/h (5 Bft) 95,83 %
08.08.2018 23:54 22,7 C 26,7 C 22,8 C 71 % 1014,4 hPa 0,0 l/m 24,9 km/h (4 Bft) W-SW 247 0 min 0,000 mm 0,0 UV-I 0 W/m 17,2 C 19,1 C 40,2 km/h (6 Bft) 94,00 %
08.08.2018 23:56 22,7 C 26,7 C 22,2 C 71 % 1014,4 hPa 0,0 l/m 22,3 km/h (4 Bft) W-SW 240 0 min 0,000 mm 0,0 UV-I 0 W/m 17,2 C 19,4 C 30,6 km/h (5 Bft) 97,96 %
08.08.2018 23:58 22,7 C 26,7 C 22,2 C 71 % 1014,4 hPa 0,0 l/m 24,4 km/h (4 Bft) SW 227 0 min 0,000 mm 0,0 UV-I 0 W/m 17,2 C 19,1 C 37,0 km/h (5 Bft) 94,44 %
_ Min-Zeit 06:16 04:28 04:18 16:04 04:46 - 02:48 - - - - - - 06:14 06:16 02:48 20:22
Minimum _ 15,8 C 25,6 C 14,4 C 34 % 1010,1 hPa - 0,0 km/h (0 Bft) - - - - - - 14,1 C 15,8 C 0,0 km/h (0 Bft) 87,23 %
_ Max-Zeit 15:14 14:38 14:16 04:30 23:30 00:00 23:52 - - 06:00 14:02 13:14 13:14 12:50 15:14 23:46 00:00
Maximum _ 33,4 C 27,2 C 44,4 C 90 % 1014,4 hPa 0,0 l/m 26,1 km/h
W (4 Bft)
- - 2 min 0,661 mm 5,6 UV-I 806 W/m 18,0 C 33,4 C 41,8 km/h
W-SW (6 Bft)
100,00 %
Durchschnitt _ 24,5 C 26,4 C 28,2 C 63 % 1011,6 hPa #0,0 l/m 6,5 km/h (2 Bft) S-SW - #12:02 h #5,486 mm 3,1 UV-I 435 W/m 16,0 C 24,3 C 10,6 km/h (2 Bft) 97,11 %